<?xml version="1.0" encoding="UTF-8" standalone="no" ?>
<gpx xmlns="http://www.topografix.com/GPX/1/1" xmlns:xsi="http://www.w3.org/2001/XMLSchema-instance" xsi:schemaLocation="http://www.topografix.com/GPX/1/1 http://www.topografix.com/GPX/1/1/gpx.xsd" version="1.1" creator="VisuGPX - https://www.visugpx.com">
  <metadata>
    <name>Rando-Trail</name>
    <desc><![CDATA[Boucle: Plagne Soleil-Grande Rochette-Bécoin-Pas des brebis-Aime 2000-Plagne soleil]]></desc>
  </metadata>
  <trk>
    <name><![CDATA[Tracé actuel: 14 AOU 2016 07:52]]></name>
    <trkseg>
      <trkpt lat="45.50781" lon="6.68722">
        <ele>1884.8</ele>
        <time>2016-08-14T05:52:33Z</time>
      </trkpt>
      <trkpt lat="45.5078" lon="6.68724">
        <ele>1884.8</ele>
        <time>2016-08-14T05:52:34Z</time>
      </trkpt>
      <trkpt lat="45.50775" lon="6.68735">
        <ele>1886.72</ele>
        <time>2016-08-14T05:53:01Z</time>
      </trkpt>
      <trkpt lat="45.50775" lon="6.68734">
        <ele>1888.65</ele>
        <time>2016-08-14T05:53:28Z</time>
      </trkpt>
      <trkpt lat="45.50776" lon="6.68737">
        <ele>1891.53</ele>
        <time>2016-08-14T05:53:55Z</time>
      </trkpt>
      <trkpt lat="45.50775" lon="6.68737">
        <ele>1894.42</ele>
        <time>2016-08-14T05:54:23Z</time>
      </trkpt>
      <trkpt lat="45.50776" lon="6.68738">
        <ele>1895.38</ele>
        <time>2016-08-14T05:54:40Z</time>
      </trkpt>
      <trkpt lat="45.50782" lon="6.68739">
        <ele>1897.78</ele>
        <time>2016-08-14T05:55:01Z</time>
      </trkpt>
      <trkpt lat="45.50778" lon="6.68742">
        <ele>1899.22</ele>
        <time>2016-08-14T05:55:17Z</time>
      </trkpt>
      <trkpt lat="45.5078" lon="6.68745">
        <ele>1899.7</ele>
        <time>2016-08-14T05:55:26Z</time>
      </trkpt>
      <trkpt lat="45.50772" lon="6.68742">
        <ele>1900.66</ele>
        <time>2016-08-14T05:55:34Z</time>
      </trkpt>
      <trkpt lat="45.50769" lon="6.68743">
        <ele>1902.11</ele>
        <time>2016-08-14T05:55:36Z</time>
      </trkpt>
      <trkpt lat="45.50766" lon="6.68744">
        <ele>1902.11</ele>
        <time>2016-08-14T05:55:38Z</time>
      </trkpt>
      <trkpt lat="45.50759" lon="6.68749">
        <ele>1902.59</ele>
        <time>2016-08-14T05:55:44Z</time>
      </trkpt>
      <trkpt lat="45.50757" lon="6.68748">
        <ele>1903.55</ele>
        <time>2016-08-14T05:55:51Z</time>
      </trkpt>
      <trkpt lat="45.50746" lon="6.68758">
        <ele>1904.51</ele>
        <time>2016-08-14T05:55:59Z</time>
      </trkpt>
      <trkpt lat="45.50742" lon="6.68759">
        <ele>1905.47</ele>
        <time>2016-08-14T05:56:03Z</time>
      </trkpt>
      <trkpt lat="45.50741" lon="6.68761">
        <ele>1905.47</ele>
        <time>2016-08-14T05:56:05Z</time>
      </trkpt>
      <trkpt lat="45.5074" lon="6.68765">
        <ele>1906.43</ele>
        <time>2016-08-14T05:56:08Z</time>
      </trkpt>
      <trkpt lat="45.50727" lon="6.68782">
        <ele>1908.35</ele>
        <time>2016-08-14T05:56:19Z</time>
      </trkpt>
      <trkpt lat="45.50715" lon="6.68805">
        <ele>1911.24</ele>
        <time>2016-08-14T05:56:33Z</time>
      </trkpt>
      <trkpt lat="45.50712" lon="6.6881">
        <ele>1911.24</ele>
        <time>2016-08-14T05:56:36Z</time>
      </trkpt>
      <trkpt lat="45.50694" lon="6.68829">
        <ele>1913.64</ele>
        <time>2016-08-14T05:56:49Z</time>
      </trkpt>
      <trkpt lat="45.50683" lon="6.68842">
        <ele>1916.53</ele>
        <time>2016-08-14T05:57:02Z</time>
      </trkpt>
      <trkpt lat="45.50683" lon="6.68845">
        <ele>1917.97</ele>
        <time>2016-08-14T05:57:06Z</time>
      </trkpt>
      <trkpt lat="45.50682" lon="6.68854">
        <ele>1920.37</ele>
        <time>2016-08-14T05:57:14Z</time>
      </trkpt>
      <trkpt lat="45.50683" lon="6.6886">
        <ele>1922.77</ele>
        <time>2016-08-14T05:57:19Z</time>
      </trkpt>
      <trkpt lat="45.50684" lon="6.68869">
        <ele>1924.22</ele>
        <time>2016-08-14T05:57:27Z</time>
      </trkpt>
      <trkpt lat="45.50693" lon="6.68878">
        <ele>1927.58</ele>
        <time>2016-08-14T05:57:39Z</time>
      </trkpt>
      <trkpt lat="45.50704" lon="6.68886">
        <ele>1931.43</ele>
        <time>2016-08-14T05:57:51Z</time>
      </trkpt>
      <trkpt lat="45.50706" lon="6.68887">
        <ele>1931.91</ele>
        <time>2016-08-14T05:57:53Z</time>
      </trkpt>
      <trkpt lat="45.50716" lon="6.68887">
        <ele>1935.27</ele>
        <time>2016-08-14T05:58:04Z</time>
      </trkpt>
      <trkpt lat="45.50728" lon="6.68887">
        <ele>1939.12</ele>
        <time>2016-08-14T05:58:15Z</time>
      </trkpt>
      <trkpt lat="45.5073" lon="6.68887">
        <ele>1939.6</ele>
        <time>2016-08-14T05:58:17Z</time>
      </trkpt>
      <trkpt lat="45.50739" lon="6.68895">
        <ele>1943.44</ele>
        <time>2016-08-14T05:58:27Z</time>
      </trkpt>
      <trkpt lat="45.50746" lon="6.68906">
        <ele>1946.33</ele>
        <time>2016-08-14T05:58:37Z</time>
      </trkpt>
      <trkpt lat="45.50754" lon="6.68912">
        <ele>1949.21</ele>
        <time>2016-08-14T05:58:45Z</time>
      </trkpt>
      <trkpt lat="45.50762" lon="6.68916">
        <ele>1952.57</ele>
        <time>2016-08-14T05:58:54Z</time>
      </trkpt>
      <trkpt lat="45.50772" lon="6.68921">
        <ele>1955.94</ele>
        <time>2016-08-14T05:59:04Z</time>
      </trkpt>
      <trkpt lat="45.50785" lon="6.68923">
        <ele>1959.3</ele>
        <time>2016-08-14T05:59:16Z</time>
      </trkpt>
      <trkpt lat="45.50801" lon="6.68924">
        <ele>1962.67</ele>
        <time>2016-08-14T05:59:29Z</time>
      </trkpt>
      <trkpt lat="45.5081" lon="6.68932">
        <ele>1966.03</ele>
        <time>2016-08-14T05:59:40Z</time>
      </trkpt>
      <trkpt lat="45.50816" lon="6.68938">
        <ele>1967.96</ele>
        <time>2016-08-14T05:59:49Z</time>
      </trkpt>
      <trkpt lat="45.5082" lon="6.68943">
        <ele>1969.88</ele>
        <time>2016-08-14T05:59:54Z</time>
      </trkpt>
      <trkpt lat="45.50821" lon="6.68946">
        <ele>1970.84</ele>
        <time>2016-08-14T05:59:57Z</time>
      </trkpt>
      <trkpt lat="45.50831" lon="6.6896">
        <ele>1974.69</ele>
        <time>2016-08-14T06:00:09Z</time>
      </trkpt>
      <trkpt lat="45.50839" lon="6.68974">
        <ele>1977.57</ele>
        <time>2016-08-14T06:00:20Z</time>
      </trkpt>
      <trkpt lat="45.50848" lon="6.6899">
        <ele>1981.41</ele>
        <time>2016-08-14T06:00:32Z</time>
      </trkpt>
      <trkpt lat="45.50854" lon="6.69007">
        <ele>1984.3</ele>
        <time>2016-08-14T06:00:43Z</time>
      </trkpt>
      <trkpt lat="45.50859" lon="6.69025">
        <ele>1987.18</ele>
        <time>2016-08-14T06:00:54Z</time>
      </trkpt>
      <trkpt lat="45.50868" lon="6.69044">
        <ele>1990.55</ele>
        <time>2016-08-14T06:01:08Z</time>
      </trkpt>
      <trkpt lat="45.50877" lon="6.69062">
        <ele>1991.99</ele>
        <time>2016-08-14T06:01:21Z</time>
      </trkpt>
      <trkpt lat="45.50874" lon="6.69082">
        <ele>1993.43</ele>
        <time>2016-08-14T06:01:31Z</time>
      </trkpt>
      <trkpt lat="45.50874" lon="6.69124">
        <ele>1994.87</ele>
        <time>2016-08-14T06:01:44Z</time>
      </trkpt>
      <trkpt lat="45.5088" lon="6.69163">
        <ele>1996.8</ele>
        <time>2016-08-14T06:01:57Z</time>
      </trkpt>
      <trkpt lat="45.50877" lon="6.692">
        <ele>1996.8</ele>
        <time>2016-08-14T06:02:09Z</time>
      </trkpt>
      <trkpt lat="45.50878" lon="6.69242">
        <ele>1995.83</ele>
        <time>2016-08-14T06:02:22Z</time>
      </trkpt>
      <trkpt lat="45.50886" lon="6.69281">
        <ele>1996.32</ele>
        <time>2016-08-14T06:02:34Z</time>
      </trkpt>
      <trkpt lat="45.50887" lon="6.69291">
        <ele>1997.76</ele>
        <time>2016-08-14T06:02:37Z</time>
      </trkpt>
      <trkpt lat="45.50873" lon="6.69326">
        <ele>1998.24</ele>
        <time>2016-08-14T06:02:49Z</time>
      </trkpt>
      <trkpt lat="45.5086" lon="6.69363">
        <ele>1997.28</ele>
        <time>2016-08-14T06:03:02Z</time>
      </trkpt>
      <trkpt lat="45.50846" lon="6.69392">
        <ele>1996.32</ele>
        <time>2016-08-14T06:03:13Z</time>
      </trkpt>
      <trkpt lat="45.50838" lon="6.69427">
        <ele>1995.35</ele>
        <time>2016-08-14T06:03:24Z</time>
      </trkpt>
      <trkpt lat="45.50831" lon="6.69465">
        <ele>1995.35</ele>
        <time>2016-08-14T06:03:36Z</time>
      </trkpt>
      <trkpt lat="45.50813" lon="6.69495">
        <ele>1995.35</ele>
        <time>2016-08-14T06:03:48Z</time>
      </trkpt>
      <trkpt lat="45.50784" lon="6.69513">
        <ele>1995.35</ele>
        <time>2016-08-14T06:04:01Z</time>
      </trkpt>
      <trkpt lat="45.5076" lon="6.69535">
        <ele>1994.87</ele>
        <time>2016-08-14T06:04:13Z</time>
      </trkpt>
      <trkpt lat="45.50745" lon="6.69562">
        <ele>1993.43</ele>
        <time>2016-08-14T06:04:24Z</time>
      </trkpt>
      <trkpt lat="45.50744" lon="6.69564">
        <ele>1992.95</ele>
        <time>2016-08-14T06:04:25Z</time>
      </trkpt>
      <trkpt lat="45.50743" lon="6.69567">
        <ele>1992.95</ele>
        <time>2016-08-14T06:04:26Z</time>
      </trkpt>
      <trkpt lat="45.50741" lon="6.69569">
        <ele>1992.47</ele>
        <time>2016-08-14T06:04:27Z</time>
      </trkpt>
      <trkpt lat="45.5074" lon="6.69572">
        <ele>1992.47</ele>
        <time>2016-08-14T06:04:28Z</time>
      </trkpt>
      <trkpt lat="45.50739" lon="6.69574">
        <ele>1992.47</ele>
        <time>2016-08-14T06:04:29Z</time>
      </trkpt>
      <trkpt lat="45.50723" lon="6.69593">
        <ele>1990.07</ele>
        <time>2016-08-14T06:04:39Z</time>
      </trkpt>
      <trkpt lat="45.50697" lon="6.69593">
        <ele>1989.59</ele>
        <time>2016-08-14T06:04:50Z</time>
      </trkpt>
      <trkpt lat="45.50689" lon="6.69591">
        <ele>1991.03</ele>
        <time>2016-08-14T06:04:54Z</time>
      </trkpt>
      <trkpt lat="45.50665" lon="6.69588">
        <ele>1994.87</ele>
        <time>2016-08-14T06:05:09Z</time>
      </trkpt>
      <trkpt lat="45.50645" lon="6.69594">
        <ele>1998.24</ele>
        <time>2016-08-14T06:05:21Z</time>
      </trkpt>
      <trkpt lat="45.50625" lon="6.69588">
        <ele>2001.12</ele>
        <time>2016-08-14T06:05:34Z</time>
      </trkpt>
      <trkpt lat="45.506" lon="6.69575">
        <ele>2003.52</ele>
        <time>2016-08-14T06:05:49Z</time>
      </trkpt>
      <trkpt lat="45.50575" lon="6.69559">
        <ele>2005.45</ele>
        <time>2016-08-14T06:06:02Z</time>
      </trkpt>
      <trkpt lat="45.50549" lon="6.69546">
        <ele>2005.93</ele>
        <time>2016-08-14T06:06:15Z</time>
      </trkpt>
      <trkpt lat="45.50523" lon="6.6954">
        <ele>2007.85</ele>
        <time>2016-08-14T06:06:29Z</time>
      </trkpt>
      <trkpt lat="45.50521" lon="6.6954">
        <ele>2007.85</ele>
        <time>2016-08-14T06:06:30Z</time>
      </trkpt>
      <trkpt lat="45.50519" lon="6.69539">
        <ele>2007.85</ele>
        <time>2016-08-14T06:06:31Z</time>
      </trkpt>
      <trkpt lat="45.50517" lon="6.69538">
        <ele>2008.33</ele>
        <time>2016-08-14T06:06:32Z</time>
      </trkpt>
      <trkpt lat="45.50515" lon="6.69538">
        <ele>2008.81</ele>
        <time>2016-08-14T06:06:33Z</time>
      </trkpt>
      <trkpt lat="45.50513" lon="6.69537">
        <ele>2008.81</ele>
        <time>2016-08-14T06:06:34Z</time>
      </trkpt>
      <trkpt lat="45.50511" lon="6.69536">
        <ele>2008.81</ele>
        <time>2016-08-14T06:06:35Z</time>
      </trkpt>
      <trkpt lat="45.50509" lon="6.69535">
        <ele>2009.29</ele>
        <time>2016-08-14T06:06:36Z</time>
      </trkpt>
      <trkpt lat="45.5049" lon="6.69527">
        <ele>2011.7</ele>
        <time>2016-08-14T06:06:47Z</time>
      </trkpt>
      <trkpt lat="45.50489" lon="6.69525">
        <ele>2011.7</ele>
        <time>2016-08-14T06:06:48Z</time>
      </trkpt>
      <trkpt lat="45.50487" lon="6.69524">
        <ele>2012.18</ele>
        <time>2016-08-14T06:06:49Z</time>
      </trkpt>
      <trkpt lat="45.50485" lon="6.69523">
        <ele>2012.18</ele>
        <time>2016-08-14T06:06:50Z</time>
      </trkpt>
      <trkpt lat="45.50484" lon="6.69522">
        <ele>2012.66</ele>
        <time>2016-08-14T06:06:51Z</time>
      </trkpt>
      <trkpt lat="45.50482" lon="6.69521">
        <ele>2012.66</ele>
        <time>2016-08-14T06:06:52Z</time>
      </trkpt>
      <trkpt lat="45.50462" lon="6.69514">
        <ele>2016.02</ele>
        <time>2016-08-14T06:07:03Z</time>
      </trkpt>
      <trkpt lat="45.50456" lon="6.69513">
        <ele>2016.98</ele>
        <time>2016-08-14T06:07:07Z</time>
      </trkpt>
      <trkpt lat="45.50438" lon="6.69509">
        <ele>2020.35</ele>
        <time>2016-08-14T06:07:18Z</time>
      </trkpt>
      <trkpt lat="45.50419" lon="6.69503">
        <ele>2024.19</ele>
        <time>2016-08-14T06:07:31Z</time>
      </trkpt>
      <trkpt lat="45.50404" lon="6.69498">
        <ele>2026.12</ele>
        <time>2016-08-14T06:07:39Z</time>
      </trkpt>
      <trkpt lat="45.50402" lon="6.69499">
        <ele>2026.12</ele>
        <time>2016-08-14T06:07:40Z</time>
      </trkpt>
      <trkpt lat="45.504" lon="6.695">
        <ele>2026.12</ele>
        <time>2016-08-14T06:07:41Z</time>
      </trkpt>
      <trkpt lat="45.50399" lon="6.69502">
        <ele>2026.12</ele>
        <time>2016-08-14T06:07:42Z</time>
      </trkpt>
      <trkpt lat="45.50398" lon="6.69504">
        <ele>2026.12</ele>
        <time>2016-08-14T06:07:43Z</time>
      </trkpt>
      <trkpt lat="45.50382" lon="6.69534">
        <ele>2027.56</ele>
        <time>2016-08-14T06:07:56Z</time>
      </trkpt>
      <trkpt lat="45.50367" lon="6.69541">
        <ele>2027.08</ele>
        <time>2016-08-14T06:08:05Z</time>
      </trkpt>
      <trkpt lat="45.50346" lon="6.6956">
        <ele>2024.19</ele>
        <time>2016-08-14T06:08:19Z</time>
      </trkpt>
      <trkpt lat="45.5034" lon="6.69565">
        <ele>2025.64</ele>
        <time>2016-08-14T06:08:23Z</time>
      </trkpt>
      <trkpt lat="45.50318" lon="6.69564">
        <ele>2028.52</ele>
        <time>2016-08-14T06:08:36Z</time>
      </trkpt>
      <trkpt lat="45.50297" lon="6.69555">
        <ele>2030.44</ele>
        <time>2016-08-14T06:08:48Z</time>
      </trkpt>
      <trkpt lat="45.50273" lon="6.6955">
        <ele>2032.84</ele>
        <time>2016-08-14T06:09:01Z</time>
      </trkpt>
      <trkpt lat="45.5027" lon="6.69549">
        <ele>2032.84</ele>
        <time>2016-08-14T06:09:03Z</time>
      </trkpt>
      <trkpt lat="45.50268" lon="6.6955">
        <ele>2032.84</ele>
        <time>2016-08-14T06:09:04Z</time>
      </trkpt>
      <trkpt lat="45.50267" lon="6.69552">
        <ele>2032.84</ele>
        <time>2016-08-14T06:09:05Z</time>
      </trkpt>
      <trkpt lat="45.50265" lon="6.69553">
        <ele>2032.84</ele>
        <time>2016-08-14T06:09:06Z</time>
      </trkpt>
      <trkpt lat="45.50264" lon="6.69553">
        <ele>2032.84</ele>
        <time>2016-08-14T06:09:07Z</time>
      </trkpt>
      <trkpt lat="45.50257" lon="6.69557">
        <ele>2031.88</ele>
        <time>2016-08-14T06:09:11Z</time>
      </trkpt>
      <trkpt lat="45.50236" lon="6.69568">
        <ele>2033.81</ele>
        <time>2016-08-14T06:09:22Z</time>
      </trkpt>
      <trkpt lat="45.50215" lon="6.69577">
        <ele>2035.25</ele>
        <time>2016-08-14T06:09:35Z</time>
      </trkpt>
      <trkpt lat="45.50214" lon="6.69579">
        <ele>2035.25</ele>
        <time>2016-08-14T06:09:36Z</time>
      </trkpt>
      <trkpt lat="45.50212" lon="6.69581">
        <ele>2035.25</ele>
        <time>2016-08-14T06:09:37Z</time>
      </trkpt>
      <trkpt lat="45.50211" lon="6.69582">
        <ele>2035.73</ele>
        <time>2016-08-14T06:09:38Z</time>
      </trkpt>
      <trkpt lat="45.50209" lon="6.69583">
        <ele>2035.73</ele>
        <time>2016-08-14T06:09:39Z</time>
      </trkpt>
      <trkpt lat="45.50202" lon="6.69586">
        <ele>2034.29</ele>
        <time>2016-08-14T06:09:43Z</time>
      </trkpt>
      <trkpt lat="45.50186" lon="6.6961">
        <ele>2034.29</ele>
        <time>2016-08-14T06:09:55Z</time>
      </trkpt>
      <trkpt lat="45.50171" lon="6.69632">
        <ele>2036.21</ele>
        <time>2016-08-14T06:10:06Z</time>
      </trkpt>
      <trkpt lat="45.5017" lon="6.69634">
        <ele>2036.21</ele>
        <time>2016-08-14T06:10:07Z</time>
      </trkpt>
      <trkpt lat="45.50168" lon="6.69639">
        <ele>2036.69</ele>
        <time>2016-08-14T06:10:09Z</time>
      </trkpt>
      <trkpt lat="45.50167" lon="6.69641">
        <ele>2037.17</ele>
        <time>2016-08-14T06:10:10Z</time>
      </trkpt>
      <trkpt lat="45.50166" lon="6.69643">
        <ele>2037.17</ele>
        <time>2016-08-14T06:10:11Z</time>
      </trkpt>
      <trkpt lat="45.50164" lon="6.69646">
        <ele>2037.65</ele>
        <time>2016-08-14T06:10:12Z</time>
      </trkpt>
      <trkpt lat="45.50163" lon="6.69649">
        <ele>2038.13</ele>
        <time>2016-08-14T06:10:13Z</time>
      </trkpt>
      <trkpt lat="45.50162" lon="6.69652">
        <ele>2038.13</ele>
        <time>2016-08-14T06:10:14Z</time>
      </trkpt>
      <trkpt lat="45.50161" lon="6.69654">
        <ele>2038.61</ele>
        <time>2016-08-14T06:10:15Z</time>
      </trkpt>
      <trkpt lat="45.50161" lon="6.69657">
        <ele>2038.61</ele>
        <time>2016-08-14T06:10:16Z</time>
      </trkpt>
      <trkpt lat="45.5016" lon="6.6966">
        <ele>2039.09</ele>
        <time>2016-08-14T06:10:17Z</time>
      </trkpt>
      <trkpt lat="45.50156" lon="6.69685">
        <ele>2041.98</ele>
        <time>2016-08-14T06:10:29Z</time>
      </trkpt>
      <trkpt lat="45.50152" lon="6.69709">
        <ele>2045.34</ele>
        <time>2016-08-14T06:10:41Z</time>
      </trkpt>
      <trkpt lat="45.50138" lon="6.69728">
        <ele>2047.26</ele>
        <time>2016-08-14T06:10:51Z</time>
      </trkpt>
      <trkpt lat="45.50119" lon="6.69747">
        <ele>2049.67</ele>
        <time>2016-08-14T06:11:03Z</time>
      </trkpt>
      <trkpt lat="45.5011" lon="6.69769">
        <ele>2053.03</ele>
        <time>2016-08-14T06:11:15Z</time>
      </trkpt>
      <trkpt lat="45.50095" lon="6.69792">
        <ele>2055.44</ele>
        <time>2016-08-14T06:11:27Z</time>
      </trkpt>
      <trkpt lat="45.50091" lon="6.69818">
        <ele>2057.36</ele>
        <time>2016-08-14T06:11:38Z</time>
      </trkpt>
      <trkpt lat="45.50087" lon="6.69848">
        <ele>2059.76</ele>
        <time>2016-08-14T06:11:50Z</time>
      </trkpt>
      <trkpt lat="45.50084" lon="6.69857">
        <ele>2060.72</ele>
        <time>2016-08-14T06:11:54Z</time>
      </trkpt>
      <trkpt lat="45.50084" lon="6.69859">
        <ele>2060.72</ele>
        <time>2016-08-14T06:11:55Z</time>
      </trkpt>
      <trkpt lat="45.50083" lon="6.69861">
        <ele>2060.72</ele>
        <time>2016-08-14T06:11:56Z</time>
      </trkpt>
      <trkpt lat="45.50083" lon="6.69863">
        <ele>2061.2</ele>
        <time>2016-08-14T06:11:57Z</time>
      </trkpt>
      <trkpt lat="45.50082" lon="6.69865">
        <ele>2061.2</ele>
        <time>2016-08-14T06:11:58Z</time>
      </trkpt>
      <trkpt lat="45.50081" lon="6.69867">
        <ele>2062.17</ele>
        <time>2016-08-14T06:11:59Z</time>
      </trkpt>
      <trkpt lat="45.5008" lon="6.69868">
        <ele>2062.65</ele>
        <time>2016-08-14T06:12:00Z</time>
      </trkpt>
      <trkpt lat="45.50074" lon="6.69881">
        <ele>2064.57</ele>
        <time>2016-08-14T06:12:07Z</time>
      </trkpt>
      <trkpt lat="45.50074" lon="6.69884">
        <ele>2065.05</ele>
        <time>2016-08-14T06:12:08Z</time>
      </trkpt>
      <trkpt lat="45.50073" lon="6.69912">
        <ele>2066.01</ele>
        <time>2016-08-14T06:12:18Z</time>
      </trkpt>
      <trkpt lat="45.50072" lon="6.69913">
        <ele>2066.01</ele>
        <time>2016-08-14T06:12:19Z</time>
      </trkpt>
      <trkpt lat="45.50071" lon="6.69915">
        <ele>2066.49</ele>
        <time>2016-08-14T06:12:20Z</time>
      </trkpt>
      <trkpt lat="45.50071" lon="6.69917">
        <ele>2066.49</ele>
        <time>2016-08-14T06:12:21Z</time>
      </trkpt>
      <trkpt lat="45.5007" lon="6.69918">
        <ele>2066.49</ele>
        <time>2016-08-14T06:12:22Z</time>
      </trkpt>
      <trkpt lat="45.50069" lon="6.6992">
        <ele>2066.49</ele>
        <time>2016-08-14T06:12:23Z</time>
      </trkpt>
      <trkpt lat="45.50053" lon="6.69928">
        <ele>2068.41</ele>
        <time>2016-08-14T06:12:33Z</time>
      </trkpt>
      <trkpt lat="45.50028" lon="6.69937">
        <ele>2071.78</ele>
        <time>2016-08-14T06:12:48Z</time>
      </trkpt>
      <trkpt lat="45.50014" lon="6.69944">
        <ele>2075.14</ele>
        <time>2016-08-14T06:12:57Z</time>
      </trkpt>
      <trkpt lat="45.50009" lon="6.69946">
        <ele>2076.59</ele>
        <time>2016-08-14T06:13:01Z</time>
      </trkpt>
      <trkpt lat="45.49994" lon="6.69953">
        <ele>2079.95</ele>
        <time>2016-08-14T06:13:12Z</time>
      </trkpt>
      <trkpt lat="45.4998" lon="6.69963">
        <ele>2079.95</ele>
        <time>2016-08-14T06:13:22Z</time>
      </trkpt>
      <trkpt lat="45.49975" lon="6.69963">
        <ele>2080.43</ele>
        <time>2016-08-14T06:13:26Z</time>
      </trkpt>
      <trkpt lat="45.49961" lon="6.69963">
        <ele>2081.87</ele>
        <time>2016-08-14T06:13:35Z</time>
      </trkpt>
      <trkpt lat="45.4995" lon="6.69962">
        <ele>2083.79</ele>
        <time>2016-08-14T06:13:42Z</time>
      </trkpt>
      <trkpt lat="45.49944" lon="6.69958">
        <ele>2085.72</ele>
        <time>2016-08-14T06:13:49Z</time>
      </trkpt>
      <trkpt lat="45.49942" lon="6.69958">
        <ele>2085.72</ele>
        <time>2016-08-14T06:13:51Z</time>
      </trkpt>
      <trkpt lat="45.4993" lon="6.69959">
        <ele>2089.08</ele>
        <time>2016-08-14T06:14:01Z</time>
      </trkpt>
      <trkpt lat="45.49922" lon="6.69958">
        <ele>2091.49</ele>
        <time>2016-08-14T06:14:08Z</time>
      </trkpt>
      <trkpt lat="45.49916" lon="6.69953">
        <ele>2092.93</ele>
        <time>2016-08-14T06:14:13Z</time>
      </trkpt>
      <trkpt lat="45.49912" lon="6.69953">
        <ele>2094.85</ele>
        <time>2016-08-14T06:14:26Z</time>
      </trkpt>
      <trkpt lat="45.49915" lon="6.69951">
        <ele>2094.85</ele>
        <time>2016-08-14T06:14:40Z</time>
      </trkpt>
      <trkpt lat="45.49915" lon="6.69952">
        <ele>2095.81</ele>
        <time>2016-08-14T06:14:54Z</time>
      </trkpt>
      <trkpt lat="45.49914" lon="6.69952">
        <ele>2096.29</ele>
        <time>2016-08-14T06:15:06Z</time>
      </trkpt>
      <trkpt lat="45.49917" lon="6.69954">
        <ele>2098.21</ele>
        <time>2016-08-14T06:15:31Z</time>
      </trkpt>
      <trkpt lat="45.49913" lon="6.69957">
        <ele>2099.66</ele>
        <time>2016-08-14T06:15:59Z</time>
      </trkpt>
      <trkpt lat="45.49912" lon="6.69951">
        <ele>2100.62</ele>
        <time>2016-08-14T06:16:24Z</time>
      </trkpt>
      <trkpt lat="45.4991" lon="6.69951">
        <ele>2100.62</ele>
        <time>2016-08-14T06:16:25Z</time>
      </trkpt>
      <trkpt lat="45.49901" lon="6.69949">
        <ele>2102.06</ele>
        <time>2016-08-14T06:16:30Z</time>
      </trkpt>
      <trkpt lat="45.4989" lon="6.6995">
        <ele>2105.42</ele>
        <time>2016-08-14T06:16:37Z</time>
      </trkpt>
      <trkpt lat="45.49887" lon="6.6995">
        <ele>2105.91</ele>
        <time>2016-08-14T06:16:39Z</time>
      </trkpt>
      <trkpt lat="45.49878" lon="6.6995">
        <ele>2107.83</ele>
        <time>2016-08-14T06:16:44Z</time>
      </trkpt>
      <trkpt lat="45.49855" lon="6.69954">
        <ele>2110.23</ele>
        <time>2016-08-14T06:16:57Z</time>
      </trkpt>
      <trkpt lat="45.49853" lon="6.69955">
        <ele>2110.23</ele>
        <time>2016-08-14T06:16:58Z</time>
      </trkpt>
      <trkpt lat="45.4983" lon="6.69952">
        <ele>2111.19</ele>
        <time>2016-08-14T06:17:10Z</time>
      </trkpt>
      <trkpt lat="45.49828" lon="6.69954">
        <ele>2111.19</ele>
        <time>2016-08-14T06:17:11Z</time>
      </trkpt>
      <trkpt lat="45.49827" lon="6.69955">
        <ele>2111.19</ele>
        <time>2016-08-14T06:17:12Z</time>
      </trkpt>
      <trkpt lat="45.49806" lon="6.69963">
        <ele>2111.67</ele>
        <time>2016-08-14T06:17:23Z</time>
      </trkpt>
      <trkpt lat="45.49782" lon="6.69987">
        <ele>2113.12</ele>
        <time>2016-08-14T06:17:36Z</time>
      </trkpt>
      <trkpt lat="45.49764" lon="6.69998">
        <ele>2114.56</ele>
        <time>2016-08-14T06:17:46Z</time>
      </trkpt>
      <trkpt lat="45.49742" lon="6.70003">
        <ele>2116.96</ele>
        <time>2016-08-14T06:17:58Z</time>
      </trkpt>
      <trkpt lat="45.49723" lon="6.70006">
        <ele>2119.84</ele>
        <time>2016-08-14T06:18:10Z</time>
      </trkpt>
      <trkpt lat="45.49703" lon="6.70012">
        <ele>2123.69</ele>
        <time>2016-08-14T06:18:23Z</time>
      </trkpt>
      <trkpt lat="45.49688" lon="6.70014">
        <ele>2126.09</ele>
        <time>2016-08-14T06:18:34Z</time>
      </trkpt>
      <trkpt lat="45.4967" lon="6.7002">
        <ele>2128.98</ele>
        <time>2016-08-14T06:18:47Z</time>
      </trkpt>
      <trkpt lat="45.49662" lon="6.70023">
        <ele>2130.9</ele>
        <time>2016-08-14T06:18:53Z</time>
      </trkpt>
      <trkpt lat="45.49645" lon="6.70026">
        <ele>2134.74</ele>
        <time>2016-08-14T06:19:05Z</time>
      </trkpt>
      <trkpt lat="45.49637" lon="6.70027">
        <ele>2136.19</ele>
        <time>2016-08-14T06:19:11Z</time>
      </trkpt>
      <trkpt lat="45.49631" lon="6.70031">
        <ele>2138.11</ele>
        <time>2016-08-14T06:19:17Z</time>
      </trkpt>
      <trkpt lat="45.49623" lon="6.70033">
        <ele>2140.51</ele>
        <time>2016-08-14T06:19:23Z</time>
      </trkpt>
      <trkpt lat="45.4961" lon="6.70032">
        <ele>2143.88</ele>
        <time>2016-08-14T06:19:35Z</time>
      </trkpt>
      <trkpt lat="45.49602" lon="6.70029">
        <ele>2146.28</ele>
        <time>2016-08-14T06:19:44Z</time>
      </trkpt>
      <trkpt lat="45.49598" lon="6.7003">
        <ele>2147.72</ele>
        <time>2016-08-14T06:19:48Z</time>
      </trkpt>
      <trkpt lat="45.49595" lon="6.7003">
        <ele>2149.16</ele>
        <time>2016-08-14T06:19:51Z</time>
      </trkpt>
      <trkpt lat="45.4959" lon="6.70028">
        <ele>2150.61</ele>
        <time>2016-08-14T06:19:56Z</time>
      </trkpt>
      <trkpt lat="45.4958" lon="6.70028">
        <ele>2153.97</ele>
        <time>2016-08-14T06:20:06Z</time>
      </trkpt>
      <trkpt lat="45.49578" lon="6.70028">
        <ele>2154.93</ele>
        <time>2016-08-14T06:20:09Z</time>
      </trkpt>
      <trkpt lat="45.49575" lon="6.70028">
        <ele>2155.89</ele>
        <time>2016-08-14T06:20:12Z</time>
      </trkpt>
      <trkpt lat="45.4957" lon="6.70029">
        <ele>2157.34</ele>
        <time>2016-08-14T06:20:17Z</time>
      </trkpt>
      <trkpt lat="45.49567" lon="6.70027">
        <ele>2158.78</ele>
        <time>2016-08-14T06:20:20Z</time>
      </trkpt>
      <trkpt lat="45.49565" lon="6.70027">
        <ele>2159.74</ele>
        <time>2016-08-14T06:20:22Z</time>
      </trkpt>
      <trkpt lat="45.49562" lon="6.70028">
        <ele>2160.7</ele>
        <time>2016-08-14T06:20:26Z</time>
      </trkpt>
      <trkpt lat="45.49558" lon="6.7003">
        <ele>2162.14</ele>
        <time>2016-08-14T06:20:31Z</time>
      </trkpt>
      <trkpt lat="45.49549" lon="6.70029">
        <ele>2165.99</ele>
        <time>2016-08-14T06:20:41Z</time>
      </trkpt>
      <trkpt lat="45.49548" lon="6.70029">
        <ele>2165.99</ele>
        <time>2016-08-14T06:20:42Z</time>
      </trkpt>
      <trkpt lat="45.4954" lon="6.70022">
        <ele>2170.31</ele>
        <time>2016-08-14T06:20:54Z</time>
      </trkpt>
      <trkpt lat="45.49534" lon="6.70019">
        <ele>2172.72</ele>
        <time>2016-08-14T06:21:03Z</time>
      </trkpt>
      <trkpt lat="45.49524" lon="6.70019">
        <ele>2176.08</ele>
        <time>2016-08-14T06:21:15Z</time>
      </trkpt>
      <trkpt lat="45.49516" lon="6.70016">
        <ele>2179.45</ele>
        <time>2016-08-14T06:21:26Z</time>
      </trkpt>
      <trkpt lat="45.4951" lon="6.70015">
        <ele>2182.81</ele>
        <time>2016-08-14T06:21:37Z</time>
      </trkpt>
      <trkpt lat="45.49504" lon="6.70016">
        <ele>2186.66</ele>
        <time>2016-08-14T06:21:48Z</time>
      </trkpt>
      <trkpt lat="45.49502" lon="6.70016">
        <ele>2187.14</ele>
        <time>2016-08-14T06:21:50Z</time>
      </trkpt>
      <trkpt lat="45.49495" lon="6.70019">
        <ele>2189.54</ele>
        <time>2016-08-14T06:21:58Z</time>
      </trkpt>
      <trkpt lat="45.49471" lon="6.70012">
        <ele>2191.46</ele>
        <time>2016-08-14T06:22:14Z</time>
      </trkpt>
      <trkpt lat="45.49455" lon="6.69997">
        <ele>2194.83</ele>
        <time>2016-08-14T06:22:26Z</time>
      </trkpt>
      <trkpt lat="45.4944" lon="6.69981">
        <ele>2198.19</ele>
        <time>2016-08-14T06:22:39Z</time>
      </trkpt>
      <trkpt lat="45.49427" lon="6.69957">
        <ele>2202.04</ele>
        <time>2016-08-14T06:22:52Z</time>
      </trkpt>
      <trkpt lat="45.49415" lon="6.69936">
        <ele>2204.92</ele>
        <time>2016-08-14T06:23:03Z</time>
      </trkpt>
      <trkpt lat="45.49402" lon="6.69913">
        <ele>2208.29</ele>
        <time>2016-08-14T06:23:16Z</time>
      </trkpt>
      <trkpt lat="45.494" lon="6.6991">
        <ele>2208.77</ele>
        <time>2016-08-14T06:23:18Z</time>
      </trkpt>
      <trkpt lat="45.49396" lon="6.69904">
        <ele>2209.25</ele>
        <time>2016-08-14T06:23:22Z</time>
      </trkpt>
      <trkpt lat="45.49385" lon="6.69884">
        <ele>2213.09</ele>
        <time>2016-08-14T06:23:34Z</time>
      </trkpt>
      <trkpt lat="45.49387" lon="6.69873">
        <ele>2214.53</ele>
        <time>2016-08-14T06:23:40Z</time>
      </trkpt>
      <trkpt lat="45.49408" lon="6.69868">
        <ele>2217.9</ele>
        <time>2016-08-14T06:23:54Z</time>
      </trkpt>
      <trkpt lat="45.49412" lon="6.69868">
        <ele>2218.86</ele>
        <time>2016-08-14T06:23:56Z</time>
      </trkpt>
      <trkpt lat="45.4943" lon="6.69878">
        <ele>2222.22</ele>
        <time>2016-08-14T06:24:09Z</time>
      </trkpt>
      <trkpt lat="45.49437" lon="6.69882">
        <ele>2223.67</ele>
        <time>2016-08-14T06:24:15Z</time>
      </trkpt>
      <trkpt lat="45.49451" lon="6.69899">
        <ele>2226.55</ele>
        <time>2016-08-14T06:24:27Z</time>
      </trkpt>
      <trkpt lat="45.49462" lon="6.69894">
        <ele>2228.47</ele>
        <time>2016-08-14T06:24:35Z</time>
      </trkpt>
      <trkpt lat="45.49463" lon="6.69891">
        <ele>2229.43</ele>
        <time>2016-08-14T06:24:37Z</time>
      </trkpt>
      <trkpt lat="45.4946" lon="6.69871">
        <ele>2232.8</ele>
        <time>2016-08-14T06:24:48Z</time>
      </trkpt>
      <trkpt lat="45.49459" lon="6.6987">
        <ele>2232.8</ele>
        <time>2016-08-14T06:24:49Z</time>
      </trkpt>
      <trkpt lat="45.49448" lon="6.69854">
        <ele>2236.64</ele>
        <time>2016-08-14T06:25:01Z</time>
      </trkpt>
      <trkpt lat="45.49444" lon="6.69851">
        <ele>2237.13</ele>
        <time>2016-08-14T06:25:05Z</time>
      </trkpt>
      <trkpt lat="45.49437" lon="6.69841">
        <ele>2239.05</ele>
        <time>2016-08-14T06:25:12Z</time>
      </trkpt>
      <trkpt lat="45.49421" lon="6.6982">
        <ele>2242.41</ele>
        <time>2016-08-14T06:25:25Z</time>
      </trkpt>
      <trkpt lat="45.49417" lon="6.69815">
        <ele>2242.89</ele>
        <time>2016-08-14T06:25:28Z</time>
      </trkpt>
      <trkpt lat="45.49414" lon="6.6981">
        <ele>2244.33</ele>
        <time>2016-08-14T06:25:31Z</time>
      </trkpt>
      <trkpt lat="45.49408" lon="6.69804">
        <ele>2245.3</ele>
        <time>2016-08-14T06:25:36Z</time>
      </trkpt>
      <trkpt lat="45.49396" lon="6.69792">
        <ele>2246.74</ele>
        <time>2016-08-14T06:25:44Z</time>
      </trkpt>
      <trkpt lat="45.49394" lon="6.69789">
        <ele>2247.22</ele>
        <time>2016-08-14T06:25:46Z</time>
      </trkpt>
      <trkpt lat="45.49388" lon="6.69772">
        <ele>2249.14</ele>
        <time>2016-08-14T06:25:53Z</time>
      </trkpt>
      <trkpt lat="45.4938" lon="6.69748">
        <ele>2251.54</ele>
        <time>2016-08-14T06:26:03Z</time>
      </trkpt>
      <trkpt lat="45.4938" lon="6.69745">
        <ele>2251.54</ele>
        <time>2016-08-14T06:26:04Z</time>
      </trkpt>
      <trkpt lat="45.4938" lon="6.69742">
        <ele>2251.54</ele>
        <time>2016-08-14T06:26:05Z</time>
      </trkpt>
      <trkpt lat="45.49368" lon="6.69709">
        <ele>2254.43</ele>
        <time>2016-08-14T06:26:19Z</time>
      </trkpt>
      <trkpt lat="45.49356" lon="6.69686">
        <ele>2255.87</ele>
        <time>2016-08-14T06:26:30Z</time>
      </trkpt>
      <trkpt lat="45.49354" lon="6.69684">
        <ele>2256.35</ele>
        <time>2016-08-14T06:26:31Z</time>
      </trkpt>
      <trkpt lat="45.49334" lon="6.69663">
        <ele>2258.75</ele>
        <time>2016-08-14T06:26:45Z</time>
      </trkpt>
      <trkpt lat="45.49329" lon="6.69657">
        <ele>2259.72</ele>
        <time>2016-08-14T06:26:49Z</time>
      </trkpt>
      <trkpt lat="45.49328" lon="6.69655">
        <ele>2259.72</ele>
        <time>2016-08-14T06:26:50Z</time>
      </trkpt>
      <trkpt lat="45.49328" lon="6.69654">
        <ele>2259.72</ele>
        <time>2016-08-14T06:26:51Z</time>
      </trkpt>
      <trkpt lat="45.49327" lon="6.69652">
        <ele>2259.72</ele>
        <time>2016-08-14T06:26:52Z</time>
      </trkpt>
      <trkpt lat="45.49326" lon="6.6965">
        <ele>2260.2</ele>
        <time>2016-08-14T06:26:53Z</time>
      </trkpt>
      <trkpt lat="45.4931" lon="6.69626">
        <ele>2263.56</ele>
        <time>2016-08-14T06:27:06Z</time>
      </trkpt>
      <trkpt lat="45.49303" lon="6.69608">
        <ele>2265.48</ele>
        <time>2016-08-14T06:27:15Z</time>
      </trkpt>
      <trkpt lat="45.49301" lon="6.69606">
        <ele>2265.48</ele>
        <time>2016-08-14T06:27:16Z</time>
      </trkpt>
      <trkpt lat="45.493" lon="6.69605">
        <ele>2265.96</ele>
        <time>2016-08-14T06:27:17Z</time>
      </trkpt>
      <trkpt lat="45.493" lon="6.69602">
        <ele>2266.45</ele>
        <time>2016-08-14T06:27:18Z</time>
      </trkpt>
      <trkpt lat="45.49299" lon="6.696">
        <ele>2266.45</ele>
        <time>2016-08-14T06:27:19Z</time>
      </trkpt>
      <trkpt lat="45.49298" lon="6.69597">
        <ele>2266.45</ele>
        <time>2016-08-14T06:27:20Z</time>
      </trkpt>
      <trkpt lat="45.49295" lon="6.69589">
        <ele>2267.41</ele>
        <time>2016-08-14T06:27:24Z</time>
      </trkpt>
      <trkpt lat="45.49294" lon="6.69587">
        <ele>2267.41</ele>
        <time>2016-08-14T06:27:25Z</time>
      </trkpt>
      <trkpt lat="45.49291" lon="6.69578">
        <ele>2268.85</ele>
        <time>2016-08-14T06:27:29Z</time>
      </trkpt>
      <trkpt lat="45.49283" lon="6.69558">
        <ele>2272.21</ele>
        <time>2016-08-14T06:27:41Z</time>
      </trkpt>
      <trkpt lat="45.49277" lon="6.6955">
        <ele>2273.66</ele>
        <time>2016-08-14T06:27:47Z</time>
      </trkpt>
      <trkpt lat="45.49276" lon="6.69549">
        <ele>2274.14</ele>
        <time>2016-08-14T06:27:48Z</time>
      </trkpt>
      <trkpt lat="45.49275" lon="6.69547">
        <ele>2274.62</ele>
        <time>2016-08-14T06:27:49Z</time>
      </trkpt>
      <trkpt lat="45.49258" lon="6.69534">
        <ele>2277.98</ele>
        <time>2016-08-14T06:28:02Z</time>
      </trkpt>
      <trkpt lat="45.4924" lon="6.69508">
        <ele>2281.83</ele>
        <time>2016-08-14T06:28:17Z</time>
      </trkpt>
      <trkpt lat="45.49233" lon="6.69491">
        <ele>2283.27</ele>
        <time>2016-08-14T06:28:26Z</time>
      </trkpt>
      <trkpt lat="45.49233" lon="6.69489">
        <ele>2284.23</ele>
        <time>2016-08-14T06:28:27Z</time>
      </trkpt>
      <trkpt lat="45.49235" lon="6.69473">
        <ele>2285.19</ele>
        <time>2016-08-14T06:28:34Z</time>
      </trkpt>
      <trkpt lat="45.49237" lon="6.69472">
        <ele>2286.15</ele>
        <time>2016-08-14T06:28:35Z</time>
      </trkpt>
      <trkpt lat="45.49238" lon="6.6947">
        <ele>2286.15</ele>
        <time>2016-08-14T06:28:36Z</time>
      </trkpt>
      <trkpt lat="45.49252" lon="6.69477">
        <ele>2288.56</ele>
        <time>2016-08-14T06:28:46Z</time>
      </trkpt>
      <trkpt lat="45.49261" lon="6.69499">
        <ele>2292.4</ele>
        <time>2016-08-14T06:28:58Z</time>
      </trkpt>
      <trkpt lat="45.49274" lon="6.69503">
        <ele>2294.8</ele>
        <time>2016-08-14T06:29:08Z</time>
      </trkpt>
      <trkpt lat="45.49275" lon="6.69501">
        <ele>2295.28</ele>
        <time>2016-08-14T06:29:09Z</time>
      </trkpt>
      <trkpt lat="45.49276" lon="6.69499">
        <ele>2295.28</ele>
        <time>2016-08-14T06:29:10Z</time>
      </trkpt>
      <trkpt lat="45.49276" lon="6.69497">
        <ele>2295.28</ele>
        <time>2016-08-14T06:29:11Z</time>
      </trkpt>
      <trkpt lat="45.49276" lon="6.69495">
        <ele>2295.77</ele>
        <time>2016-08-14T06:29:12Z</time>
      </trkpt>
      <trkpt lat="45.49276" lon="6.69493">
        <ele>2295.77</ele>
        <time>2016-08-14T06:29:13Z</time>
      </trkpt>
      <trkpt lat="45.49276" lon="6.69491">
        <ele>2296.25</ele>
        <time>2016-08-14T06:29:14Z</time>
      </trkpt>
      <trkpt lat="45.49272" lon="6.69471">
        <ele>2299.13</ele>
        <time>2016-08-14T06:29:24Z</time>
      </trkpt>
      <trkpt lat="45.49271" lon="6.69469">
        <ele>2299.13</ele>
        <time>2016-08-14T06:29:25Z</time>
      </trkpt>
      <trkpt lat="45.49271" lon="6.69467">
        <ele>2300.09</ele>
        <time>2016-08-14T06:29:26Z</time>
      </trkpt>
      <trkpt lat="45.4927" lon="6.69465">
        <ele>2300.09</ele>
        <time>2016-08-14T06:29:27Z</time>
      </trkpt>
      <trkpt lat="45.4927" lon="6.69463">
        <ele>2300.09</ele>
        <time>2016-08-14T06:29:28Z</time>
      </trkpt>
      <trkpt lat="45.49269" lon="6.69461">
        <ele>2300.57</ele>
        <time>2016-08-14T06:29:29Z</time>
      </trkpt>
      <trkpt lat="45.49269" lon="6.69459">
        <ele>2300.57</ele>
        <time>2016-08-14T06:29:30Z</time>
      </trkpt>
      <trkpt lat="45.49268" lon="6.69457">
        <ele>2301.53</ele>
        <time>2016-08-14T06:29:31Z</time>
      </trkpt>
      <trkpt lat="45.49268" lon="6.69455">
        <ele>2301.53</ele>
        <time>2016-08-14T06:29:32Z</time>
      </trkpt>
      <trkpt lat="45.49267" lon="6.69451">
        <ele>2302.01</ele>
        <time>2016-08-14T06:29:34Z</time>
      </trkpt>
      <trkpt lat="45.49269" lon="6.69436">
        <ele>2303.94</ele>
        <time>2016-08-14T06:29:42Z</time>
      </trkpt>
      <trkpt lat="45.4927" lon="6.69435">
        <ele>2303.94</ele>
        <time>2016-08-14T06:29:43Z</time>
      </trkpt>
      <trkpt lat="45.49271" lon="6.69434">
        <ele>2303.94</ele>
        <time>2016-08-14T06:29:44Z</time>
      </trkpt>
      <trkpt lat="45.49272" lon="6.69433">
        <ele>2304.42</ele>
        <time>2016-08-14T06:29:45Z</time>
      </trkpt>
      <trkpt lat="45.49273" lon="6.69432">
        <ele>2304.42</ele>
        <time>2016-08-14T06:29:46Z</time>
      </trkpt>
      <trkpt lat="45.49273" lon="6.69432">
        <ele>2305.38</ele>
        <time>2016-08-14T06:30:01Z</time>
      </trkpt>
      <trkpt lat="45.4927" lon="6.6943">
        <ele>2306.34</ele>
        <time>2016-08-14T06:30:27Z</time>
      </trkpt>
      <trkpt lat="45.49269" lon="6.69429">
        <ele>2306.34</ele>
        <time>2016-08-14T06:30:28Z</time>
      </trkpt>
      <trkpt lat="45.49268" lon="6.69427">
        <ele>2306.34</ele>
        <time>2016-08-14T06:30:29Z</time>
      </trkpt>
      <trkpt lat="45.49268" lon="6.69424">
        <ele>2306.34</ele>
        <time>2016-08-14T06:30:30Z</time>
      </trkpt>
      <trkpt lat="45.49268" lon="6.69422">
        <ele>2306.34</ele>
        <time>2016-08-14T06:30:31Z</time>
      </trkpt>
      <trkpt lat="45.49262" lon="6.69397">
        <ele>2310.19</ele>
        <time>2016-08-14T06:30:41Z</time>
      </trkpt>
      <trkpt lat="45.49251" lon="6.69382">
        <ele>2313.07</ele>
        <time>2016-08-14T06:30:54Z</time>
      </trkpt>
      <trkpt lat="45.49253" lon="6.6938">
        <ele>2312.59</ele>
        <time>2016-08-14T06:31:12Z</time>
      </trkpt>
      <trkpt lat="45.49254" lon="6.6938">
        <ele>2314.51</ele>
        <time>2016-08-14T06:31:20Z</time>
      </trkpt>
      <trkpt lat="45.49253" lon="6.69381">
        <ele>2314.99</ele>
        <time>2016-08-14T06:31:39Z</time>
      </trkpt>
      <trkpt lat="45.49245" lon="6.69364">
        <ele>2315.95</ele>
        <time>2016-08-14T06:31:52Z</time>
      </trkpt>
      <trkpt lat="45.49239" lon="6.69326">
        <ele>2319.32</ele>
        <time>2016-08-14T06:32:05Z</time>
      </trkpt>
      <trkpt lat="45.49241" lon="6.6931">
        <ele>2320.28</ele>
        <time>2016-08-14T06:32:10Z</time>
      </trkpt>
      <trkpt lat="45.49241" lon="6.69308">
        <ele>2320.28</ele>
        <time>2016-08-14T06:32:11Z</time>
      </trkpt>
      <trkpt lat="45.49241" lon="6.69305">
        <ele>2320.28</ele>
        <time>2016-08-14T06:32:12Z</time>
      </trkpt>
      <trkpt lat="45.49242" lon="6.69282">
        <ele>2322.68</ele>
        <time>2016-08-14T06:32:19Z</time>
      </trkpt>
      <trkpt lat="45.49242" lon="6.6928">
        <ele>2322.68</ele>
        <time>2016-08-14T06:32:20Z</time>
      </trkpt>
      <trkpt lat="45.49241" lon="6.69277">
        <ele>2322.68</ele>
        <time>2016-08-14T06:32:21Z</time>
      </trkpt>
      <trkpt lat="45.49241" lon="6.69274">
        <ele>2322.68</ele>
        <time>2016-08-14T06:32:22Z</time>
      </trkpt>
      <trkpt lat="45.49241" lon="6.69271">
        <ele>2323.16</ele>
        <time>2016-08-14T06:32:23Z</time>
      </trkpt>
      <trkpt lat="45.4924" lon="6.69269">
        <ele>2323.16</ele>
        <time>2016-08-14T06:32:24Z</time>
      </trkpt>
      <trkpt lat="45.49239" lon="6.69266">
        <ele>2323.16</ele>
        <time>2016-08-14T06:32:25Z</time>
      </trkpt>
      <trkpt lat="45.49239" lon="6.69264">
        <ele>2323.16</ele>
        <time>2016-08-14T06:32:26Z</time>
      </trkpt>
      <trkpt lat="45.49222" lon="6.69226">
        <ele>2325.57</ele>
        <time>2016-08-14T06:32:41Z</time>
      </trkpt>
      <trkpt lat="45.49205" lon="6.69188">
        <ele>2327.01</ele>
        <time>2016-08-14T06:32:56Z</time>
      </trkpt>
      <trkpt lat="45.49197" lon="6.69153">
        <ele>2327.97</ele>
        <time>2016-08-14T06:33:09Z</time>
      </trkpt>
      <trkpt lat="45.49197" lon="6.69113">
        <ele>2330.85</ele>
        <time>2016-08-14T06:33:23Z</time>
      </trkpt>
      <trkpt lat="45.49195" lon="6.69071">
        <ele>2332.3</ele>
        <time>2016-08-14T06:33:38Z</time>
      </trkpt>
      <trkpt lat="45.49185" lon="6.69036">
        <ele>2332.78</ele>
        <time>2016-08-14T06:33:50Z</time>
      </trkpt>
      <trkpt lat="45.49174" lon="6.69006">
        <ele>2334.7</ele>
        <time>2016-08-14T06:34:02Z</time>
      </trkpt>
      <trkpt lat="45.4916" lon="6.6898">
        <ele>2337.1</ele>
        <time>2016-08-14T06:34:15Z</time>
      </trkpt>
      <trkpt lat="45.49159" lon="6.68978">
        <ele>2337.1</ele>
        <time>2016-08-14T06:34:16Z</time>
      </trkpt>
      <trkpt lat="45.49156" lon="6.68966">
        <ele>2338.54</ele>
        <time>2016-08-14T06:34:23Z</time>
      </trkpt>
      <trkpt lat="45.4916" lon="6.68944">
        <ele>2340.95</ele>
        <time>2016-08-14T06:34:37Z</time>
      </trkpt>
      <trkpt lat="45.4916" lon="6.68943">
        <ele>2340.95</ele>
        <time>2016-08-14T06:34:38Z</time>
      </trkpt>
      <trkpt lat="45.49158" lon="6.68928">
        <ele>2344.31</ele>
        <time>2016-08-14T06:34:51Z</time>
      </trkpt>
      <trkpt lat="45.49156" lon="6.68914">
        <ele>2347.68</ele>
        <time>2016-08-14T06:35:04Z</time>
      </trkpt>
      <trkpt lat="45.49156" lon="6.68898">
        <ele>2351.04</ele>
        <time>2016-08-14T06:35:15Z</time>
      </trkpt>
      <trkpt lat="45.49154" lon="6.68886">
        <ele>2353.93</ele>
        <time>2016-08-14T06:35:25Z</time>
      </trkpt>
      <trkpt lat="45.49151" lon="6.68871">
        <ele>2357.77</ele>
        <time>2016-08-14T06:35:35Z</time>
      </trkpt>
      <trkpt lat="45.49151" lon="6.68864">
        <ele>2358.73</ele>
        <time>2016-08-14T06:35:40Z</time>
      </trkpt>
      <trkpt lat="45.4915" lon="6.68851">
        <ele>2361.14</ele>
        <time>2016-08-14T06:35:48Z</time>
      </trkpt>
      <trkpt lat="45.4915" lon="6.6885">
        <ele>2361.14</ele>
        <time>2016-08-14T06:35:49Z</time>
      </trkpt>
      <trkpt lat="45.4915" lon="6.68844">
        <ele>2363.06</ele>
        <time>2016-08-14T06:35:53Z</time>
      </trkpt>
      <trkpt lat="45.4915" lon="6.68842">
        <ele>2363.06</ele>
        <time>2016-08-14T06:35:54Z</time>
      </trkpt>
      <trkpt lat="45.4915" lon="6.6884">
        <ele>2363.54</ele>
        <time>2016-08-14T06:35:55Z</time>
      </trkpt>
      <trkpt lat="45.49148" lon="6.68829">
        <ele>2366.9</ele>
        <time>2016-08-14T06:36:05Z</time>
      </trkpt>
      <trkpt lat="45.49147" lon="6.68823">
        <ele>2368.35</ele>
        <time>2016-08-14T06:36:10Z</time>
      </trkpt>
      <trkpt lat="45.49145" lon="6.68815">
        <ele>2370.75</ele>
        <time>2016-08-14T06:36:17Z</time>
      </trkpt>
      <trkpt lat="45.49142" lon="6.68804">
        <ele>2374.59</ele>
        <time>2016-08-14T06:36:27Z</time>
      </trkpt>
      <trkpt lat="45.49139" lon="6.68793">
        <ele>2377.96</ele>
        <time>2016-08-14T06:36:37Z</time>
      </trkpt>
      <trkpt lat="45.49136" lon="6.68784">
        <ele>2380.36</ele>
        <time>2016-08-14T06:36:45Z</time>
      </trkpt>
      <trkpt lat="45.49136" lon="6.68772">
        <ele>2383.25</ele>
        <time>2016-08-14T06:36:54Z</time>
      </trkpt>
      <trkpt lat="45.49137" lon="6.6877">
        <ele>2383.73</ele>
        <time>2016-08-14T06:36:55Z</time>
      </trkpt>
      <trkpt lat="45.49146" lon="6.68745">
        <ele>2387.09</ele>
        <time>2016-08-14T06:37:10Z</time>
      </trkpt>
      <trkpt lat="45.49148" lon="6.68727">
        <ele>2389.97</ele>
        <time>2016-08-14T06:37:21Z</time>
      </trkpt>
      <trkpt lat="45.4915" lon="6.68707">
        <ele>2393.34</ele>
        <time>2016-08-14T06:37:33Z</time>
      </trkpt>
      <trkpt lat="45.49153" lon="6.68687">
        <ele>2396.7</ele>
        <time>2016-08-14T06:37:44Z</time>
      </trkpt>
      <trkpt lat="45.49156" lon="6.6867">
        <ele>2400.07</ele>
        <time>2016-08-14T06:37:55Z</time>
      </trkpt>
      <trkpt lat="45.49157" lon="6.68661">
        <ele>2401.03</ele>
        <time>2016-08-14T06:38:00Z</time>
      </trkpt>
      <trkpt lat="45.49157" lon="6.68659">
        <ele>2401.03</ele>
        <time>2016-08-14T06:38:01Z</time>
      </trkpt>
      <trkpt lat="45.49157" lon="6.68657">
        <ele>2401.51</ele>
        <time>2016-08-14T06:38:02Z</time>
      </trkpt>
      <trkpt lat="45.49159" lon="6.68639">
        <ele>2404.88</ele>
        <time>2016-08-14T06:38:14Z</time>
      </trkpt>
      <trkpt lat="45.49159" lon="6.6862">
        <ele>2408.72</ele>
        <time>2016-08-14T06:38:26Z</time>
      </trkpt>
      <trkpt lat="45.49162" lon="6.68602">
        <ele>2411.6</ele>
        <time>2016-08-14T06:38:37Z</time>
      </trkpt>
      <trkpt lat="45.49164" lon="6.68587">
        <ele>2414.97</ele>
        <time>2016-08-14T06:38:47Z</time>
      </trkpt>
      <trkpt lat="45.49167" lon="6.68578">
        <ele>2416.41</ele>
        <time>2016-08-14T06:38:53Z</time>
      </trkpt>
      <trkpt lat="45.49168" lon="6.68565">
        <ele>2419.78</ele>
        <time>2016-08-14T06:39:03Z</time>
      </trkpt>
      <trkpt lat="45.49166" lon="6.68554">
        <ele>2423.14</ele>
        <time>2016-08-14T06:39:12Z</time>
      </trkpt>
      <trkpt lat="45.49165" lon="6.68543">
        <ele>2426.02</ele>
        <time>2016-08-14T06:39:21Z</time>
      </trkpt>
      <trkpt lat="45.49165" lon="6.68528">
        <ele>2429.39</ele>
        <time>2016-08-14T06:39:32Z</time>
      </trkpt>
      <trkpt lat="45.49165" lon="6.68525">
        <ele>2430.35</ele>
        <time>2016-08-14T06:39:34Z</time>
      </trkpt>
      <trkpt lat="45.49166" lon="6.68509">
        <ele>2432.75</ele>
        <time>2016-08-14T06:39:44Z</time>
      </trkpt>
      <trkpt lat="45.49164" lon="6.68496">
        <ele>2436.12</ele>
        <time>2016-08-14T06:39:54Z</time>
      </trkpt>
      <trkpt lat="45.4916" lon="6.68483">
        <ele>2439</ele>
        <time>2016-08-14T06:40:05Z</time>
      </trkpt>
      <trkpt lat="45.49156" lon="6.68473">
        <ele>2442.37</ele>
        <time>2016-08-14T06:40:15Z</time>
      </trkpt>
      <trkpt lat="45.49152" lon="6.68464">
        <ele>2445.25</ele>
        <time>2016-08-14T06:40:24Z</time>
      </trkpt>
      <trkpt lat="45.4914" lon="6.68435">
        <ele>2446.69</ele>
        <time>2016-08-14T06:40:39Z</time>
      </trkpt>
      <trkpt lat="45.49139" lon="6.6843">
        <ele>2446.69</ele>
        <time>2016-08-14T06:40:41Z</time>
      </trkpt>
      <trkpt lat="45.49138" lon="6.68427">
        <ele>2446.69</ele>
        <time>2016-08-14T06:40:42Z</time>
      </trkpt>
      <trkpt lat="45.49139" lon="6.68424">
        <ele>2446.69</ele>
        <time>2016-08-14T06:40:43Z</time>
      </trkpt>
      <trkpt lat="45.49143" lon="6.68393">
        <ele>2447.17</ele>
        <time>2016-08-14T06:40:56Z</time>
      </trkpt>
      <trkpt lat="45.49141" lon="6.68392">
        <ele>2447.65</ele>
        <time>2016-08-14T06:41:11Z</time>
      </trkpt>
      <trkpt lat="45.49142" lon="6.68394">
        <ele>2447.17</ele>
        <time>2016-08-14T06:41:32Z</time>
      </trkpt>
      <trkpt lat="45.4914" lon="6.68393">
        <ele>2447.17</ele>
        <time>2016-08-14T06:41:44Z</time>
      </trkpt>
      <trkpt lat="45.49138" lon="6.68392">
        <ele>2447.17</ele>
        <time>2016-08-14T06:41:45Z</time>
      </trkpt>
      <trkpt lat="45.49137" lon="6.6839">
        <ele>2446.69</ele>
        <time>2016-08-14T06:41:46Z</time>
      </trkpt>
      <trkpt lat="45.49135" lon="6.68387">
        <ele>2446.69</ele>
        <time>2016-08-14T06:41:47Z</time>
      </trkpt>
      <trkpt lat="45.49134" lon="6.68385">
        <ele>2446.69</ele>
        <time>2016-08-14T06:41:48Z</time>
      </trkpt>
      <trkpt lat="45.49127" lon="6.68362">
        <ele>2444.29</ele>
        <time>2016-08-14T06:41:59Z</time>
      </trkpt>
      <trkpt lat="45.49118" lon="6.68345">
        <ele>2440.92</ele>
        <time>2016-08-14T06:42:08Z</time>
      </trkpt>
      <trkpt lat="45.49113" lon="6.68328">
        <ele>2437.56</ele>
        <time>2016-08-14T06:42:17Z</time>
      </trkpt>
      <trkpt lat="45.49109" lon="6.68311">
        <ele>2433.71</ele>
        <time>2016-08-14T06:42:26Z</time>
      </trkpt>
      <trkpt lat="45.49106" lon="6.68295">
        <ele>2430.83</ele>
        <time>2016-08-14T06:42:33Z</time>
      </trkpt>
      <trkpt lat="45.49102" lon="6.68279">
        <ele>2427.47</ele>
        <time>2016-08-14T06:42:41Z</time>
      </trkpt>
      <trkpt lat="45.49099" lon="6.68265">
        <ele>2424.1</ele>
        <time>2016-08-14T06:42:49Z</time>
      </trkpt>
      <trkpt lat="45.49096" lon="6.68252">
        <ele>2421.22</ele>
        <time>2016-08-14T06:42:56Z</time>
      </trkpt>
      <trkpt lat="45.49092" lon="6.6824">
        <ele>2417.85</ele>
        <time>2016-08-14T06:43:03Z</time>
      </trkpt>
      <trkpt lat="45.49092" lon="6.68239">
        <ele>2417.85</ele>
        <time>2016-08-14T06:43:04Z</time>
      </trkpt>
      <trkpt lat="45.49089" lon="6.68228">
        <ele>2414.49</ele>
        <time>2016-08-14T06:43:10Z</time>
      </trkpt>
      <trkpt lat="45.49085" lon="6.68214">
        <ele>2411.12</ele>
        <time>2016-08-14T06:43:18Z</time>
      </trkpt>
      <trkpt lat="45.49082" lon="6.68202">
        <ele>2408.24</ele>
        <time>2016-08-14T06:43:25Z</time>
      </trkpt>
      <trkpt lat="45.49079" lon="6.6819">
        <ele>2404.88</ele>
        <time>2016-08-14T06:43:32Z</time>
      </trkpt>
      <trkpt lat="45.49076" lon="6.68179">
        <ele>2401.51</ele>
        <time>2016-08-14T06:43:39Z</time>
      </trkpt>
      <trkpt lat="45.49075" lon="6.68173">
        <ele>2400.07</ele>
        <time>2016-08-14T06:43:42Z</time>
      </trkpt>
      <trkpt lat="45.49071" lon="6.68162">
        <ele>2397.67</ele>
        <time>2016-08-14T06:43:49Z</time>
      </trkpt>
      <trkpt lat="45.49066" lon="6.68149">
        <ele>2393.34</ele>
        <time>2016-08-14T06:43:58Z</time>
      </trkpt>
      <trkpt lat="45.49063" lon="6.68137">
        <ele>2389.97</ele>
        <time>2016-08-14T06:44:06Z</time>
      </trkpt>
      <trkpt lat="45.49061" lon="6.68132">
        <ele>2388.53</ele>
        <time>2016-08-14T06:44:10Z</time>
      </trkpt>
      <trkpt lat="45.49057" lon="6.68123">
        <ele>2385.65</ele>
        <time>2016-08-14T06:44:17Z</time>
      </trkpt>
      <trkpt lat="45.49053" lon="6.68113">
        <ele>2381.8</ele>
        <time>2016-08-14T06:44:25Z</time>
      </trkpt>
      <trkpt lat="45.49049" lon="6.68104">
        <ele>2378.92</ele>
        <time>2016-08-14T06:44:32Z</time>
      </trkpt>
      <trkpt lat="45.49044" lon="6.68092">
        <ele>2375.55</ele>
        <time>2016-08-14T06:44:40Z</time>
      </trkpt>
      <trkpt lat="45.49039" lon="6.68078">
        <ele>2371.71</ele>
        <time>2016-08-14T06:44:48Z</time>
      </trkpt>
      <trkpt lat="45.49038" lon="6.68075">
        <ele>2371.23</ele>
        <time>2016-08-14T06:44:50Z</time>
      </trkpt>
      <trkpt lat="45.49036" lon="6.68061">
        <ele>2368.35</ele>
        <time>2016-08-14T06:44:57Z</time>
      </trkpt>
      <trkpt lat="45.49028" lon="6.68019">
        <ele>2364.98</ele>
        <time>2016-08-14T06:45:13Z</time>
      </trkpt>
      <trkpt lat="45.49025" lon="6.68014">
        <ele>2366.42</ele>
        <time>2016-08-14T06:45:17Z</time>
      </trkpt>
      <trkpt lat="45.49017" lon="6.68004">
        <ele>2369.79</ele>
        <time>2016-08-14T06:45:27Z</time>
      </trkpt>
      <trkpt lat="45.49012" lon="6.67997">
        <ele>2373.15</ele>
        <time>2016-08-14T06:45:37Z</time>
      </trkpt>
      <trkpt lat="45.49006" lon="6.67986">
        <ele>2376.52</ele>
        <time>2016-08-14T06:45:48Z</time>
      </trkpt>
      <trkpt lat="45.49002" lon="6.67978">
        <ele>2379.88</ele>
        <time>2016-08-14T06:45:58Z</time>
      </trkpt>
      <trkpt lat="45.48999" lon="6.6797">
        <ele>2381.8</ele>
        <time>2016-08-14T06:46:05Z</time>
      </trkpt>
      <trkpt lat="45.49002" lon="6.67959">
        <ele>2382.76</ele>
        <time>2016-08-14T06:46:11Z</time>
      </trkpt>
      <trkpt lat="45.49008" lon="6.6794">
        <ele>2386.61</ele>
        <time>2016-08-14T06:46:23Z</time>
      </trkpt>
      <trkpt lat="45.49007" lon="6.67937">
        <ele>2387.09</ele>
        <time>2016-08-14T06:46:26Z</time>
      </trkpt>
      <trkpt lat="45.49003" lon="6.67915">
        <ele>2390.94</ele>
        <time>2016-08-14T06:46:40Z</time>
      </trkpt>
      <trkpt lat="45.48997" lon="6.67897">
        <ele>2394.78</ele>
        <time>2016-08-14T06:46:53Z</time>
      </trkpt>
      <trkpt lat="45.48996" lon="6.67893">
        <ele>2394.78</ele>
        <time>2016-08-14T06:46:55Z</time>
      </trkpt>
      <trkpt lat="45.48995" lon="6.67872">
        <ele>2398.15</ele>
        <time>2016-08-14T06:47:08Z</time>
      </trkpt>
      <trkpt lat="45.48988" lon="6.67856">
        <ele>2401.99</ele>
        <time>2016-08-14T06:47:22Z</time>
      </trkpt>
      <trkpt lat="45.48979" lon="6.67843">
        <ele>2404.88</ele>
        <time>2016-08-14T06:47:34Z</time>
      </trkpt>
      <trkpt lat="45.48974" lon="6.67831">
        <ele>2408.24</ele>
        <time>2016-08-14T06:47:45Z</time>
      </trkpt>
      <trkpt lat="45.48973" lon="6.67826">
        <ele>2409.68</ele>
        <time>2016-08-14T06:47:49Z</time>
      </trkpt>
      <trkpt lat="45.48971" lon="6.6781">
        <ele>2413.05</ele>
        <time>2016-08-14T06:48:01Z</time>
      </trkpt>
      <trkpt lat="45.48967" lon="6.67796">
        <ele>2416.41</ele>
        <time>2016-08-14T06:48:13Z</time>
      </trkpt>
      <trkpt lat="45.48964" lon="6.67775">
        <ele>2420.26</ele>
        <time>2016-08-14T06:48:26Z</time>
      </trkpt>
      <trkpt lat="45.48956" lon="6.67755">
        <ele>2423.62</ele>
        <time>2016-08-14T06:48:38Z</time>
      </trkpt>
      <trkpt lat="45.48947" lon="6.67737">
        <ele>2426.02</ele>
        <time>2016-08-14T06:48:48Z</time>
      </trkpt>
      <trkpt lat="45.48939" lon="6.67716">
        <ele>2428.91</ele>
        <time>2016-08-14T06:48:59Z</time>
      </trkpt>
      <trkpt lat="45.48926" lon="6.6769">
        <ele>2431.31</ele>
        <time>2016-08-14T06:49:15Z</time>
      </trkpt>
      <trkpt lat="45.48922" lon="6.67685">
        <ele>2431.79</ele>
        <time>2016-08-14T06:49:19Z</time>
      </trkpt>
      <trkpt lat="45.48921" lon="6.67678">
        <ele>2432.27</ele>
        <time>2016-08-14T06:49:36Z</time>
      </trkpt>
      <trkpt lat="45.4892" lon="6.67676">
        <ele>2432.75</ele>
        <time>2016-08-14T06:49:45Z</time>
      </trkpt>
      <trkpt lat="45.48903" lon="6.67648">
        <ele>2434.2</ele>
        <time>2016-08-14T06:50:01Z</time>
      </trkpt>
      <trkpt lat="45.48887" lon="6.67619">
        <ele>2436.6</ele>
        <time>2016-08-14T06:50:13Z</time>
      </trkpt>
      <trkpt lat="45.48872" lon="6.67583">
        <ele>2438.52</ele>
        <time>2016-08-14T06:50:26Z</time>
      </trkpt>
      <trkpt lat="45.48861" lon="6.67545">
        <ele>2437.08</ele>
        <time>2016-08-14T06:50:39Z</time>
      </trkpt>
      <trkpt lat="45.48861" lon="6.67521">
        <ele>2436.12</ele>
        <time>2016-08-14T06:50:47Z</time>
      </trkpt>
      <trkpt lat="45.48862" lon="6.67518">
        <ele>2436.12</ele>
        <time>2016-08-14T06:50:48Z</time>
      </trkpt>
      <trkpt lat="45.48863" lon="6.67514">
        <ele>2436.12</ele>
        <time>2016-08-14T06:50:49Z</time>
      </trkpt>
      <trkpt lat="45.48864" lon="6.67511">
        <ele>2436.12</ele>
        <time>2016-08-14T06:50:50Z</time>
      </trkpt>
      <trkpt lat="45.48865" lon="6.67507">
        <ele>2435.16</ele>
        <time>2016-08-14T06:50:51Z</time>
      </trkpt>
      <trkpt lat="45.48874" lon="6.67471">
        <ele>2434.68</ele>
        <time>2016-08-14T06:51:03Z</time>
      </trkpt>
      <trkpt lat="45.48876" lon="6.67467">
        <ele>2434.68</ele>
        <time>2016-08-14T06:51:05Z</time>
      </trkpt>
      <trkpt lat="45.48886" lon="6.67457">
        <ele>2431.31</ele>
        <time>2016-08-14T06:51:13Z</time>
      </trkpt>
      <trkpt lat="45.48886" lon="6.67434">
        <ele>2430.83</ele>
        <time>2016-08-14T06:51:20Z</time>
      </trkpt>
      <trkpt lat="45.48886" lon="6.67432">
        <ele>2430.83</ele>
        <time>2016-08-14T06:51:21Z</time>
      </trkpt>
      <trkpt lat="45.48886" lon="6.6743">
        <ele>2430.83</ele>
        <time>2016-08-14T06:51:22Z</time>
      </trkpt>
      <trkpt lat="45.48886" lon="6.67428">
        <ele>2430.35</ele>
        <time>2016-08-14T06:51:23Z</time>
      </trkpt>
      <trkpt lat="45.48885" lon="6.67405">
        <ele>2426.99</ele>
        <time>2016-08-14T06:51:33Z</time>
      </trkpt>
      <trkpt lat="45.48885" lon="6.67402">
        <ele>2426.5</ele>
        <time>2016-08-14T06:51:34Z</time>
      </trkpt>
      <trkpt lat="45.48887" lon="6.67399">
        <ele>2426.5</ele>
        <time>2016-08-14T06:51:35Z</time>
      </trkpt>
      <trkpt lat="45.48888" lon="6.67397">
        <ele>2426.02</ele>
        <time>2016-08-14T06:51:36Z</time>
      </trkpt>
      <trkpt lat="45.48889" lon="6.67394">
        <ele>2425.54</ele>
        <time>2016-08-14T06:51:37Z</time>
      </trkpt>
      <trkpt lat="45.48889" lon="6.67392">
        <ele>2425.54</ele>
        <time>2016-08-14T06:51:38Z</time>
      </trkpt>
      <trkpt lat="45.4889" lon="6.67389">
        <ele>2425.54</ele>
        <time>2016-08-14T06:51:39Z</time>
      </trkpt>
      <trkpt lat="45.48893" lon="6.67372">
        <ele>2423.62</ele>
        <time>2016-08-14T06:51:46Z</time>
      </trkpt>
      <trkpt lat="45.48893" lon="6.67369">
        <ele>2423.62</ele>
        <time>2016-08-14T06:51:47Z</time>
      </trkpt>
      <trkpt lat="45.48893" lon="6.67365">
        <ele>2423.62</ele>
        <time>2016-08-14T06:51:48Z</time>
      </trkpt>
      <trkpt lat="45.48893" lon="6.67362">
        <ele>2423.14</ele>
        <time>2016-08-14T06:51:49Z</time>
      </trkpt>
      <trkpt lat="45.48892" lon="6.67359">
        <ele>2423.14</ele>
        <time>2016-08-14T06:51:50Z</time>
      </trkpt>
      <trkpt lat="45.48892" lon="6.67355">
        <ele>2423.14</ele>
        <time>2016-08-14T06:51:51Z</time>
      </trkpt>
      <trkpt lat="45.48892" lon="6.67353">
        <ele>2423.14</ele>
        <time>2016-08-14T06:51:52Z</time>
      </trkpt>
      <trkpt lat="45.48895" lon="6.67331">
        <ele>2419.3</ele>
        <time>2016-08-14T06:52:00Z</time>
      </trkpt>
      <trkpt lat="45.48895" lon="6.67327">
        <ele>2419.3</ele>
        <time>2016-08-14T06:52:01Z</time>
      </trkpt>
      <trkpt lat="45.48895" lon="6.67324">
        <ele>2419.3</ele>
        <time>2016-08-14T06:52:02Z</time>
      </trkpt>
      <trkpt lat="45.48896" lon="6.67321">
        <ele>2418.81</ele>
        <time>2016-08-14T06:52:03Z</time>
      </trkpt>
      <trkpt lat="45.48896" lon="6.67318">
        <ele>2418.81</ele>
        <time>2016-08-14T06:52:04Z</time>
      </trkpt>
      <trkpt lat="45.48896" lon="6.67315">
        <ele>2418.81</ele>
        <time>2016-08-14T06:52:05Z</time>
      </trkpt>
      <trkpt lat="45.48896" lon="6.67312">
        <ele>2418.81</ele>
        <time>2016-08-14T06:52:06Z</time>
      </trkpt>
      <trkpt lat="45.48899" lon="6.67295">
        <ele>2417.37</ele>
        <time>2016-08-14T06:52:11Z</time>
      </trkpt>
      <trkpt lat="45.48903" lon="6.67282">
        <ele>2416.41</ele>
        <time>2016-08-14T06:52:16Z</time>
      </trkpt>
      <trkpt lat="45.48903" lon="6.6727">
        <ele>2415.45</ele>
        <time>2016-08-14T06:52:20Z</time>
      </trkpt>
      <trkpt lat="45.48902" lon="6.67266">
        <ele>2414.49</ele>
        <time>2016-08-14T06:52:21Z</time>
      </trkpt>
      <trkpt lat="45.48902" lon="6.67264">
        <ele>2414.49</ele>
        <time>2016-08-14T06:52:22Z</time>
      </trkpt>
      <trkpt lat="45.48901" lon="6.67261">
        <ele>2414.49</ele>
        <time>2016-08-14T06:52:23Z</time>
      </trkpt>
      <trkpt lat="45.48901" lon="6.67259">
        <ele>2414.01</ele>
        <time>2016-08-14T06:52:24Z</time>
      </trkpt>
      <trkpt lat="45.489" lon="6.67257">
        <ele>2413.53</ele>
        <time>2016-08-14T06:52:25Z</time>
      </trkpt>
      <trkpt lat="45.48901" lon="6.67255">
        <ele>2413.53</ele>
        <time>2016-08-14T06:52:26Z</time>
      </trkpt>
      <trkpt lat="45.48901" lon="6.67253">
        <ele>2412.57</ele>
        <time>2016-08-14T06:52:27Z</time>
      </trkpt>
      <trkpt lat="45.48901" lon="6.6725">
        <ele>2412.57</ele>
        <time>2016-08-14T06:52:28Z</time>
      </trkpt>
      <trkpt lat="45.48902" lon="6.67244">
        <ele>2411.6</ele>
        <time>2016-08-14T06:52:31Z</time>
      </trkpt>
      <trkpt lat="45.48905" lon="6.67229">
        <ele>2407.76</ele>
        <time>2016-08-14T06:52:39Z</time>
      </trkpt>
      <trkpt lat="45.48911" lon="6.67218">
        <ele>2404.39</ele>
        <time>2016-08-14T06:52:47Z</time>
      </trkpt>
      <trkpt lat="45.48912" lon="6.67217">
        <ele>2403.91</ele>
        <time>2016-08-14T06:52:48Z</time>
      </trkpt>
      <trkpt lat="45.48913" lon="6.67216">
        <ele>2403.91</ele>
        <time>2016-08-14T06:52:49Z</time>
      </trkpt>
      <trkpt lat="45.48914" lon="6.67216">
        <ele>2402.95</ele>
        <time>2016-08-14T06:52:50Z</time>
      </trkpt>
      <trkpt lat="45.48915" lon="6.67216">
        <ele>2402.95</ele>
        <time>2016-08-14T06:52:51Z</time>
      </trkpt>
      <trkpt lat="45.48916" lon="6.67215">
        <ele>2401.99</ele>
        <time>2016-08-14T06:52:52Z</time>
      </trkpt>
      <trkpt lat="45.48917" lon="6.67214">
        <ele>2402.47</ele>
        <time>2016-08-14T06:52:53Z</time>
      </trkpt>
      <trkpt lat="45.48918" lon="6.67213">
        <ele>2401.51</ele>
        <time>2016-08-14T06:52:54Z</time>
      </trkpt>
      <trkpt lat="45.48919" lon="6.67213">
        <ele>2401.03</ele>
        <time>2016-08-14T06:52:55Z</time>
      </trkpt>
      <trkpt lat="45.4892" lon="6.67212">
        <ele>2400.55</ele>
        <time>2016-08-14T06:52:56Z</time>
      </trkpt>
      <trkpt lat="45.48922" lon="6.67211">
        <ele>2399.59</ele>
        <time>2016-08-14T06:52:57Z</time>
      </trkpt>
      <trkpt lat="45.48924" lon="6.6721">
        <ele>2399.59</ele>
        <time>2016-08-14T06:52:59Z</time>
      </trkpt>
      <trkpt lat="45.48924" lon="6.67208">
        <ele>2399.59</ele>
        <time>2016-08-14T06:53:00Z</time>
      </trkpt>
      <trkpt lat="45.48926" lon="6.67206">
        <ele>2398.15</ele>
        <time>2016-08-14T06:53:02Z</time>
      </trkpt>
      <trkpt lat="45.48929" lon="6.67201">
        <ele>2396.7</ele>
        <time>2016-08-14T06:53:07Z</time>
      </trkpt>
      <trkpt lat="45.48929" lon="6.67198">
        <ele>2395.74</ele>
        <time>2016-08-14T06:53:09Z</time>
      </trkpt>
      <trkpt lat="45.48928" lon="6.67196">
        <ele>2395.26</ele>
        <time>2016-08-14T06:53:10Z</time>
      </trkpt>
      <trkpt lat="45.48928" lon="6.67195">
        <ele>2394.78</ele>
        <time>2016-08-14T06:53:11Z</time>
      </trkpt>
      <trkpt lat="45.48924" lon="6.67189">
        <ele>2392.86</ele>
        <time>2016-08-14T06:53:15Z</time>
      </trkpt>
      <trkpt lat="45.48924" lon="6.67186">
        <ele>2392.86</ele>
        <time>2016-08-14T06:53:16Z</time>
      </trkpt>
      <trkpt lat="45.48925" lon="6.67184">
        <ele>2391.9</ele>
        <time>2016-08-14T06:53:17Z</time>
      </trkpt>
      <trkpt lat="45.48925" lon="6.67181">
        <ele>2391.9</ele>
        <time>2016-08-14T06:53:18Z</time>
      </trkpt>
      <trkpt lat="45.48926" lon="6.67177">
        <ele>2391.42</ele>
        <time>2016-08-14T06:53:19Z</time>
      </trkpt>
      <trkpt lat="45.48926" lon="6.67152">
        <ele>2388.05</ele>
        <time>2016-08-14T06:53:28Z</time>
      </trkpt>
      <trkpt lat="45.48925" lon="6.67126">
        <ele>2385.65</ele>
        <time>2016-08-14T06:53:37Z</time>
      </trkpt>
      <trkpt lat="45.48933" lon="6.67104">
        <ele>2382.28</ele>
        <time>2016-08-14T06:53:49Z</time>
      </trkpt>
      <trkpt lat="45.48936" lon="6.67095">
        <ele>2383.73</ele>
        <time>2016-08-14T06:53:54Z</time>
      </trkpt>
      <trkpt lat="45.4894" lon="6.67091">
        <ele>2385.65</ele>
        <time>2016-08-14T06:53:59Z</time>
      </trkpt>
      <trkpt lat="45.48941" lon="6.6709">
        <ele>2385.65</ele>
        <time>2016-08-14T06:54:00Z</time>
      </trkpt>
      <trkpt lat="45.48945" lon="6.67083">
        <ele>2387.09</ele>
        <time>2016-08-14T06:54:06Z</time>
      </trkpt>
      <trkpt lat="45.48946" lon="6.67081">
        <ele>2387.57</ele>
        <time>2016-08-14T06:54:07Z</time>
      </trkpt>
      <trkpt lat="45.48947" lon="6.67079">
        <ele>2387.57</ele>
        <time>2016-08-14T06:54:08Z</time>
      </trkpt>
      <trkpt lat="45.48947" lon="6.67078">
        <ele>2388.05</ele>
        <time>2016-08-14T06:54:09Z</time>
      </trkpt>
      <trkpt lat="45.48948" lon="6.67076">
        <ele>2388.05</ele>
        <time>2016-08-14T06:54:10Z</time>
      </trkpt>
      <trkpt lat="45.48949" lon="6.67074">
        <ele>2388.53</ele>
        <time>2016-08-14T06:54:11Z</time>
      </trkpt>
      <trkpt lat="45.4895" lon="6.67073">
        <ele>2388.53</ele>
        <time>2016-08-14T06:54:12Z</time>
      </trkpt>
      <trkpt lat="45.48957" lon="6.67062">
        <ele>2391.42</ele>
        <time>2016-08-14T06:54:21Z</time>
      </trkpt>
      <trkpt lat="45.48967" lon="6.6704">
        <ele>2394.78</ele>
        <time>2016-08-14T06:54:34Z</time>
      </trkpt>
      <trkpt lat="45.48973" lon="6.67027">
        <ele>2398.63</ele>
        <time>2016-08-14T06:54:44Z</time>
      </trkpt>
      <trkpt lat="45.48984" lon="6.67013">
        <ele>2401.51</ele>
        <time>2016-08-14T06:54:56Z</time>
      </trkpt>
      <trkpt lat="45.48986" lon="6.6701">
        <ele>2402.47</ele>
        <time>2016-08-14T06:54:59Z</time>
      </trkpt>
      <trkpt lat="45.48987" lon="6.67008">
        <ele>2402.47</ele>
        <time>2016-08-14T06:55:00Z</time>
      </trkpt>
      <trkpt lat="45.48988" lon="6.67007">
        <ele>2402.47</ele>
        <time>2016-08-14T06:55:01Z</time>
      </trkpt>
      <trkpt lat="45.48988" lon="6.67006">
        <ele>2402.95</ele>
        <time>2016-08-14T06:55:02Z</time>
      </trkpt>
      <trkpt lat="45.48989" lon="6.67005">
        <ele>2402.95</ele>
        <time>2016-08-14T06:55:03Z</time>
      </trkpt>
      <trkpt lat="45.4899" lon="6.67004">
        <ele>2403.43</ele>
        <time>2016-08-14T06:55:04Z</time>
      </trkpt>
      <trkpt lat="45.48991" lon="6.67003">
        <ele>2403.43</ele>
        <time>2016-08-14T06:55:05Z</time>
      </trkpt>
      <trkpt lat="45.48992" lon="6.67002">
        <ele>2403.43</ele>
        <time>2016-08-14T06:55:06Z</time>
      </trkpt>
      <trkpt lat="45.48996" lon="6.66996">
        <ele>2403.91</ele>
        <time>2016-08-14T06:55:11Z</time>
      </trkpt>
      <trkpt lat="45.48996" lon="6.66995">
        <ele>2404.39</ele>
        <time>2016-08-14T06:55:12Z</time>
      </trkpt>
      <trkpt lat="45.48997" lon="6.66994">
        <ele>2404.39</ele>
        <time>2016-08-14T06:55:13Z</time>
      </trkpt>
      <trkpt lat="45.48999" lon="6.66993">
        <ele>2404.39</ele>
        <time>2016-08-14T06:55:14Z</time>
      </trkpt>
      <trkpt lat="45.49" lon="6.66992">
        <ele>2404.39</ele>
        <time>2016-08-14T06:55:15Z</time>
      </trkpt>
      <trkpt lat="45.49011" lon="6.66974">
        <ele>2406.32</ele>
        <time>2016-08-14T06:55:28Z</time>
      </trkpt>
      <trkpt lat="45.49014" lon="6.66958">
        <ele>2408.72</ele>
        <time>2016-08-14T06:55:37Z</time>
      </trkpt>
      <trkpt lat="45.49021" lon="6.66946">
        <ele>2411.6</ele>
        <time>2016-08-14T06:55:47Z</time>
      </trkpt>
      <trkpt lat="45.49027" lon="6.66936">
        <ele>2414.97</ele>
        <time>2016-08-14T06:55:58Z</time>
      </trkpt>
      <trkpt lat="45.49029" lon="6.66931">
        <ele>2417.37</ele>
        <time>2016-08-14T06:56:03Z</time>
      </trkpt>
      <trkpt lat="45.49031" lon="6.66927">
        <ele>2417.85</ele>
        <time>2016-08-14T06:56:06Z</time>
      </trkpt>
      <trkpt lat="45.49031" lon="6.66926">
        <ele>2418.33</ele>
        <time>2016-08-14T06:56:07Z</time>
      </trkpt>
      <trkpt lat="45.49036" lon="6.66914">
        <ele>2421.7</ele>
        <time>2016-08-14T06:56:17Z</time>
      </trkpt>
      <trkpt lat="45.49038" lon="6.66912">
        <ele>2422.66</ele>
        <time>2016-08-14T06:56:19Z</time>
      </trkpt>
      <trkpt lat="45.49039" lon="6.66903">
        <ele>2424.58</ele>
        <time>2016-08-14T06:56:33Z</time>
      </trkpt>
      <trkpt lat="45.49042" lon="6.66899">
        <ele>2426.5</ele>
        <time>2016-08-14T06:56:39Z</time>
      </trkpt>
      <trkpt lat="45.49048" lon="6.66892">
        <ele>2430.35</ele>
        <time>2016-08-14T06:56:48Z</time>
      </trkpt>
      <trkpt lat="45.49053" lon="6.66882">
        <ele>2433.71</ele>
        <time>2016-08-14T06:56:58Z</time>
      </trkpt>
      <trkpt lat="45.4906" lon="6.66873">
        <ele>2437.08</ele>
        <time>2016-08-14T06:57:09Z</time>
      </trkpt>
      <trkpt lat="45.49067" lon="6.66853">
        <ele>2439.96</ele>
        <time>2016-08-14T06:57:22Z</time>
      </trkpt>
      <trkpt lat="45.49073" lon="6.66835">
        <ele>2443.33</ele>
        <time>2016-08-14T06:57:36Z</time>
      </trkpt>
      <trkpt lat="45.49073" lon="6.66833">
        <ele>2443.81</ele>
        <time>2016-08-14T06:57:38Z</time>
      </trkpt>
      <trkpt lat="45.49077" lon="6.66824">
        <ele>2447.17</ele>
        <time>2016-08-14T06:57:49Z</time>
      </trkpt>
      <trkpt lat="45.49082" lon="6.66816">
        <ele>2450.54</ele>
        <time>2016-08-14T06:57:58Z</time>
      </trkpt>
      <trkpt lat="45.49083" lon="6.66809">
        <ele>2454.38</ele>
        <time>2016-08-14T06:58:06Z</time>
      </trkpt>
      <trkpt lat="45.49084" lon="6.66808">
        <ele>2454.38</ele>
        <time>2016-08-14T06:58:07Z</time>
      </trkpt>
      <trkpt lat="45.49088" lon="6.66806">
        <ele>2456.79</ele>
        <time>2016-08-14T06:58:15Z</time>
      </trkpt>
      <trkpt lat="45.49088" lon="6.66803">
        <ele>2458.71</ele>
        <time>2016-08-14T06:58:18Z</time>
      </trkpt>
      <trkpt lat="45.49089" lon="6.66802">
        <ele>2458.71</ele>
        <time>2016-08-14T06:58:19Z</time>
      </trkpt>
      <trkpt lat="45.49093" lon="6.66788">
        <ele>2462.07</ele>
        <time>2016-08-14T06:58:30Z</time>
      </trkpt>
      <trkpt lat="45.49095" lon="6.6678">
        <ele>2464.96</ele>
        <time>2016-08-14T06:58:38Z</time>
      </trkpt>
      <trkpt lat="45.49099" lon="6.66774">
        <ele>2468.32</ele>
        <time>2016-08-14T06:58:46Z</time>
      </trkpt>
      <trkpt lat="45.49102" lon="6.66767">
        <ele>2471.21</ele>
        <time>2016-08-14T06:58:55Z</time>
      </trkpt>
      <trkpt lat="45.49108" lon="6.66755">
        <ele>2474.57</ele>
        <time>2016-08-14T06:59:06Z</time>
      </trkpt>
      <trkpt lat="45.49108" lon="6.66748">
        <ele>2477.45</ele>
        <time>2016-08-14T06:59:14Z</time>
      </trkpt>
      <trkpt lat="45.49111" lon="6.66741">
        <ele>2479.38</ele>
        <time>2016-08-14T06:59:19Z</time>
      </trkpt>
      <trkpt lat="45.49117" lon="6.66732">
        <ele>2482.74</ele>
        <time>2016-08-14T06:59:28Z</time>
      </trkpt>
      <trkpt lat="45.49121" lon="6.66726">
        <ele>2485.15</ele>
        <time>2016-08-14T06:59:36Z</time>
      </trkpt>
      <trkpt lat="45.49125" lon="6.66722">
        <ele>2488.51</ele>
        <time>2016-08-14T06:59:44Z</time>
      </trkpt>
      <trkpt lat="45.49128" lon="6.66711">
        <ele>2492.36</ele>
        <time>2016-08-14T06:59:54Z</time>
      </trkpt>
      <trkpt lat="45.49131" lon="6.66701">
        <ele>2495.72</ele>
        <time>2016-08-14T07:00:03Z</time>
      </trkpt>
      <trkpt lat="45.49132" lon="6.66699">
        <ele>2497.16</ele>
        <time>2016-08-14T07:00:07Z</time>
      </trkpt>
      <trkpt lat="45.49135" lon="6.66694">
        <ele>2500.53</ele>
        <time>2016-08-14T07:00:15Z</time>
      </trkpt>
      <trkpt lat="45.49136" lon="6.66686">
        <ele>2502.93</ele>
        <time>2016-08-14T07:00:22Z</time>
      </trkpt>
      <trkpt lat="45.49137" lon="6.66684">
        <ele>2503.89</ele>
        <time>2016-08-14T07:00:24Z</time>
      </trkpt>
      <trkpt lat="45.49143" lon="6.66677">
        <ele>2507.26</ele>
        <time>2016-08-14T07:00:33Z</time>
      </trkpt>
      <trkpt lat="45.49147" lon="6.66673">
        <ele>2509.66</ele>
        <time>2016-08-14T07:00:39Z</time>
      </trkpt>
      <trkpt lat="45.49151" lon="6.66668">
        <ele>2513.02</ele>
        <time>2016-08-14T07:00:46Z</time>
      </trkpt>
      <trkpt lat="45.49157" lon="6.66665">
        <ele>2516.39</ele>
        <time>2016-08-14T07:00:55Z</time>
      </trkpt>
      <trkpt lat="45.49161" lon="6.66659">
        <ele>2519.27</ele>
        <time>2016-08-14T07:01:02Z</time>
      </trkpt>
      <trkpt lat="45.49163" lon="6.66654">
        <ele>2519.27</ele>
        <time>2016-08-14T07:01:05Z</time>
      </trkpt>
      <trkpt lat="45.49168" lon="6.66641">
        <ele>2522.64</ele>
        <time>2016-08-14T07:01:17Z</time>
      </trkpt>
      <trkpt lat="45.49171" lon="6.66625">
        <ele>2526</ele>
        <time>2016-08-14T07:01:31Z</time>
      </trkpt>
      <trkpt lat="45.49175" lon="6.66608">
        <ele>2526.96</ele>
        <time>2016-08-14T07:01:41Z</time>
      </trkpt>
      <trkpt lat="45.49175" lon="6.66606">
        <ele>2526.96</ele>
        <time>2016-08-14T07:01:42Z</time>
      </trkpt>
      <trkpt lat="45.49176" lon="6.66604">
        <ele>2527.92</ele>
        <time>2016-08-14T07:01:43Z</time>
      </trkpt>
      <trkpt lat="45.49179" lon="6.66591">
        <ele>2528.4</ele>
        <time>2016-08-14T07:01:49Z</time>
      </trkpt>
      <trkpt lat="45.49179" lon="6.66589">
        <ele>2528.4</ele>
        <time>2016-08-14T07:01:50Z</time>
      </trkpt>
      <trkpt lat="45.4918" lon="6.66586">
        <ele>2528.4</ele>
        <time>2016-08-14T07:01:51Z</time>
      </trkpt>
      <trkpt lat="45.4918" lon="6.66584">
        <ele>2528.4</ele>
        <time>2016-08-14T07:01:52Z</time>
      </trkpt>
      <trkpt lat="45.49181" lon="6.66581">
        <ele>2528.4</ele>
        <time>2016-08-14T07:01:53Z</time>
      </trkpt>
      <trkpt lat="45.49181" lon="6.66579">
        <ele>2528.4</ele>
        <time>2016-08-14T07:01:54Z</time>
      </trkpt>
      <trkpt lat="45.49182" lon="6.66576">
        <ele>2528.4</ele>
        <time>2016-08-14T07:01:55Z</time>
      </trkpt>
      <trkpt lat="45.49182" lon="6.66574">
        <ele>2528.4</ele>
        <time>2016-08-14T07:01:56Z</time>
      </trkpt>
      <trkpt lat="45.49192" lon="6.66542">
        <ele>2531.77</ele>
        <time>2016-08-14T07:02:12Z</time>
      </trkpt>
      <trkpt lat="45.49197" lon="6.66531">
        <ele>2535.13</ele>
        <time>2016-08-14T07:02:22Z</time>
      </trkpt>
      <trkpt lat="45.49202" lon="6.66517">
        <ele>2537.06</ele>
        <time>2016-08-14T07:02:31Z</time>
      </trkpt>
      <trkpt lat="45.49202" lon="6.66516">
        <ele>2537.54</ele>
        <time>2016-08-14T07:02:32Z</time>
      </trkpt>
      <trkpt lat="45.49206" lon="6.66499">
        <ele>2540.42</ele>
        <time>2016-08-14T07:02:45Z</time>
      </trkpt>
      <trkpt lat="45.49211" lon="6.66491">
        <ele>2543.31</ele>
        <time>2016-08-14T07:02:55Z</time>
      </trkpt>
      <trkpt lat="45.49215" lon="6.66473">
        <ele>2546.19</ele>
        <time>2016-08-14T07:03:11Z</time>
      </trkpt>
      <trkpt lat="45.49216" lon="6.6646">
        <ele>2545.23</ele>
        <time>2016-08-14T07:03:16Z</time>
      </trkpt>
      <trkpt lat="45.49219" lon="6.66453">
        <ele>2546.67</ele>
        <time>2016-08-14T07:03:20Z</time>
      </trkpt>
      <trkpt lat="45.49221" lon="6.66445">
        <ele>2549.55</ele>
        <time>2016-08-14T07:03:28Z</time>
      </trkpt>
      <trkpt lat="45.49226" lon="6.66437">
        <ele>2553.4</ele>
        <time>2016-08-14T07:03:39Z</time>
      </trkpt>
      <trkpt lat="45.49233" lon="6.66418">
        <ele>2551.96</ele>
        <time>2016-08-14T07:03:51Z</time>
      </trkpt>
      <trkpt lat="45.49239" lon="6.66409">
        <ele>2555.8</ele>
        <time>2016-08-14T07:04:03Z</time>
      </trkpt>
      <trkpt lat="45.49244" lon="6.664">
        <ele>2559.17</ele>
        <time>2016-08-14T07:04:14Z</time>
      </trkpt>
      <trkpt lat="45.49254" lon="6.66381">
        <ele>2561.09</ele>
        <time>2016-08-14T07:04:28Z</time>
      </trkpt>
      <trkpt lat="45.49257" lon="6.66382">
        <ele>2561.57</ele>
        <time>2016-08-14T07:04:44Z</time>
      </trkpt>
      <trkpt lat="45.49256" lon="6.66381">
        <ele>2562.05</ele>
        <time>2016-08-14T07:05:07Z</time>
      </trkpt>
      <trkpt lat="45.49257" lon="6.66382">
        <ele>2562.05</ele>
        <time>2016-08-14T07:05:25Z</time>
      </trkpt>
      <trkpt lat="45.49258" lon="6.66375">
        <ele>2560.13</ele>
        <time>2016-08-14T07:05:44Z</time>
      </trkpt>
      <trkpt lat="45.49259" lon="6.66367">
        <ele>2556.76</ele>
        <time>2016-08-14T07:05:53Z</time>
      </trkpt>
      <trkpt lat="45.49262" lon="6.66359">
        <ele>2553.88</ele>
        <time>2016-08-14T07:06:02Z</time>
      </trkpt>
      <trkpt lat="45.49265" lon="6.6635">
        <ele>2550.03</ele>
        <time>2016-08-14T07:06:12Z</time>
      </trkpt>
      <trkpt lat="45.49271" lon="6.66339">
        <ele>2546.67</ele>
        <time>2016-08-14T07:06:21Z</time>
      </trkpt>
      <trkpt lat="45.49271" lon="6.66337">
        <ele>2546.19</ele>
        <time>2016-08-14T07:06:22Z</time>
      </trkpt>
      <trkpt lat="45.49272" lon="6.66336">
        <ele>2546.19</ele>
        <time>2016-08-14T07:06:23Z</time>
      </trkpt>
      <trkpt lat="45.49281" lon="6.66314">
        <ele>2542.82</ele>
        <time>2016-08-14T07:06:33Z</time>
      </trkpt>
      <trkpt lat="45.49281" lon="6.66309">
        <ele>2542.82</ele>
        <time>2016-08-14T07:06:36Z</time>
      </trkpt>
      <trkpt lat="45.49281" lon="6.66307">
        <ele>2542.82</ele>
        <time>2016-08-14T07:06:37Z</time>
      </trkpt>
      <trkpt lat="45.49282" lon="6.66305">
        <ele>2542.34</ele>
        <time>2016-08-14T07:06:38Z</time>
      </trkpt>
      <trkpt lat="45.49282" lon="6.66302">
        <ele>2542.34</ele>
        <time>2016-08-14T07:06:39Z</time>
      </trkpt>
      <trkpt lat="45.49283" lon="6.663">
        <ele>2541.86</ele>
        <time>2016-08-14T07:06:40Z</time>
      </trkpt>
      <trkpt lat="45.49283" lon="6.66273">
        <ele>2540.9</ele>
        <time>2016-08-14T07:06:52Z</time>
      </trkpt>
      <trkpt lat="45.49279" lon="6.66261">
        <ele>2538.02</ele>
        <time>2016-08-14T07:07:02Z</time>
      </trkpt>
      <trkpt lat="45.49275" lon="6.66251">
        <ele>2534.65</ele>
        <time>2016-08-14T07:07:12Z</time>
      </trkpt>
      <trkpt lat="45.49272" lon="6.66241">
        <ele>2531.29</ele>
        <time>2016-08-14T07:07:21Z</time>
      </trkpt>
      <trkpt lat="45.49268" lon="6.66232">
        <ele>2528.4</ele>
        <time>2016-08-14T07:07:29Z</time>
      </trkpt>
      <trkpt lat="45.49264" lon="6.66224">
        <ele>2525.04</ele>
        <time>2016-08-14T07:07:39Z</time>
      </trkpt>
      <trkpt lat="45.4926" lon="6.66214">
        <ele>2522.16</ele>
        <time>2016-08-14T07:07:49Z</time>
      </trkpt>
      <trkpt lat="45.49258" lon="6.66204">
        <ele>2518.31</ele>
        <time>2016-08-14T07:08:00Z</time>
      </trkpt>
      <trkpt lat="45.49253" lon="6.66193">
        <ele>2514.95</ele>
        <time>2016-08-14T07:08:11Z</time>
      </trkpt>
      <trkpt lat="45.49249" lon="6.66184">
        <ele>2511.58</ele>
        <time>2016-08-14T07:08:23Z</time>
      </trkpt>
      <trkpt lat="45.49243" lon="6.66176">
        <ele>2508.22</ele>
        <time>2016-08-14T07:08:34Z</time>
      </trkpt>
      <trkpt lat="45.49238" lon="6.66167">
        <ele>2505.33</ele>
        <time>2016-08-14T07:08:46Z</time>
      </trkpt>
      <trkpt lat="45.49233" lon="6.66157">
        <ele>2501.97</ele>
        <time>2016-08-14T07:08:55Z</time>
      </trkpt>
      <trkpt lat="45.49225" lon="6.66144">
        <ele>2498.6</ele>
        <time>2016-08-14T07:09:06Z</time>
      </trkpt>
      <trkpt lat="45.49219" lon="6.66135">
        <ele>2496.2</ele>
        <time>2016-08-14T07:09:14Z</time>
      </trkpt>
      <trkpt lat="45.49218" lon="6.66133">
        <ele>2495.72</ele>
        <time>2016-08-14T07:09:15Z</time>
      </trkpt>
      <trkpt lat="45.49217" lon="6.66132">
        <ele>2495.24</ele>
        <time>2016-08-14T07:09:16Z</time>
      </trkpt>
      <trkpt lat="45.49209" lon="6.66115">
        <ele>2491.87</ele>
        <time>2016-08-14T07:09:29Z</time>
      </trkpt>
      <trkpt lat="45.49206" lon="6.66106">
        <ele>2488.99</ele>
        <time>2016-08-14T07:09:39Z</time>
      </trkpt>
      <trkpt lat="45.49201" lon="6.66095">
        <ele>2486.11</ele>
        <time>2016-08-14T07:09:48Z</time>
      </trkpt>
      <trkpt lat="45.492" lon="6.6609">
        <ele>2484.66</ele>
        <time>2016-08-14T07:09:51Z</time>
      </trkpt>
      <trkpt lat="45.492" lon="6.66089">
        <ele>2484.66</ele>
        <time>2016-08-14T07:09:52Z</time>
      </trkpt>
      <trkpt lat="45.49199" lon="6.66087">
        <ele>2484.18</ele>
        <time>2016-08-14T07:09:53Z</time>
      </trkpt>
      <trkpt lat="45.49194" lon="6.66075">
        <ele>2481.3</ele>
        <time>2016-08-14T07:10:03Z</time>
      </trkpt>
      <trkpt lat="45.49189" lon="6.66065">
        <ele>2477.94</ele>
        <time>2016-08-14T07:10:12Z</time>
      </trkpt>
      <trkpt lat="45.49187" lon="6.6605">
        <ele>2474.57</ele>
        <time>2016-08-14T07:10:21Z</time>
      </trkpt>
      <trkpt lat="45.49185" lon="6.66035">
        <ele>2471.69</ele>
        <time>2016-08-14T07:10:29Z</time>
      </trkpt>
      <trkpt lat="45.49183" lon="6.66023">
        <ele>2468.32</ele>
        <time>2016-08-14T07:10:37Z</time>
      </trkpt>
      <trkpt lat="45.49183" lon="6.6602">
        <ele>2467.84</ele>
        <time>2016-08-14T07:10:39Z</time>
      </trkpt>
      <trkpt lat="45.49182" lon="6.66017">
        <ele>2466.88</ele>
        <time>2016-08-14T07:10:42Z</time>
      </trkpt>
      <trkpt lat="45.49181" lon="6.66014">
        <ele>2465.44</ele>
        <time>2016-08-14T07:10:44Z</time>
      </trkpt>
      <trkpt lat="45.49181" lon="6.66009">
        <ele>2464.96</ele>
        <time>2016-08-14T07:10:47Z</time>
      </trkpt>
      <trkpt lat="45.4918" lon="6.65999">
        <ele>2462.07</ele>
        <time>2016-08-14T07:10:55Z</time>
      </trkpt>
      <trkpt lat="45.49178" lon="6.65989">
        <ele>2458.71</ele>
        <time>2016-08-14T07:11:04Z</time>
      </trkpt>
      <trkpt lat="45.49177" lon="6.65976">
        <ele>2455.34</ele>
        <time>2016-08-14T07:11:14Z</time>
      </trkpt>
      <trkpt lat="45.49174" lon="6.65966">
        <ele>2453.42</ele>
        <time>2016-08-14T07:11:23Z</time>
      </trkpt>
      <trkpt lat="45.49173" lon="6.65962">
        <ele>2451.5</ele>
        <time>2016-08-14T07:11:28Z</time>
      </trkpt>
      <trkpt lat="45.4917" lon="6.65959">
        <ele>2450.06</ele>
        <time>2016-08-14T07:11:32Z</time>
      </trkpt>
      <trkpt lat="45.49171" lon="6.65957">
        <ele>2449.1</ele>
        <time>2016-08-14T07:11:33Z</time>
      </trkpt>
      <trkpt lat="45.49171" lon="6.65955">
        <ele>2449.1</ele>
        <time>2016-08-14T07:11:34Z</time>
      </trkpt>
      <trkpt lat="45.49172" lon="6.65954">
        <ele>2448.62</ele>
        <time>2016-08-14T07:11:35Z</time>
      </trkpt>
      <trkpt lat="45.49173" lon="6.65953">
        <ele>2448.62</ele>
        <time>2016-08-14T07:11:36Z</time>
      </trkpt>
      <trkpt lat="45.49176" lon="6.65949">
        <ele>2447.65</ele>
        <time>2016-08-14T07:11:41Z</time>
      </trkpt>
      <trkpt lat="45.49175" lon="6.65948">
        <ele>2447.65</ele>
        <time>2016-08-14T07:11:42Z</time>
      </trkpt>
      <trkpt lat="45.49175" lon="6.65947">
        <ele>2446.69</ele>
        <time>2016-08-14T07:11:43Z</time>
      </trkpt>
      <trkpt lat="45.49174" lon="6.65946">
        <ele>2446.69</ele>
        <time>2016-08-14T07:11:44Z</time>
      </trkpt>
      <trkpt lat="45.49173" lon="6.65944">
        <ele>2445.73</ele>
        <time>2016-08-14T07:11:47Z</time>
      </trkpt>
      <trkpt lat="45.49176" lon="6.6594">
        <ele>2444.77</ele>
        <time>2016-08-14T07:11:50Z</time>
      </trkpt>
      <trkpt lat="45.49176" lon="6.65938">
        <ele>2444.29</ele>
        <time>2016-08-14T07:11:52Z</time>
      </trkpt>
      <trkpt lat="45.49175" lon="6.65936">
        <ele>2443.81</ele>
        <time>2016-08-14T07:11:53Z</time>
      </trkpt>
      <trkpt lat="45.49174" lon="6.65935">
        <ele>2443.81</ele>
        <time>2016-08-14T07:11:54Z</time>
      </trkpt>
      <trkpt lat="45.49171" lon="6.65934">
        <ele>2442.37</ele>
        <time>2016-08-14T07:11:57Z</time>
      </trkpt>
      <trkpt lat="45.49176" lon="6.65929">
        <ele>2441.41</ele>
        <time>2016-08-14T07:12:01Z</time>
      </trkpt>
      <trkpt lat="45.49178" lon="6.65925">
        <ele>2440.44</ele>
        <time>2016-08-14T07:12:05Z</time>
      </trkpt>
      <trkpt lat="45.4917" lon="6.65918">
        <ele>2438.04</ele>
        <time>2016-08-14T07:12:11Z</time>
      </trkpt>
      <trkpt lat="45.49168" lon="6.65917">
        <ele>2437.08</ele>
        <time>2016-08-14T07:12:13Z</time>
      </trkpt>
      <trkpt lat="45.49169" lon="6.65915">
        <ele>2436.12</ele>
        <time>2016-08-14T07:12:15Z</time>
      </trkpt>
      <trkpt lat="45.49178" lon="6.65903">
        <ele>2433.23</ele>
        <time>2016-08-14T07:12:24Z</time>
      </trkpt>
      <trkpt lat="45.49181" lon="6.65894">
        <ele>2431.79</ele>
        <time>2016-08-14T07:12:28Z</time>
      </trkpt>
      <trkpt lat="45.49181" lon="6.65891">
        <ele>2431.79</ele>
        <time>2016-08-14T07:12:29Z</time>
      </trkpt>
      <trkpt lat="45.49181" lon="6.65889">
        <ele>2431.79</ele>
        <time>2016-08-14T07:12:30Z</time>
      </trkpt>
      <trkpt lat="45.4918" lon="6.65884">
        <ele>2433.23</ele>
        <time>2016-08-14T07:12:33Z</time>
      </trkpt>
      <trkpt lat="45.49179" lon="6.65882">
        <ele>2433.23</ele>
        <time>2016-08-14T07:12:34Z</time>
      </trkpt>
      <trkpt lat="45.49179" lon="6.65881">
        <ele>2433.23</ele>
        <time>2016-08-14T07:12:35Z</time>
      </trkpt>
      <trkpt lat="45.49178" lon="6.65879">
        <ele>2433.23</ele>
        <time>2016-08-14T07:12:36Z</time>
      </trkpt>
      <trkpt lat="45.49177" lon="6.65877">
        <ele>2433.71</ele>
        <time>2016-08-14T07:12:37Z</time>
      </trkpt>
      <trkpt lat="45.49168" lon="6.65858">
        <ele>2437.08</ele>
        <time>2016-08-14T07:12:49Z</time>
      </trkpt>
      <trkpt lat="45.49159" lon="6.65844">
        <ele>2437.56</ele>
        <time>2016-08-14T07:13:00Z</time>
      </trkpt>
      <trkpt lat="45.49158" lon="6.65839">
        <ele>2437.56</ele>
        <time>2016-08-14T07:13:03Z</time>
      </trkpt>
      <trkpt lat="45.49158" lon="6.65837">
        <ele>2437.56</ele>
        <time>2016-08-14T07:13:04Z</time>
      </trkpt>
      <trkpt lat="45.49157" lon="6.65835">
        <ele>2437.56</ele>
        <time>2016-08-14T07:13:05Z</time>
      </trkpt>
      <trkpt lat="45.49156" lon="6.65833">
        <ele>2438.04</ele>
        <time>2016-08-14T07:13:06Z</time>
      </trkpt>
      <trkpt lat="45.49156" lon="6.65831">
        <ele>2438.04</ele>
        <time>2016-08-14T07:13:07Z</time>
      </trkpt>
      <trkpt lat="45.49155" lon="6.65829">
        <ele>2438.04</ele>
        <time>2016-08-14T07:13:08Z</time>
      </trkpt>
      <trkpt lat="45.49152" lon="6.65818">
        <ele>2438.52</ele>
        <time>2016-08-14T07:13:13Z</time>
      </trkpt>
      <trkpt lat="45.49152" lon="6.65817">
        <ele>2439</ele>
        <time>2016-08-14T07:13:14Z</time>
      </trkpt>
      <trkpt lat="45.49152" lon="6.65815">
        <ele>2439</ele>
        <time>2016-08-14T07:13:15Z</time>
      </trkpt>
      <trkpt lat="45.49152" lon="6.65813">
        <ele>2439</ele>
        <time>2016-08-14T07:13:16Z</time>
      </trkpt>
      <trkpt lat="45.49152" lon="6.6581">
        <ele>2436.6</ele>
        <time>2016-08-14T07:13:20Z</time>
      </trkpt>
      <trkpt lat="45.49153" lon="6.65808">
        <ele>2436.12</ele>
        <time>2016-08-14T07:13:21Z</time>
      </trkpt>
      <trkpt lat="45.49153" lon="6.65806">
        <ele>2435.64</ele>
        <time>2016-08-14T07:13:22Z</time>
      </trkpt>
      <trkpt lat="45.49153" lon="6.65803">
        <ele>2435.64</ele>
        <time>2016-08-14T07:13:24Z</time>
      </trkpt>
      <trkpt lat="45.49151" lon="6.65798">
        <ele>2435.64</ele>
        <time>2016-08-14T07:13:28Z</time>
      </trkpt>
      <trkpt lat="45.4915" lon="6.65795">
        <ele>2437.08</ele>
        <time>2016-08-14T07:13:30Z</time>
      </trkpt>
      <trkpt lat="45.49149" lon="6.65793">
        <ele>2437.08</ele>
        <time>2016-08-14T07:13:31Z</time>
      </trkpt>
      <trkpt lat="45.49148" lon="6.65792">
        <ele>2437.56</ele>
        <time>2016-08-14T07:13:32Z</time>
      </trkpt>
      <trkpt lat="45.49137" lon="6.65788">
        <ele>2440.44</ele>
        <time>2016-08-14T07:13:43Z</time>
      </trkpt>
      <trkpt lat="45.49136" lon="6.65788">
        <ele>2440.44</ele>
        <time>2016-08-14T07:13:44Z</time>
      </trkpt>
      <trkpt lat="45.49136" lon="6.65791">
        <ele>2441.41</ele>
        <time>2016-08-14T07:13:46Z</time>
      </trkpt>
      <trkpt lat="45.49137" lon="6.65798">
        <ele>2443.33</ele>
        <time>2016-08-14T07:13:54Z</time>
      </trkpt>
      <trkpt lat="45.49136" lon="6.65799">
        <ele>2443.81</ele>
        <time>2016-08-14T07:13:56Z</time>
      </trkpt>
      <trkpt lat="45.49135" lon="6.658">
        <ele>2444.77</ele>
        <time>2016-08-14T07:13:57Z</time>
      </trkpt>
      <trkpt lat="45.49135" lon="6.658">
        <ele>2444.77</ele>
        <time>2016-08-14T07:13:58Z</time>
      </trkpt>
      <trkpt lat="45.49131" lon="6.658">
        <ele>2446.69</ele>
        <time>2016-08-14T07:14:06Z</time>
      </trkpt>
      <trkpt lat="45.49134" lon="6.65803">
        <ele>2448.13</ele>
        <time>2016-08-14T07:14:20Z</time>
      </trkpt>
      <trkpt lat="45.49136" lon="6.65802">
        <ele>2448.13</ele>
        <time>2016-08-14T07:14:33Z</time>
      </trkpt>
      <trkpt lat="45.49128" lon="6.65785">
        <ele>2449.58</ele>
        <time>2016-08-14T07:14:45Z</time>
      </trkpt>
      <trkpt lat="45.49126" lon="6.65774">
        <ele>2449.58</ele>
        <time>2016-08-14T07:14:50Z</time>
      </trkpt>
      <trkpt lat="45.49125" lon="6.6577">
        <ele>2449.58</ele>
        <time>2016-08-14T07:14:52Z</time>
      </trkpt>
      <trkpt lat="45.49124" lon="6.65768">
        <ele>2449.58</ele>
        <time>2016-08-14T07:14:53Z</time>
      </trkpt>
      <trkpt lat="45.49123" lon="6.65766">
        <ele>2448.13</ele>
        <time>2016-08-14T07:14:54Z</time>
      </trkpt>
      <trkpt lat="45.49124" lon="6.65763">
        <ele>2448.13</ele>
        <time>2016-08-14T07:14:55Z</time>
      </trkpt>
      <trkpt lat="45.49124" lon="6.65761">
        <ele>2448.13</ele>
        <time>2016-08-14T07:14:56Z</time>
      </trkpt>
      <trkpt lat="45.49124" lon="6.65758">
        <ele>2448.13</ele>
        <time>2016-08-14T07:14:57Z</time>
      </trkpt>
      <trkpt lat="45.49124" lon="6.65756">
        <ele>2448.13</ele>
        <time>2016-08-14T07:14:58Z</time>
      </trkpt>
      <trkpt lat="45.49127" lon="6.65718">
        <ele>2446.69</ele>
        <time>2016-08-14T07:15:10Z</time>
      </trkpt>
      <trkpt lat="45.49124" lon="6.65696">
        <ele>2443.81</ele>
        <time>2016-08-14T07:15:19Z</time>
      </trkpt>
      <trkpt lat="45.4912" lon="6.65661">
        <ele>2440.92</ele>
        <time>2016-08-14T07:15:31Z</time>
      </trkpt>
      <trkpt lat="45.49115" lon="6.65634">
        <ele>2437.56</ele>
        <time>2016-08-14T07:15:42Z</time>
      </trkpt>
      <trkpt lat="45.49113" lon="6.65622">
        <ele>2434.68</ele>
        <time>2016-08-14T07:15:48Z</time>
      </trkpt>
      <trkpt lat="45.49116" lon="6.65596">
        <ele>2430.83</ele>
        <time>2016-08-14T07:15:57Z</time>
      </trkpt>
      <trkpt lat="45.49116" lon="6.65577">
        <ele>2427.47</ele>
        <time>2016-08-14T07:16:06Z</time>
      </trkpt>
      <trkpt lat="45.49117" lon="6.65574">
        <ele>2426.99</ele>
        <time>2016-08-14T07:16:08Z</time>
      </trkpt>
      <trkpt lat="45.49116" lon="6.65573">
        <ele>2426.99</ele>
        <time>2016-08-14T07:16:09Z</time>
      </trkpt>
      <trkpt lat="45.49116" lon="6.65571">
        <ele>2426.02</ele>
        <time>2016-08-14T07:16:10Z</time>
      </trkpt>
      <trkpt lat="45.49116" lon="6.6557">
        <ele>2425.54</ele>
        <time>2016-08-14T07:16:11Z</time>
      </trkpt>
      <trkpt lat="45.49117" lon="6.65568">
        <ele>2425.54</ele>
        <time>2016-08-14T07:16:12Z</time>
      </trkpt>
      <trkpt lat="45.49117" lon="6.65566">
        <ele>2424.58</ele>
        <time>2016-08-14T07:16:13Z</time>
      </trkpt>
      <trkpt lat="45.49117" lon="6.65564">
        <ele>2424.1</ele>
        <time>2016-08-14T07:16:14Z</time>
      </trkpt>
      <trkpt lat="45.4912" lon="6.65537">
        <ele>2420.74</ele>
        <time>2016-08-14T07:16:24Z</time>
      </trkpt>
      <trkpt lat="45.49116" lon="6.655">
        <ele>2418.33</ele>
        <time>2016-08-14T07:16:36Z</time>
      </trkpt>
      <trkpt lat="45.49116" lon="6.65485">
        <ele>2418.33</ele>
        <time>2016-08-14T07:16:41Z</time>
      </trkpt>
      <trkpt lat="45.49117" lon="6.65482">
        <ele>2418.33</ele>
        <time>2016-08-14T07:16:42Z</time>
      </trkpt>
      <trkpt lat="45.49121" lon="6.6544">
        <ele>2417.85</ele>
        <time>2016-08-14T07:16:54Z</time>
      </trkpt>
      <trkpt lat="45.49127" lon="6.65417">
        <ele>2417.85</ele>
        <time>2016-08-14T07:17:04Z</time>
      </trkpt>
      <trkpt lat="45.49126" lon="6.65409">
        <ele>2416.41</ele>
        <time>2016-08-14T07:17:09Z</time>
      </trkpt>
      <trkpt lat="45.49127" lon="6.65406">
        <ele>2415.45</ele>
        <time>2016-08-14T07:17:10Z</time>
      </trkpt>
      <trkpt lat="45.49127" lon="6.65402">
        <ele>2414.97</ele>
        <time>2016-08-14T07:17:11Z</time>
      </trkpt>
      <trkpt lat="45.49131" lon="6.65372">
        <ele>2416.41</ele>
        <time>2016-08-14T07:17:21Z</time>
      </trkpt>
      <trkpt lat="45.49132" lon="6.65366">
        <ele>2417.85</ele>
        <time>2016-08-14T07:17:24Z</time>
      </trkpt>
      <trkpt lat="45.49134" lon="6.65362">
        <ele>2418.81</ele>
        <time>2016-08-14T07:17:26Z</time>
      </trkpt>
      <trkpt lat="45.49136" lon="6.65361">
        <ele>2418.81</ele>
        <time>2016-08-14T07:17:27Z</time>
      </trkpt>
      <trkpt lat="45.49137" lon="6.65359">
        <ele>2418.81</ele>
        <time>2016-08-14T07:17:28Z</time>
      </trkpt>
      <trkpt lat="45.49138" lon="6.65357">
        <ele>2418.81</ele>
        <time>2016-08-14T07:17:29Z</time>
      </trkpt>
      <trkpt lat="45.49139" lon="6.65355">
        <ele>2418.81</ele>
        <time>2016-08-14T07:17:30Z</time>
      </trkpt>
      <trkpt lat="45.4914" lon="6.65353">
        <ele>2419.3</ele>
        <time>2016-08-14T07:17:31Z</time>
      </trkpt>
      <trkpt lat="45.49141" lon="6.65352">
        <ele>2419.78</ele>
        <time>2016-08-14T07:17:32Z</time>
      </trkpt>
      <trkpt lat="45.49141" lon="6.65349">
        <ele>2419.78</ele>
        <time>2016-08-14T07:17:33Z</time>
      </trkpt>
      <trkpt lat="45.49142" lon="6.65347">
        <ele>2420.26</ele>
        <time>2016-08-14T07:17:34Z</time>
      </trkpt>
      <trkpt lat="45.49151" lon="6.65319">
        <ele>2420.74</ele>
        <time>2016-08-14T07:17:45Z</time>
      </trkpt>
      <trkpt lat="45.49155" lon="6.65298">
        <ele>2418.33</ele>
        <time>2016-08-14T07:17:52Z</time>
      </trkpt>
      <trkpt lat="45.4916" lon="6.65273">
        <ele>2421.7</ele>
        <time>2016-08-14T07:18:05Z</time>
      </trkpt>
      <trkpt lat="45.49165" lon="6.65255">
        <ele>2425.06</ele>
        <time>2016-08-14T07:18:20Z</time>
      </trkpt>
      <trkpt lat="45.49168" lon="6.65244">
        <ele>2426.02</ele>
        <time>2016-08-14T07:18:33Z</time>
      </trkpt>
      <trkpt lat="45.49168" lon="6.65242">
        <ele>2426.02</ele>
        <time>2016-08-14T07:18:34Z</time>
      </trkpt>
      <trkpt lat="45.49168" lon="6.65239">
        <ele>2426.02</ele>
        <time>2016-08-14T07:18:36Z</time>
      </trkpt>
      <trkpt lat="45.49169" lon="6.65238">
        <ele>2426.02</ele>
        <time>2016-08-14T07:18:37Z</time>
      </trkpt>
      <trkpt lat="45.49171" lon="6.6522">
        <ele>2428.91</ele>
        <time>2016-08-14T07:18:52Z</time>
      </trkpt>
      <trkpt lat="45.49171" lon="6.65205">
        <ele>2430.35</ele>
        <time>2016-08-14T07:19:04Z</time>
      </trkpt>
      <trkpt lat="45.4917" lon="6.65192">
        <ele>2431.31</ele>
        <time>2016-08-14T07:19:32Z</time>
      </trkpt>
      <trkpt lat="45.4917" lon="6.65191">
        <ele>2431.31</ele>
        <time>2016-08-14T07:19:33Z</time>
      </trkpt>
      <trkpt lat="45.4917" lon="6.65189">
        <ele>2431.79</ele>
        <time>2016-08-14T07:19:34Z</time>
      </trkpt>
      <trkpt lat="45.4917" lon="6.65188">
        <ele>2431.79</ele>
        <time>2016-08-14T07:19:35Z</time>
      </trkpt>
      <trkpt lat="45.49169" lon="6.65197">
        <ele>2432.27</ele>
        <time>2016-08-14T07:19:47Z</time>
      </trkpt>
      <trkpt lat="45.49169" lon="6.65194">
        <ele>2432.27</ele>
        <time>2016-08-14T07:19:49Z</time>
      </trkpt>
      <trkpt lat="45.49168" lon="6.65192">
        <ele>2432.75</ele>
        <time>2016-08-14T07:19:50Z</time>
      </trkpt>
      <trkpt lat="45.49165" lon="6.65168">
        <ele>2434.68</ele>
        <time>2016-08-14T07:20:02Z</time>
      </trkpt>
      <trkpt lat="45.49163" lon="6.65147">
        <ele>2433.71</ele>
        <time>2016-08-14T07:20:11Z</time>
      </trkpt>
      <trkpt lat="45.49159" lon="6.65133">
        <ele>2430.83</ele>
        <time>2016-08-14T07:20:19Z</time>
      </trkpt>
      <trkpt lat="45.49157" lon="6.65126">
        <ele>2427.95</ele>
        <time>2016-08-14T07:20:24Z</time>
      </trkpt>
      <trkpt lat="45.49157" lon="6.65124">
        <ele>2427.95</ele>
        <time>2016-08-14T07:20:25Z</time>
      </trkpt>
      <trkpt lat="45.49155" lon="6.65117">
        <ele>2425.54</ele>
        <time>2016-08-14T07:20:30Z</time>
      </trkpt>
      <trkpt lat="45.49155" lon="6.65115">
        <ele>2425.54</ele>
        <time>2016-08-14T07:20:31Z</time>
      </trkpt>
      <trkpt lat="45.49156" lon="6.65099">
        <ele>2428.91</ele>
        <time>2016-08-14T07:20:43Z</time>
      </trkpt>
      <trkpt lat="45.49158" lon="6.65092">
        <ele>2432.27</ele>
        <time>2016-08-14T07:20:51Z</time>
      </trkpt>
      <trkpt lat="45.49163" lon="6.65084">
        <ele>2435.64</ele>
        <time>2016-08-14T07:21:01Z</time>
      </trkpt>
      <trkpt lat="45.49166" lon="6.65061">
        <ele>2437.56</ele>
        <time>2016-08-14T07:21:14Z</time>
      </trkpt>
      <trkpt lat="45.49164" lon="6.65035">
        <ele>2436.12</ele>
        <time>2016-08-14T07:21:24Z</time>
      </trkpt>
      <trkpt lat="45.49166" lon="6.65007">
        <ele>2437.08</ele>
        <time>2016-08-14T07:21:33Z</time>
      </trkpt>
      <trkpt lat="45.4917" lon="6.64998">
        <ele>2439.96</ele>
        <time>2016-08-14T07:21:43Z</time>
      </trkpt>
      <trkpt lat="45.49173" lon="6.64989">
        <ele>2443.33</ele>
        <time>2016-08-14T07:21:52Z</time>
      </trkpt>
      <trkpt lat="45.49178" lon="6.64979">
        <ele>2446.21</ele>
        <time>2016-08-14T07:22:02Z</time>
      </trkpt>
      <trkpt lat="45.49183" lon="6.64961">
        <ele>2449.1</ele>
        <time>2016-08-14T07:22:14Z</time>
      </trkpt>
      <trkpt lat="45.49183" lon="6.64959">
        <ele>2449.1</ele>
        <time>2016-08-14T07:22:15Z</time>
      </trkpt>
      <trkpt lat="45.49187" lon="6.64931">
        <ele>2449.1</ele>
        <time>2016-08-14T07:22:28Z</time>
      </trkpt>
      <trkpt lat="45.49187" lon="6.64915">
        <ele>2445.25</ele>
        <time>2016-08-14T07:22:34Z</time>
      </trkpt>
      <trkpt lat="45.49191" lon="6.64903">
        <ele>2446.69</ele>
        <time>2016-08-14T07:22:43Z</time>
      </trkpt>
      <trkpt lat="45.49194" lon="6.64891">
        <ele>2450.06</ele>
        <time>2016-08-14T07:22:55Z</time>
      </trkpt>
      <trkpt lat="45.49199" lon="6.64875">
        <ele>2452.94</ele>
        <time>2016-08-14T07:23:08Z</time>
      </trkpt>
      <trkpt lat="45.492" lon="6.6487">
        <ele>2452.94</ele>
        <time>2016-08-14T07:23:12Z</time>
      </trkpt>
      <trkpt lat="45.492" lon="6.64868">
        <ele>2452.94</ele>
        <time>2016-08-14T07:23:13Z</time>
      </trkpt>
      <trkpt lat="45.492" lon="6.64867">
        <ele>2451.5</ele>
        <time>2016-08-14T07:23:14Z</time>
      </trkpt>
      <trkpt lat="45.492" lon="6.64864">
        <ele>2451.5</ele>
        <time>2016-08-14T07:23:15Z</time>
      </trkpt>
      <trkpt lat="45.49201" lon="6.64862">
        <ele>2451.02</ele>
        <time>2016-08-14T07:23:16Z</time>
      </trkpt>
      <trkpt lat="45.49202" lon="6.64844">
        <ele>2448.13</ele>
        <time>2016-08-14T07:23:24Z</time>
      </trkpt>
      <trkpt lat="45.49205" lon="6.64816">
        <ele>2450.06</ele>
        <time>2016-08-14T07:23:37Z</time>
      </trkpt>
      <trkpt lat="45.4921" lon="6.64808">
        <ele>2452.94</ele>
        <time>2016-08-14T07:23:46Z</time>
      </trkpt>
      <trkpt lat="45.49214" lon="6.64793">
        <ele>2456.31</ele>
        <time>2016-08-14T07:24:00Z</time>
      </trkpt>
      <trkpt lat="45.49215" lon="6.64792">
        <ele>2455.82</ele>
        <time>2016-08-14T07:24:01Z</time>
      </trkpt>
      <trkpt lat="45.49222" lon="6.64784">
        <ele>2454.38</ele>
        <time>2016-08-14T07:24:09Z</time>
      </trkpt>
      <trkpt lat="45.49234" lon="6.64771">
        <ele>2453.42</ele>
        <time>2016-08-14T07:24:20Z</time>
      </trkpt>
      <trkpt lat="45.49235" lon="6.64769">
        <ele>2452.46</ele>
        <time>2016-08-14T07:24:21Z</time>
      </trkpt>
      <trkpt lat="45.49242" lon="6.64754">
        <ele>2449.58</ele>
        <time>2016-08-14T07:24:33Z</time>
      </trkpt>
      <trkpt lat="45.49248" lon="6.64745">
        <ele>2449.1</ele>
        <time>2016-08-14T07:24:51Z</time>
      </trkpt>
      <trkpt lat="45.4925" lon="6.64742">
        <ele>2449.1</ele>
        <time>2016-08-14T07:25:00Z</time>
      </trkpt>
      <trkpt lat="45.49251" lon="6.6474">
        <ele>2449.1</ele>
        <time>2016-08-14T07:25:01Z</time>
      </trkpt>
      <trkpt lat="45.49251" lon="6.64739">
        <ele>2449.1</ele>
        <time>2016-08-14T07:25:02Z</time>
      </trkpt>
      <trkpt lat="45.49252" lon="6.64737">
        <ele>2449.1</ele>
        <time>2016-08-14T07:25:03Z</time>
      </trkpt>
      <trkpt lat="45.49252" lon="6.64736">
        <ele>2449.1</ele>
        <time>2016-08-14T07:25:04Z</time>
      </trkpt>
      <trkpt lat="45.49258" lon="6.64719">
        <ele>2448.13</ele>
        <time>2016-08-14T07:25:17Z</time>
      </trkpt>
      <trkpt lat="45.49259" lon="6.6472">
        <ele>2448.13</ele>
        <time>2016-08-14T07:25:41Z</time>
      </trkpt>
      <trkpt lat="45.49262" lon="6.6472">
        <ele>2448.62</ele>
        <time>2016-08-14T07:26:10Z</time>
      </trkpt>
      <trkpt lat="45.49262" lon="6.64723">
        <ele>2448.62</ele>
        <time>2016-08-14T07:26:41Z</time>
      </trkpt>
      <trkpt lat="45.49265" lon="6.64713">
        <ele>2445.25</ele>
        <time>2016-08-14T07:26:59Z</time>
      </trkpt>
      <trkpt lat="45.49266" lon="6.64717">
        <ele>2443.33</ele>
        <time>2016-08-14T07:27:07Z</time>
      </trkpt>
      <trkpt lat="45.49274" lon="6.64714">
        <ele>2439.48</ele>
        <time>2016-08-14T07:27:18Z</time>
      </trkpt>
      <trkpt lat="45.49279" lon="6.64711">
        <ele>2438.04</ele>
        <time>2016-08-14T07:27:24Z</time>
      </trkpt>
      <trkpt lat="45.49284" lon="6.6471">
        <ele>2435.16</ele>
        <time>2016-08-14T07:27:35Z</time>
      </trkpt>
      <trkpt lat="45.49289" lon="6.64707">
        <ele>2431.79</ele>
        <time>2016-08-14T07:27:48Z</time>
      </trkpt>
      <trkpt lat="45.4929" lon="6.64706">
        <ele>2431.79</ele>
        <time>2016-08-14T07:27:49Z</time>
      </trkpt>
      <trkpt lat="45.49296" lon="6.64705">
        <ele>2428.43</ele>
        <time>2016-08-14T07:27:58Z</time>
      </trkpt>
      <trkpt lat="45.49298" lon="6.64706">
        <ele>2428.43</ele>
        <time>2016-08-14T07:28:15Z</time>
      </trkpt>
      <trkpt lat="45.49302" lon="6.64705">
        <ele>2425.54</ele>
        <time>2016-08-14T07:28:25Z</time>
      </trkpt>
      <trkpt lat="45.49307" lon="6.64703">
        <ele>2422.18</ele>
        <time>2016-08-14T07:28:34Z</time>
      </trkpt>
      <trkpt lat="45.4931" lon="6.64704">
        <ele>2421.22</ele>
        <time>2016-08-14T07:28:37Z</time>
      </trkpt>
      <trkpt lat="45.49316" lon="6.64702">
        <ele>2420.26</ele>
        <time>2016-08-14T07:28:44Z</time>
      </trkpt>
      <trkpt lat="45.4933" lon="6.64688">
        <ele>2418.81</ele>
        <time>2016-08-14T07:28:59Z</time>
      </trkpt>
      <trkpt lat="45.49336" lon="6.64685">
        <ele>2418.33</ele>
        <time>2016-08-14T07:29:05Z</time>
      </trkpt>
      <trkpt lat="45.49339" lon="6.64688">
        <ele>2417.37</ele>
        <time>2016-08-14T07:29:09Z</time>
      </trkpt>
      <trkpt lat="45.49344" lon="6.64697">
        <ele>2414.49</ele>
        <time>2016-08-14T07:29:16Z</time>
      </trkpt>
      <trkpt lat="45.49349" lon="6.64705">
        <ele>2412.09</ele>
        <time>2016-08-14T07:29:22Z</time>
      </trkpt>
      <trkpt lat="45.4935" lon="6.6471">
        <ele>2410.64</ele>
        <time>2016-08-14T07:29:25Z</time>
      </trkpt>
      <trkpt lat="45.4935" lon="6.64721">
        <ele>2407.28</ele>
        <time>2016-08-14T07:29:31Z</time>
      </trkpt>
      <trkpt lat="45.4935" lon="6.64722">
        <ele>2406.8</ele>
        <time>2016-08-14T07:29:32Z</time>
      </trkpt>
      <trkpt lat="45.49347" lon="6.64723">
        <ele>2405.84</ele>
        <time>2016-08-14T07:29:34Z</time>
      </trkpt>
      <trkpt lat="45.4934" lon="6.6473">
        <ele>2402.47</ele>
        <time>2016-08-14T07:29:42Z</time>
      </trkpt>
      <trkpt lat="45.49337" lon="6.64739">
        <ele>2400.55</ele>
        <time>2016-08-14T07:29:48Z</time>
      </trkpt>
      <trkpt lat="45.49334" lon="6.6475">
        <ele>2396.7</ele>
        <time>2016-08-14T07:29:57Z</time>
      </trkpt>
      <trkpt lat="45.49334" lon="6.64759">
        <ele>2393.82</ele>
        <time>2016-08-14T07:30:05Z</time>
      </trkpt>
      <trkpt lat="45.49333" lon="6.64766">
        <ele>2391.9</ele>
        <time>2016-08-14T07:30:09Z</time>
      </trkpt>
      <trkpt lat="45.49333" lon="6.64767">
        <ele>2391.42</ele>
        <time>2016-08-14T07:30:10Z</time>
      </trkpt>
      <trkpt lat="45.49332" lon="6.64777">
        <ele>2389.49</ele>
        <time>2016-08-14T07:30:17Z</time>
      </trkpt>
      <trkpt lat="45.49336" lon="6.64794">
        <ele>2385.65</ele>
        <time>2016-08-14T07:30:27Z</time>
      </trkpt>
      <trkpt lat="45.49337" lon="6.64811">
        <ele>2382.76</ele>
        <time>2016-08-14T07:30:36Z</time>
      </trkpt>
      <trkpt lat="45.49332" lon="6.64827">
        <ele>2380.36</ele>
        <time>2016-08-14T07:30:44Z</time>
      </trkpt>
      <trkpt lat="45.4933" lon="6.64835">
        <ele>2378.44</ele>
        <time>2016-08-14T07:30:48Z</time>
      </trkpt>
      <trkpt lat="45.49329" lon="6.64843">
        <ele>2377</ele>
        <time>2016-08-14T07:30:51Z</time>
      </trkpt>
      <trkpt lat="45.4933" lon="6.64853">
        <ele>2375.07</ele>
        <time>2016-08-14T07:30:56Z</time>
      </trkpt>
      <trkpt lat="45.4933" lon="6.64861">
        <ele>2373.63</ele>
        <time>2016-08-14T07:30:59Z</time>
      </trkpt>
      <trkpt lat="45.49329" lon="6.64868">
        <ele>2372.19</ele>
        <time>2016-08-14T07:31:03Z</time>
      </trkpt>
      <trkpt lat="45.4933" lon="6.64882">
        <ele>2369.79</ele>
        <time>2016-08-14T07:31:09Z</time>
      </trkpt>
      <trkpt lat="45.49328" lon="6.6489">
        <ele>2368.35</ele>
        <time>2016-08-14T07:31:23Z</time>
      </trkpt>
      <trkpt lat="45.49328" lon="6.64891">
        <ele>2368.35</ele>
        <time>2016-08-14T07:31:25Z</time>
      </trkpt>
      <trkpt lat="45.49326" lon="6.64901">
        <ele>2366.9</ele>
        <time>2016-08-14T07:31:30Z</time>
      </trkpt>
      <trkpt lat="45.49326" lon="6.64909">
        <ele>2364.02</ele>
        <time>2016-08-14T07:31:37Z</time>
      </trkpt>
      <trkpt lat="45.49316" lon="6.64929">
        <ele>2361.14</ele>
        <time>2016-08-14T07:31:50Z</time>
      </trkpt>
      <trkpt lat="45.49311" lon="6.64938">
        <ele>2359.69</ele>
        <time>2016-08-14T07:31:56Z</time>
      </trkpt>
      <trkpt lat="45.49311" lon="6.64943">
        <ele>2358.25</ele>
        <time>2016-08-14T07:31:59Z</time>
      </trkpt>
      <trkpt lat="45.4931" lon="6.6496">
        <ele>2354.89</ele>
        <time>2016-08-14T07:32:04Z</time>
      </trkpt>
      <trkpt lat="45.4931" lon="6.64964">
        <ele>2354.89</ele>
        <time>2016-08-14T07:32:05Z</time>
      </trkpt>
      <trkpt lat="45.49317" lon="6.64986">
        <ele>2352</ele>
        <time>2016-08-14T07:32:13Z</time>
      </trkpt>
      <trkpt lat="45.49318" lon="6.64988">
        <ele>2351.52</ele>
        <time>2016-08-14T07:32:14Z</time>
      </trkpt>
      <trkpt lat="45.49319" lon="6.6499">
        <ele>2351.52</ele>
        <time>2016-08-14T07:32:15Z</time>
      </trkpt>
      <trkpt lat="45.49319" lon="6.64992">
        <ele>2351.04</ele>
        <time>2016-08-14T07:32:16Z</time>
      </trkpt>
      <trkpt lat="45.4932" lon="6.64994">
        <ele>2350.56</ele>
        <time>2016-08-14T07:32:17Z</time>
      </trkpt>
      <trkpt lat="45.49321" lon="6.64996">
        <ele>2350.56</ele>
        <time>2016-08-14T07:32:18Z</time>
      </trkpt>
      <trkpt lat="45.49322" lon="6.64999">
        <ele>2350.56</ele>
        <time>2016-08-14T07:32:19Z</time>
      </trkpt>
      <trkpt lat="45.49322" lon="6.65002">
        <ele>2349.12</ele>
        <time>2016-08-14T07:32:21Z</time>
      </trkpt>
      <trkpt lat="45.49323" lon="6.65012">
        <ele>2349.12</ele>
        <time>2016-08-14T07:32:25Z</time>
      </trkpt>
      <trkpt lat="45.49323" lon="6.65015">
        <ele>2348.16</ele>
        <time>2016-08-14T07:32:26Z</time>
      </trkpt>
      <trkpt lat="45.49323" lon="6.65018">
        <ele>2347.68</ele>
        <time>2016-08-14T07:32:27Z</time>
      </trkpt>
      <trkpt lat="45.49324" lon="6.65021">
        <ele>2347.68</ele>
        <time>2016-08-14T07:32:28Z</time>
      </trkpt>
      <trkpt lat="45.49324" lon="6.65024">
        <ele>2347.2</ele>
        <time>2016-08-14T07:32:29Z</time>
      </trkpt>
      <trkpt lat="45.49324" lon="6.65027">
        <ele>2346.72</ele>
        <time>2016-08-14T07:32:30Z</time>
      </trkpt>
      <trkpt lat="45.49325" lon="6.6503">
        <ele>2346.72</ele>
        <time>2016-08-14T07:32:31Z</time>
      </trkpt>
      <trkpt lat="45.49325" lon="6.65032">
        <ele>2345.75</ele>
        <time>2016-08-14T07:32:32Z</time>
      </trkpt>
      <trkpt lat="45.49328" lon="6.65056">
        <ele>2341.91</ele>
        <time>2016-08-14T07:32:41Z</time>
      </trkpt>
      <trkpt lat="45.49328" lon="6.65059">
        <ele>2341.91</ele>
        <time>2016-08-14T07:32:42Z</time>
      </trkpt>
      <trkpt lat="45.49328" lon="6.65061">
        <ele>2341.91</ele>
        <time>2016-08-14T07:32:43Z</time>
      </trkpt>
      <trkpt lat="45.49328" lon="6.65063">
        <ele>2340.95</ele>
        <time>2016-08-14T07:32:44Z</time>
      </trkpt>
      <trkpt lat="45.49328" lon="6.65064">
        <ele>2340.47</ele>
        <time>2016-08-14T07:32:45Z</time>
      </trkpt>
      <trkpt lat="45.49329" lon="6.65066">
        <ele>2339.99</ele>
        <time>2016-08-14T07:32:46Z</time>
      </trkpt>
      <trkpt lat="45.4933" lon="6.65071">
        <ele>2339.02</ele>
        <time>2016-08-14T07:32:49Z</time>
      </trkpt>
      <trkpt lat="45.49333" lon="6.65074">
        <ele>2337.58</ele>
        <time>2016-08-14T07:32:51Z</time>
      </trkpt>
      <trkpt lat="45.49333" lon="6.65076">
        <ele>2337.1</ele>
        <time>2016-08-14T07:32:52Z</time>
      </trkpt>
      <trkpt lat="45.49333" lon="6.65079">
        <ele>2336.62</ele>
        <time>2016-08-14T07:32:53Z</time>
      </trkpt>
      <trkpt lat="45.49332" lon="6.65081">
        <ele>2336.14</ele>
        <time>2016-08-14T07:32:54Z</time>
      </trkpt>
      <trkpt lat="45.49331" lon="6.65083">
        <ele>2336.14</ele>
        <time>2016-08-14T07:32:55Z</time>
      </trkpt>
      <trkpt lat="45.49332" lon="6.65086">
        <ele>2335.66</ele>
        <time>2016-08-14T07:32:56Z</time>
      </trkpt>
      <trkpt lat="45.49333" lon="6.65087">
        <ele>2334.7</ele>
        <time>2016-08-14T07:32:57Z</time>
      </trkpt>
      <trkpt lat="45.49333" lon="6.65089">
        <ele>2334.7</ele>
        <time>2016-08-14T07:32:58Z</time>
      </trkpt>
      <trkpt lat="45.49333" lon="6.65091">
        <ele>2333.74</ele>
        <time>2016-08-14T07:32:59Z</time>
      </trkpt>
      <trkpt lat="45.49333" lon="6.65093">
        <ele>2333.74</ele>
        <time>2016-08-14T07:33:00Z</time>
      </trkpt>
      <trkpt lat="45.49332" lon="6.65106">
        <ele>2330.37</ele>
        <time>2016-08-14T07:33:12Z</time>
      </trkpt>
      <trkpt lat="45.49327" lon="6.65116">
        <ele>2327.97</ele>
        <time>2016-08-14T07:33:19Z</time>
      </trkpt>
      <trkpt lat="45.49326" lon="6.65118">
        <ele>2327.49</ele>
        <time>2016-08-14T07:33:20Z</time>
      </trkpt>
      <trkpt lat="45.49326" lon="6.6512">
        <ele>2327.49</ele>
        <time>2016-08-14T07:33:21Z</time>
      </trkpt>
      <trkpt lat="45.49327" lon="6.65121">
        <ele>2327.01</ele>
        <time>2016-08-14T07:33:22Z</time>
      </trkpt>
      <trkpt lat="45.49328" lon="6.65122">
        <ele>2326.53</ele>
        <time>2016-08-14T07:33:23Z</time>
      </trkpt>
      <trkpt lat="45.49331" lon="6.65136">
        <ele>2324.61</ele>
        <time>2016-08-14T07:33:29Z</time>
      </trkpt>
      <trkpt lat="45.49331" lon="6.65138">
        <ele>2324.12</ele>
        <time>2016-08-14T07:33:30Z</time>
      </trkpt>
      <trkpt lat="45.4933" lon="6.65141">
        <ele>2323.64</ele>
        <time>2016-08-14T07:33:31Z</time>
      </trkpt>
      <trkpt lat="45.49329" lon="6.65144">
        <ele>2323.16</ele>
        <time>2016-08-14T07:33:32Z</time>
      </trkpt>
      <trkpt lat="45.4933" lon="6.65147">
        <ele>2322.68</ele>
        <time>2016-08-14T07:33:33Z</time>
      </trkpt>
      <trkpt lat="45.4933" lon="6.6515">
        <ele>2322.68</ele>
        <time>2016-08-14T07:33:34Z</time>
      </trkpt>
      <trkpt lat="45.49331" lon="6.65153">
        <ele>2321.72</ele>
        <time>2016-08-14T07:33:35Z</time>
      </trkpt>
      <trkpt lat="45.49332" lon="6.65156">
        <ele>2321.72</ele>
        <time>2016-08-14T07:33:36Z</time>
      </trkpt>
      <trkpt lat="45.49333" lon="6.65159">
        <ele>2321.72</ele>
        <time>2016-08-14T07:33:37Z</time>
      </trkpt>
      <trkpt lat="45.49333" lon="6.65161">
        <ele>2321.24</ele>
        <time>2016-08-14T07:33:38Z</time>
      </trkpt>
      <trkpt lat="45.49333" lon="6.65164">
        <ele>2321.24</ele>
        <time>2016-08-14T07:33:39Z</time>
      </trkpt>
      <trkpt lat="45.49335" lon="6.65167">
        <ele>2320.28</ele>
        <time>2016-08-14T07:33:40Z</time>
      </trkpt>
      <trkpt lat="45.49335" lon="6.65169">
        <ele>2320.28</ele>
        <time>2016-08-14T07:33:41Z</time>
      </trkpt>
      <trkpt lat="45.49336" lon="6.65171">
        <ele>2320.28</ele>
        <time>2016-08-14T07:33:42Z</time>
      </trkpt>
      <trkpt lat="45.49337" lon="6.65174">
        <ele>2319.32</ele>
        <time>2016-08-14T07:33:43Z</time>
      </trkpt>
      <trkpt lat="45.49338" lon="6.65176">
        <ele>2319.32</ele>
        <time>2016-08-14T07:33:44Z</time>
      </trkpt>
      <trkpt lat="45.49339" lon="6.65179">
        <ele>2318.36</ele>
        <time>2016-08-14T07:33:45Z</time>
      </trkpt>
      <trkpt lat="45.4934" lon="6.65181">
        <ele>2318.36</ele>
        <time>2016-08-14T07:33:46Z</time>
      </trkpt>
      <trkpt lat="45.49343" lon="6.65189">
        <ele>2316.91</ele>
        <time>2016-08-14T07:33:49Z</time>
      </trkpt>
      <trkpt lat="45.49346" lon="6.65204">
        <ele>2313.55</ele>
        <time>2016-08-14T07:33:56Z</time>
      </trkpt>
      <trkpt lat="45.49349" lon="6.65227">
        <ele>2310.19</ele>
        <time>2016-08-14T07:34:06Z</time>
      </trkpt>
      <trkpt lat="45.4935" lon="6.65232">
        <ele>2309.22</ele>
        <time>2016-08-14T07:34:08Z</time>
      </trkpt>
      <trkpt lat="45.4935" lon="6.65234">
        <ele>2308.74</ele>
        <time>2016-08-14T07:34:09Z</time>
      </trkpt>
      <trkpt lat="45.49351" lon="6.6524">
        <ele>2308.26</ele>
        <time>2016-08-14T07:34:12Z</time>
      </trkpt>
      <trkpt lat="45.49352" lon="6.65242">
        <ele>2307.78</ele>
        <time>2016-08-14T07:34:13Z</time>
      </trkpt>
      <trkpt lat="45.49353" lon="6.65244">
        <ele>2306.82</ele>
        <time>2016-08-14T07:34:14Z</time>
      </trkpt>
      <trkpt lat="45.49354" lon="6.65247">
        <ele>2306.82</ele>
        <time>2016-08-14T07:34:15Z</time>
      </trkpt>
      <trkpt lat="45.49355" lon="6.65249">
        <ele>2306.82</ele>
        <time>2016-08-14T07:34:16Z</time>
      </trkpt>
      <trkpt lat="45.49356" lon="6.6525">
        <ele>2306.82</ele>
        <time>2016-08-14T07:34:17Z</time>
      </trkpt>
      <trkpt lat="45.49356" lon="6.65251">
        <ele>2306.34</ele>
        <time>2016-08-14T07:34:18Z</time>
      </trkpt>
      <trkpt lat="45.49357" lon="6.65254">
        <ele>2306.34</ele>
        <time>2016-08-14T07:34:19Z</time>
      </trkpt>
      <trkpt lat="45.49359" lon="6.65256">
        <ele>2306.34</ele>
        <time>2016-08-14T07:34:20Z</time>
      </trkpt>
      <trkpt lat="45.49364" lon="6.65265">
        <ele>2307.78</ele>
        <time>2016-08-14T07:34:25Z</time>
      </trkpt>
      <trkpt lat="45.49365" lon="6.65266">
        <ele>2307.78</ele>
        <time>2016-08-14T07:34:26Z</time>
      </trkpt>
      <trkpt lat="45.49365" lon="6.65273">
        <ele>2307.78</ele>
        <time>2016-08-14T07:34:32Z</time>
      </trkpt>
      <trkpt lat="45.49366" lon="6.65275">
        <ele>2307.78</ele>
        <time>2016-08-14T07:34:33Z</time>
      </trkpt>
      <trkpt lat="45.49367" lon="6.65278">
        <ele>2307.78</ele>
        <time>2016-08-14T07:34:34Z</time>
      </trkpt>
      <trkpt lat="45.49368" lon="6.6528">
        <ele>2306.82</ele>
        <time>2016-08-14T07:34:35Z</time>
      </trkpt>
      <trkpt lat="45.49369" lon="6.65282">
        <ele>2306.82</ele>
        <time>2016-08-14T07:34:36Z</time>
      </trkpt>
      <trkpt lat="45.49384" lon="6.65302">
        <ele>2305.86</ele>
        <time>2016-08-14T07:34:46Z</time>
      </trkpt>
      <trkpt lat="45.49399" lon="6.6533">
        <ele>2302.01</ele>
        <time>2016-08-14T07:34:57Z</time>
      </trkpt>
      <trkpt lat="45.49415" lon="6.65357">
        <ele>2301.05</ele>
        <time>2016-08-14T07:35:06Z</time>
      </trkpt>
      <trkpt lat="45.49425" lon="6.65368">
        <ele>2301.53</ele>
        <time>2016-08-14T07:35:11Z</time>
      </trkpt>
      <trkpt lat="45.49427" lon="6.65367">
        <ele>2301.53</ele>
        <time>2016-08-14T07:35:12Z</time>
      </trkpt>
      <trkpt lat="45.49429" lon="6.65367">
        <ele>2301.53</ele>
        <time>2016-08-14T07:35:13Z</time>
      </trkpt>
      <trkpt lat="45.49431" lon="6.65366">
        <ele>2301.53</ele>
        <time>2016-08-14T07:35:14Z</time>
      </trkpt>
      <trkpt lat="45.49432" lon="6.65366">
        <ele>2301.53</ele>
        <time>2016-08-14T07:35:15Z</time>
      </trkpt>
      <trkpt lat="45.49441" lon="6.6536">
        <ele>2300.57</ele>
        <time>2016-08-14T07:35:25Z</time>
      </trkpt>
      <trkpt lat="45.49441" lon="6.65359">
        <ele>2300.57</ele>
        <time>2016-08-14T07:35:26Z</time>
      </trkpt>
      <trkpt lat="45.49441" lon="6.65354">
        <ele>2300.57</ele>
        <time>2016-08-14T07:35:43Z</time>
      </trkpt>
      <trkpt lat="45.49443" lon="6.65353">
        <ele>2300.57</ele>
        <time>2016-08-14T07:35:50Z</time>
      </trkpt>
      <trkpt lat="45.49445" lon="6.65352">
        <ele>2300.57</ele>
        <time>2016-08-14T07:35:51Z</time>
      </trkpt>
      <trkpt lat="45.49446" lon="6.65352">
        <ele>2300.57</ele>
        <time>2016-08-14T07:35:52Z</time>
      </trkpt>
      <trkpt lat="45.49448" lon="6.65351">
        <ele>2300.09</ele>
        <time>2016-08-14T07:35:53Z</time>
      </trkpt>
      <trkpt lat="45.4945" lon="6.6535">
        <ele>2300.09</ele>
        <time>2016-08-14T07:35:54Z</time>
      </trkpt>
      <trkpt lat="45.49451" lon="6.65349">
        <ele>2299.61</ele>
        <time>2016-08-14T07:35:55Z</time>
      </trkpt>
      <trkpt lat="45.49453" lon="6.65349">
        <ele>2299.61</ele>
        <time>2016-08-14T07:35:56Z</time>
      </trkpt>
      <trkpt lat="45.49455" lon="6.65348">
        <ele>2298.65</ele>
        <time>2016-08-14T07:35:57Z</time>
      </trkpt>
      <trkpt lat="45.49457" lon="6.65347">
        <ele>2298.65</ele>
        <time>2016-08-14T07:35:58Z</time>
      </trkpt>
      <trkpt lat="45.49458" lon="6.65346">
        <ele>2298.17</ele>
        <time>2016-08-14T07:35:59Z</time>
      </trkpt>
      <trkpt lat="45.4946" lon="6.65345">
        <ele>2298.17</ele>
        <time>2016-08-14T07:36:00Z</time>
      </trkpt>
      <trkpt lat="45.49461" lon="6.65344">
        <ele>2298.17</ele>
        <time>2016-08-14T07:36:01Z</time>
      </trkpt>
      <trkpt lat="45.49465" lon="6.65343">
        <ele>2297.21</ele>
        <time>2016-08-14T07:36:03Z</time>
      </trkpt>
      <trkpt lat="45.49469" lon="6.65343">
        <ele>2295.77</ele>
        <time>2016-08-14T07:36:06Z</time>
      </trkpt>
      <trkpt lat="45.49471" lon="6.65343">
        <ele>2295.28</ele>
        <time>2016-08-14T07:36:07Z</time>
      </trkpt>
      <trkpt lat="45.49472" lon="6.65342">
        <ele>2294.8</ele>
        <time>2016-08-14T07:36:08Z</time>
      </trkpt>
      <trkpt lat="45.49479" lon="6.65339">
        <ele>2293.36</ele>
        <time>2016-08-14T07:36:12Z</time>
      </trkpt>
      <trkpt lat="45.49485" lon="6.65336">
        <ele>2291.92</ele>
        <time>2016-08-14T07:36:16Z</time>
      </trkpt>
      <trkpt lat="45.49491" lon="6.65335">
        <ele>2290.48</ele>
        <time>2016-08-14T07:36:19Z</time>
      </trkpt>
      <trkpt lat="45.49509" lon="6.65335">
        <ele>2286.63</ele>
        <time>2016-08-14T07:36:27Z</time>
      </trkpt>
      <trkpt lat="45.49526" lon="6.65335">
        <ele>2283.27</ele>
        <time>2016-08-14T07:36:36Z</time>
      </trkpt>
      <trkpt lat="45.49542" lon="6.65324">
        <ele>2279.9</ele>
        <time>2016-08-14T07:36:46Z</time>
      </trkpt>
      <trkpt lat="45.49561" lon="6.65306">
        <ele>2276.06</ele>
        <time>2016-08-14T07:36:55Z</time>
      </trkpt>
      <trkpt lat="45.49563" lon="6.65304">
        <ele>2276.06</ele>
        <time>2016-08-14T07:36:56Z</time>
      </trkpt>
      <trkpt lat="45.49579" lon="6.65291">
        <ele>2272.69</ele>
        <time>2016-08-14T07:37:04Z</time>
      </trkpt>
      <trkpt lat="45.49585" lon="6.65286">
        <ele>2271.25</ele>
        <time>2016-08-14T07:37:07Z</time>
      </trkpt>
      <trkpt lat="45.49597" lon="6.65278">
        <ele>2268.85</ele>
        <time>2016-08-14T07:37:13Z</time>
      </trkpt>
      <trkpt lat="45.49598" lon="6.65279">
        <ele>2268.85</ele>
        <time>2016-08-14T07:37:14Z</time>
      </trkpt>
      <trkpt lat="45.49599" lon="6.65281">
        <ele>2268.85</ele>
        <time>2016-08-14T07:37:15Z</time>
      </trkpt>
      <trkpt lat="45.49599" lon="6.65285">
        <ele>2268.37</ele>
        <time>2016-08-14T07:37:16Z</time>
      </trkpt>
      <trkpt lat="45.49598" lon="6.65288">
        <ele>2267.89</ele>
        <time>2016-08-14T07:37:17Z</time>
      </trkpt>
      <trkpt lat="45.49599" lon="6.65298">
        <ele>2267.41</ele>
        <time>2016-08-14T07:37:20Z</time>
      </trkpt>
      <trkpt lat="45.496" lon="6.65301">
        <ele>2267.41</ele>
        <time>2016-08-14T07:37:21Z</time>
      </trkpt>
      <trkpt lat="45.49601" lon="6.65303">
        <ele>2267.41</ele>
        <time>2016-08-14T07:37:22Z</time>
      </trkpt>
      <trkpt lat="45.49603" lon="6.65305">
        <ele>2267.41</ele>
        <time>2016-08-14T07:37:23Z</time>
      </trkpt>
      <trkpt lat="45.49605" lon="6.65306">
        <ele>2267.41</ele>
        <time>2016-08-14T07:37:24Z</time>
      </trkpt>
      <trkpt lat="45.49606" lon="6.65306">
        <ele>2266.93</ele>
        <time>2016-08-14T07:37:25Z</time>
      </trkpt>
      <trkpt lat="45.49608" lon="6.65306">
        <ele>2266.93</ele>
        <time>2016-08-14T07:37:26Z</time>
      </trkpt>
      <trkpt lat="45.4961" lon="6.65307">
        <ele>2266.93</ele>
        <time>2016-08-14T07:37:27Z</time>
      </trkpt>
      <trkpt lat="45.49627" lon="6.65312">
        <ele>2263.56</ele>
        <time>2016-08-14T07:37:36Z</time>
      </trkpt>
      <trkpt lat="45.49649" lon="6.65323">
        <ele>2259.72</ele>
        <time>2016-08-14T07:37:47Z</time>
      </trkpt>
      <trkpt lat="45.49659" lon="6.65327">
        <ele>2257.79</ele>
        <time>2016-08-14T07:37:53Z</time>
      </trkpt>
      <trkpt lat="45.4968" lon="6.65327">
        <ele>2254.43</ele>
        <time>2016-08-14T07:38:03Z</time>
      </trkpt>
      <trkpt lat="45.49693" lon="6.65313">
        <ele>2251.54</ele>
        <time>2016-08-14T07:38:11Z</time>
      </trkpt>
      <trkpt lat="45.49697" lon="6.65305">
        <ele>2251.06</ele>
        <time>2016-08-14T07:38:24Z</time>
      </trkpt>
      <trkpt lat="45.49697" lon="6.65304">
        <ele>2251.06</ele>
        <time>2016-08-14T07:38:42Z</time>
      </trkpt>
      <trkpt lat="45.49698" lon="6.65301">
        <ele>2251.06</ele>
        <time>2016-08-14T07:38:52Z</time>
      </trkpt>
      <trkpt lat="45.49699" lon="6.65299">
        <ele>2251.06</ele>
        <time>2016-08-14T07:38:53Z</time>
      </trkpt>
      <trkpt lat="45.49707" lon="6.65273">
        <ele>2247.7</ele>
        <time>2016-08-14T07:39:05Z</time>
      </trkpt>
      <trkpt lat="45.49705" lon="6.65252">
        <ele>2244.82</ele>
        <time>2016-08-14T07:39:14Z</time>
      </trkpt>
      <trkpt lat="45.49698" lon="6.65216">
        <ele>2242.41</ele>
        <time>2016-08-14T07:39:30Z</time>
      </trkpt>
      <trkpt lat="45.49685" lon="6.65179">
        <ele>2239.53</ele>
        <time>2016-08-14T07:39:45Z</time>
      </trkpt>
      <trkpt lat="45.4968" lon="6.65143">
        <ele>2237.61</ele>
        <time>2016-08-14T07:39:56Z</time>
      </trkpt>
      <trkpt lat="45.49675" lon="6.65093">
        <ele>2233.76</ele>
        <time>2016-08-14T07:40:11Z</time>
      </trkpt>
      <trkpt lat="45.49676" lon="6.65053">
        <ele>2231.36</ele>
        <time>2016-08-14T07:40:23Z</time>
      </trkpt>
      <trkpt lat="45.49674" lon="6.65008">
        <ele>2227.99</ele>
        <time>2016-08-14T07:40:36Z</time>
      </trkpt>
      <trkpt lat="45.4968" lon="6.64973">
        <ele>2225.11</ele>
        <time>2016-08-14T07:40:47Z</time>
      </trkpt>
      <trkpt lat="45.49694" lon="6.64947">
        <ele>2223.19</ele>
        <time>2016-08-14T07:40:58Z</time>
      </trkpt>
      <trkpt lat="45.49705" lon="6.64928">
        <ele>2221.26</ele>
        <time>2016-08-14T07:41:08Z</time>
      </trkpt>
      <trkpt lat="45.49725" lon="6.649">
        <ele>2218.38</ele>
        <time>2016-08-14T07:41:20Z</time>
      </trkpt>
      <trkpt lat="45.49745" lon="6.64866">
        <ele>2214.53</ele>
        <time>2016-08-14T07:41:34Z</time>
      </trkpt>
      <trkpt lat="45.4975" lon="6.64835">
        <ele>2211.65</ele>
        <time>2016-08-14T07:41:43Z</time>
      </trkpt>
      <trkpt lat="45.49755" lon="6.64803">
        <ele>2208.77</ele>
        <time>2016-08-14T07:41:53Z</time>
      </trkpt>
      <trkpt lat="45.49755" lon="6.64801">
        <ele>2208.77</ele>
        <time>2016-08-14T07:41:54Z</time>
      </trkpt>
      <trkpt lat="45.49771" lon="6.64773">
        <ele>2204.92</ele>
        <time>2016-08-14T07:42:06Z</time>
      </trkpt>
      <trkpt lat="45.49789" lon="6.64737">
        <ele>2202.04</ele>
        <time>2016-08-14T07:42:21Z</time>
      </trkpt>
      <trkpt lat="45.49799" lon="6.64709">
        <ele>2199.15</ele>
        <time>2016-08-14T07:42:32Z</time>
      </trkpt>
      <trkpt lat="45.49813" lon="6.64681">
        <ele>2196.27</ele>
        <time>2016-08-14T07:42:45Z</time>
      </trkpt>
      <trkpt lat="45.49831" lon="6.64655">
        <ele>2193.87</ele>
        <time>2016-08-14T07:42:57Z</time>
      </trkpt>
      <trkpt lat="45.49854" lon="6.6462">
        <ele>2191.46</ele>
        <time>2016-08-14T07:43:11Z</time>
      </trkpt>
      <trkpt lat="45.49872" lon="6.64605">
        <ele>2189.06</ele>
        <time>2016-08-14T07:43:22Z</time>
      </trkpt>
      <trkpt lat="45.49881" lon="6.64605">
        <ele>2187.62</ele>
        <time>2016-08-14T07:43:26Z</time>
      </trkpt>
      <trkpt lat="45.49883" lon="6.64606">
        <ele>2187.14</ele>
        <time>2016-08-14T07:43:27Z</time>
      </trkpt>
      <trkpt lat="45.49886" lon="6.64608">
        <ele>2187.14</ele>
        <time>2016-08-14T07:43:28Z</time>
      </trkpt>
      <trkpt lat="45.49903" lon="6.64632">
        <ele>2184.25</ele>
        <time>2016-08-14T07:43:38Z</time>
      </trkpt>
      <trkpt lat="45.4992" lon="6.6466">
        <ele>2181.37</ele>
        <time>2016-08-14T07:43:49Z</time>
      </trkpt>
      <trkpt lat="45.49946" lon="6.64675">
        <ele>2178.48</ele>
        <time>2016-08-14T07:44:02Z</time>
      </trkpt>
      <trkpt lat="45.49969" lon="6.64675">
        <ele>2175.6</ele>
        <time>2016-08-14T07:44:12Z</time>
      </trkpt>
      <trkpt lat="45.49995" lon="6.64663">
        <ele>2172.24</ele>
        <time>2016-08-14T07:44:25Z</time>
      </trkpt>
      <trkpt lat="45.50016" lon="6.64663">
        <ele>2169.35</ele>
        <time>2016-08-14T07:44:36Z</time>
      </trkpt>
      <trkpt lat="45.50039" lon="6.6467">
        <ele>2166.95</ele>
        <time>2016-08-14T07:44:47Z</time>
      </trkpt>
      <trkpt lat="45.50039" lon="6.64673">
        <ele>2166.95</ele>
        <time>2016-08-14T07:44:48Z</time>
      </trkpt>
      <trkpt lat="45.50039" lon="6.64678">
        <ele>2165.99</ele>
        <time>2016-08-14T07:44:49Z</time>
      </trkpt>
      <trkpt lat="45.50038" lon="6.64682">
        <ele>2165.99</ele>
        <time>2016-08-14T07:44:50Z</time>
      </trkpt>
      <trkpt lat="45.50037" lon="6.64685">
        <ele>2165.51</ele>
        <time>2016-08-14T07:44:51Z</time>
      </trkpt>
      <trkpt lat="45.50035" lon="6.64686">
        <ele>2165.51</ele>
        <time>2016-08-14T07:44:52Z</time>
      </trkpt>
      <trkpt lat="45.50034" lon="6.64686">
        <ele>2165.51</ele>
        <time>2016-08-14T07:44:53Z</time>
      </trkpt>
      <trkpt lat="45.50032" lon="6.64686">
        <ele>2165.03</ele>
        <time>2016-08-14T07:44:54Z</time>
      </trkpt>
      <trkpt lat="45.5" lon="6.64695">
        <ele>2162.62</ele>
        <time>2016-08-14T07:45:08Z</time>
      </trkpt>
      <trkpt lat="45.49998" lon="6.64697">
        <ele>2162.62</ele>
        <time>2016-08-14T07:45:09Z</time>
      </trkpt>
      <trkpt lat="45.49997" lon="6.647">
        <ele>2162.14</ele>
        <time>2016-08-14T07:45:10Z</time>
      </trkpt>
      <trkpt lat="45.49974" lon="6.64722">
        <ele>2160.22</ele>
        <time>2016-08-14T07:45:22Z</time>
      </trkpt>
      <trkpt lat="45.49942" lon="6.64731">
        <ele>2157.34</ele>
        <time>2016-08-14T07:45:36Z</time>
      </trkpt>
      <trkpt lat="45.49914" lon="6.64747">
        <ele>2154.93</ele>
        <time>2016-08-14T07:45:49Z</time>
      </trkpt>
      <trkpt lat="45.49913" lon="6.64749">
        <ele>2154.93</ele>
        <time>2016-08-14T07:45:50Z</time>
      </trkpt>
      <trkpt lat="45.49913" lon="6.64752">
        <ele>2154.93</ele>
        <time>2016-08-14T07:45:51Z</time>
      </trkpt>
      <trkpt lat="45.49929" lon="6.64765">
        <ele>2152.05</ele>
        <time>2016-08-14T07:46:00Z</time>
      </trkpt>
      <trkpt lat="45.49961" lon="6.64768">
        <ele>2148.68</ele>
        <time>2016-08-14T07:46:15Z</time>
      </trkpt>
      <trkpt lat="45.49987" lon="6.64785">
        <ele>2145.32</ele>
        <time>2016-08-14T07:46:27Z</time>
      </trkpt>
      <trkpt lat="45.50015" lon="6.64802">
        <ele>2141.95</ele>
        <time>2016-08-14T07:46:39Z</time>
      </trkpt>
      <trkpt lat="45.50043" lon="6.64805">
        <ele>2138.59</ele>
        <time>2016-08-14T07:46:51Z</time>
      </trkpt>
      <trkpt lat="45.5007" lon="6.64799">
        <ele>2135.71</ele>
        <time>2016-08-14T07:47:04Z</time>
      </trkpt>
      <trkpt lat="45.50092" lon="6.6478">
        <ele>2131.86</ele>
        <time>2016-08-14T07:47:16Z</time>
      </trkpt>
      <trkpt lat="45.50116" lon="6.64764">
        <ele>2129.46</ele>
        <time>2016-08-14T07:47:29Z</time>
      </trkpt>
      <trkpt lat="45.50138" lon="6.64746">
        <ele>2126.57</ele>
        <time>2016-08-14T07:47:41Z</time>
      </trkpt>
      <trkpt lat="45.50161" lon="6.64738">
        <ele>2123.21</ele>
        <time>2016-08-14T07:47:54Z</time>
      </trkpt>
      <trkpt lat="45.5018" lon="6.64749">
        <ele>2120.81</ele>
        <time>2016-08-14T07:48:05Z</time>
      </trkpt>
      <trkpt lat="45.50209" lon="6.64748">
        <ele>2117.92</ele>
        <time>2016-08-14T07:48:18Z</time>
      </trkpt>
      <trkpt lat="45.50234" lon="6.64741">
        <ele>2115.52</ele>
        <time>2016-08-14T07:48:30Z</time>
      </trkpt>
      <trkpt lat="45.50258" lon="6.64755">
        <ele>2112.63</ele>
        <time>2016-08-14T07:48:43Z</time>
      </trkpt>
      <trkpt lat="45.50291" lon="6.64764">
        <ele>2110.23</ele>
        <time>2016-08-14T07:48:56Z</time>
      </trkpt>
      <trkpt lat="45.50325" lon="6.64764">
        <ele>2106.87</ele>
        <time>2016-08-14T07:49:09Z</time>
      </trkpt>
      <trkpt lat="45.50347" lon="6.64779">
        <ele>2104.94</ele>
        <time>2016-08-14T07:49:21Z</time>
      </trkpt>
      <trkpt lat="45.50378" lon="6.64784">
        <ele>2101.58</ele>
        <time>2016-08-14T07:49:34Z</time>
      </trkpt>
      <trkpt lat="45.50411" lon="6.64783">
        <ele>2098.21</ele>
        <time>2016-08-14T07:49:48Z</time>
      </trkpt>
      <trkpt lat="45.50439" lon="6.64776">
        <ele>2095.33</ele>
        <time>2016-08-14T07:50:00Z</time>
      </trkpt>
      <trkpt lat="45.50469" lon="6.64774">
        <ele>2092.45</ele>
        <time>2016-08-14T07:50:13Z</time>
      </trkpt>
      <trkpt lat="45.50471" lon="6.64775">
        <ele>2091.97</ele>
        <time>2016-08-14T07:50:14Z</time>
      </trkpt>
      <trkpt lat="45.50473" lon="6.64778">
        <ele>2091.97</ele>
        <time>2016-08-14T07:50:15Z</time>
      </trkpt>
      <trkpt lat="45.50475" lon="6.64781">
        <ele>2091.97</ele>
        <time>2016-08-14T07:50:16Z</time>
      </trkpt>
      <trkpt lat="45.50477" lon="6.64783">
        <ele>2091.49</ele>
        <time>2016-08-14T07:50:17Z</time>
      </trkpt>
      <trkpt lat="45.50478" lon="6.64786">
        <ele>2091.49</ele>
        <time>2016-08-14T07:50:18Z</time>
      </trkpt>
      <trkpt lat="45.50495" lon="6.64816">
        <ele>2089.08</ele>
        <time>2016-08-14T07:50:29Z</time>
      </trkpt>
      <trkpt lat="45.5051" lon="6.64842">
        <ele>2086.68</ele>
        <time>2016-08-14T07:50:39Z</time>
      </trkpt>
      <trkpt lat="45.50528" lon="6.64876">
        <ele>2083.31</ele>
        <time>2016-08-14T07:50:51Z</time>
      </trkpt>
      <trkpt lat="45.50535" lon="6.64884">
        <ele>2082.35</ele>
        <time>2016-08-14T07:50:55Z</time>
      </trkpt>
      <trkpt lat="45.50554" lon="6.64907">
        <ele>2079.47</ele>
        <time>2016-08-14T07:51:06Z</time>
      </trkpt>
      <trkpt lat="45.50578" lon="6.64918">
        <ele>2076.59</ele>
        <time>2016-08-14T07:51:19Z</time>
      </trkpt>
      <trkpt lat="45.50578" lon="6.64925">
        <ele>2076.1</ele>
        <time>2016-08-14T07:51:34Z</time>
      </trkpt>
      <trkpt lat="45.50579" lon="6.64924">
        <ele>2075.62</ele>
        <time>2016-08-14T07:51:52Z</time>
      </trkpt>
      <trkpt lat="45.50576" lon="6.64926">
        <ele>2075.62</ele>
        <time>2016-08-14T07:52:00Z</time>
      </trkpt>
      <trkpt lat="45.50552" lon="6.64926">
        <ele>2072.74</ele>
        <time>2016-08-14T07:52:12Z</time>
      </trkpt>
      <trkpt lat="45.50523" lon="6.64922">
        <ele>2069.86</ele>
        <time>2016-08-14T07:52:25Z</time>
      </trkpt>
      <trkpt lat="45.50492" lon="6.64923">
        <ele>2066.97</ele>
        <time>2016-08-14T07:52:39Z</time>
      </trkpt>
      <trkpt lat="45.50468" lon="6.64922">
        <ele>2063.61</ele>
        <time>2016-08-14T07:52:50Z</time>
      </trkpt>
      <trkpt lat="45.50445" lon="6.64917">
        <ele>2060.24</ele>
        <time>2016-08-14T07:53:00Z</time>
      </trkpt>
      <trkpt lat="45.50428" lon="6.64913">
        <ele>2056.88</ele>
        <time>2016-08-14T07:53:09Z</time>
      </trkpt>
      <trkpt lat="45.50409" lon="6.64915">
        <ele>2053.51</ele>
        <time>2016-08-14T07:53:18Z</time>
      </trkpt>
      <trkpt lat="45.5039" lon="6.64922">
        <ele>2050.15</ele>
        <time>2016-08-14T07:53:27Z</time>
      </trkpt>
      <trkpt lat="45.50366" lon="6.64937">
        <ele>2046.78</ele>
        <time>2016-08-14T07:53:39Z</time>
      </trkpt>
      <trkpt lat="45.50345" lon="6.64956">
        <ele>2045.34</ele>
        <time>2016-08-14T07:53:50Z</time>
      </trkpt>
      <trkpt lat="45.50339" lon="6.64972">
        <ele>2044.38</ele>
        <time>2016-08-14T07:53:56Z</time>
      </trkpt>
      <trkpt lat="45.50332" lon="6.64981">
        <ele>2043.42</ele>
        <time>2016-08-14T07:54:01Z</time>
      </trkpt>
      <trkpt lat="45.50328" lon="6.64996">
        <ele>2041.02</ele>
        <time>2016-08-14T07:54:07Z</time>
      </trkpt>
      <trkpt lat="45.50329" lon="6.6501">
        <ele>2038.61</ele>
        <time>2016-08-14T07:54:13Z</time>
      </trkpt>
      <trkpt lat="45.50318" lon="6.65017">
        <ele>2036.69</ele>
        <time>2016-08-14T07:54:24Z</time>
      </trkpt>
      <trkpt lat="45.50296" lon="6.65022">
        <ele>2034.29</ele>
        <time>2016-08-14T07:54:36Z</time>
      </trkpt>
      <trkpt lat="45.50281" lon="6.65025">
        <ele>2031.4</ele>
        <time>2016-08-14T07:54:44Z</time>
      </trkpt>
      <trkpt lat="45.5027" lon="6.65027">
        <ele>2029</ele>
        <time>2016-08-14T07:54:51Z</time>
      </trkpt>
      <trkpt lat="45.50269" lon="6.65028">
        <ele>2028.52</ele>
        <time>2016-08-14T07:54:52Z</time>
      </trkpt>
      <trkpt lat="45.50268" lon="6.65029">
        <ele>2027.56</ele>
        <time>2016-08-14T07:54:53Z</time>
      </trkpt>
      <trkpt lat="45.50266" lon="6.65029">
        <ele>2027.56</ele>
        <time>2016-08-14T07:54:54Z</time>
      </trkpt>
      <trkpt lat="45.50264" lon="6.65029">
        <ele>2027.56</ele>
        <time>2016-08-14T07:54:55Z</time>
      </trkpt>
      <trkpt lat="45.50255" lon="6.6503">
        <ele>2025.64</ele>
        <time>2016-08-14T07:55:07Z</time>
      </trkpt>
      <trkpt lat="45.50248" lon="6.65028">
        <ele>2025.64</ele>
        <time>2016-08-14T07:55:20Z</time>
      </trkpt>
      <trkpt lat="45.50239" lon="6.65034">
        <ele>2022.75</ele>
        <time>2016-08-14T07:55:35Z</time>
      </trkpt>
      <trkpt lat="45.50231" lon="6.65036">
        <ele>2019.39</ele>
        <time>2016-08-14T07:55:45Z</time>
      </trkpt>
      <trkpt lat="45.50229" lon="6.65036">
        <ele>2018.43</ele>
        <time>2016-08-14T07:55:47Z</time>
      </trkpt>
      <trkpt lat="45.50225" lon="6.65038">
        <ele>2016.98</ele>
        <time>2016-08-14T07:55:51Z</time>
      </trkpt>
      <trkpt lat="45.50219" lon="6.65042">
        <ele>2015.06</ele>
        <time>2016-08-14T07:56:02Z</time>
      </trkpt>
      <trkpt lat="45.50218" lon="6.65042">
        <ele>2015.06</ele>
        <time>2016-08-14T07:56:03Z</time>
      </trkpt>
      <trkpt lat="45.50206" lon="6.65045">
        <ele>2013.14</ele>
        <time>2016-08-14T07:56:17Z</time>
      </trkpt>
      <trkpt lat="45.50204" lon="6.65052">
        <ele>2012.18</ele>
        <time>2016-08-14T07:56:35Z</time>
      </trkpt>
      <trkpt lat="45.50198" lon="6.65064">
        <ele>2011.7</ele>
        <time>2016-08-14T07:56:44Z</time>
      </trkpt>
      <trkpt lat="45.50181" lon="6.6507">
        <ele>2011.22</ele>
        <time>2016-08-14T07:56:57Z</time>
      </trkpt>
      <trkpt lat="45.50174" lon="6.65072">
        <ele>2011.22</ele>
        <time>2016-08-14T07:57:09Z</time>
      </trkpt>
      <trkpt lat="45.50172" lon="6.65073">
        <ele>2011.22</ele>
        <time>2016-08-14T07:57:11Z</time>
      </trkpt>
      <trkpt lat="45.50165" lon="6.65078">
        <ele>2010.73</ele>
        <time>2016-08-14T07:57:20Z</time>
      </trkpt>
      <trkpt lat="45.50161" lon="6.65083">
        <ele>2010.25</ele>
        <time>2016-08-14T07:57:25Z</time>
      </trkpt>
      <trkpt lat="45.50158" lon="6.65107">
        <ele>2006.89</ele>
        <time>2016-08-14T07:57:40Z</time>
      </trkpt>
      <trkpt lat="45.50158" lon="6.65109">
        <ele>2006.89</ele>
        <time>2016-08-14T07:57:41Z</time>
      </trkpt>
      <trkpt lat="45.50154" lon="6.65144">
        <ele>2003.52</ele>
        <time>2016-08-14T07:57:55Z</time>
      </trkpt>
      <trkpt lat="45.50153" lon="6.65151">
        <ele>2002.56</ele>
        <time>2016-08-14T07:57:58Z</time>
      </trkpt>
      <trkpt lat="45.50145" lon="6.65162">
        <ele>2002.56</ele>
        <time>2016-08-14T07:58:11Z</time>
      </trkpt>
      <trkpt lat="45.50153" lon="6.6518">
        <ele>2002.08</ele>
        <time>2016-08-14T07:58:24Z</time>
      </trkpt>
      <trkpt lat="45.50154" lon="6.6518">
        <ele>2001.6</ele>
        <time>2016-08-14T07:58:25Z</time>
      </trkpt>
      <trkpt lat="45.50162" lon="6.65191">
        <ele>2001.12</ele>
        <time>2016-08-14T07:58:36Z</time>
      </trkpt>
      <trkpt lat="45.50168" lon="6.65202">
        <ele>1999.68</ele>
        <time>2016-08-14T07:58:49Z</time>
      </trkpt>
      <trkpt lat="45.50171" lon="6.65203">
        <ele>1999.68</ele>
        <time>2016-08-14T07:58:53Z</time>
      </trkpt>
      <trkpt lat="45.50176" lon="6.65205">
        <ele>1998.24</ele>
        <time>2016-08-14T07:58:59Z</time>
      </trkpt>
      <trkpt lat="45.50183" lon="6.65207">
        <ele>1997.28</ele>
        <time>2016-08-14T07:59:03Z</time>
      </trkpt>
      <trkpt lat="45.50186" lon="6.65207">
        <ele>1996.8</ele>
        <time>2016-08-14T07:59:04Z</time>
      </trkpt>
      <trkpt lat="45.5021" lon="6.65208">
        <ele>1992.95</ele>
        <time>2016-08-14T07:59:15Z</time>
      </trkpt>
      <trkpt lat="45.50234" lon="6.65202">
        <ele>1990.07</ele>
        <time>2016-08-14T07:59:27Z</time>
      </trkpt>
      <trkpt lat="45.5026" lon="6.65208">
        <ele>1986.7</ele>
        <time>2016-08-14T07:59:41Z</time>
      </trkpt>
      <trkpt lat="45.50282" lon="6.65215">
        <ele>1983.34</ele>
        <time>2016-08-14T07:59:52Z</time>
      </trkpt>
      <trkpt lat="45.50284" lon="6.65216">
        <ele>1983.34</ele>
        <time>2016-08-14T07:59:53Z</time>
      </trkpt>
      <trkpt lat="45.50285" lon="6.65219">
        <ele>1982.38</ele>
        <time>2016-08-14T07:59:54Z</time>
      </trkpt>
      <trkpt lat="45.50287" lon="6.6522">
        <ele>1982.38</ele>
        <time>2016-08-14T07:59:55Z</time>
      </trkpt>
      <trkpt lat="45.50289" lon="6.65221">
        <ele>1981.9</ele>
        <time>2016-08-14T07:59:56Z</time>
      </trkpt>
      <trkpt lat="45.50293" lon="6.65221">
        <ele>1980.93</ele>
        <time>2016-08-14T07:59:58Z</time>
      </trkpt>
      <trkpt lat="45.50295" lon="6.65221">
        <ele>1980.93</ele>
        <time>2016-08-14T07:59:59Z</time>
      </trkpt>
      <trkpt lat="45.50306" lon="6.65224">
        <ele>1979.49</ele>
        <time>2016-08-14T08:00:05Z</time>
      </trkpt>
      <trkpt lat="45.50318" lon="6.65231">
        <ele>1978.05</ele>
        <time>2016-08-14T08:00:19Z</time>
      </trkpt>
      <trkpt lat="45.50322" lon="6.6523">
        <ele>1977.57</ele>
        <time>2016-08-14T08:00:35Z</time>
      </trkpt>
      <trkpt lat="45.50325" lon="6.6523">
        <ele>1977.09</ele>
        <time>2016-08-14T08:00:42Z</time>
      </trkpt>
      <trkpt lat="45.50327" lon="6.6523">
        <ele>1976.61</ele>
        <time>2016-08-14T08:00:44Z</time>
      </trkpt>
      <trkpt lat="45.50329" lon="6.6523">
        <ele>1976.13</ele>
        <time>2016-08-14T08:00:45Z</time>
      </trkpt>
      <trkpt lat="45.5033" lon="6.65231">
        <ele>1976.13</ele>
        <time>2016-08-14T08:00:46Z</time>
      </trkpt>
      <trkpt lat="45.50344" lon="6.65235">
        <ele>1974.2</ele>
        <time>2016-08-14T08:00:54Z</time>
      </trkpt>
      <trkpt lat="45.50349" lon="6.65236">
        <ele>1973.72</ele>
        <time>2016-08-14T08:00:57Z</time>
      </trkpt>
      <trkpt lat="45.50351" lon="6.65236">
        <ele>1973.24</ele>
        <time>2016-08-14T08:00:58Z</time>
      </trkpt>
      <trkpt lat="45.50353" lon="6.65237">
        <ele>1972.76</ele>
        <time>2016-08-14T08:00:59Z</time>
      </trkpt>
      <trkpt lat="45.50356" lon="6.65238">
        <ele>1972.76</ele>
        <time>2016-08-14T08:01:00Z</time>
      </trkpt>
      <trkpt lat="45.50358" lon="6.65239">
        <ele>1972.76</ele>
        <time>2016-08-14T08:01:01Z</time>
      </trkpt>
      <trkpt lat="45.5036" lon="6.6524">
        <ele>1972.28</ele>
        <time>2016-08-14T08:01:02Z</time>
      </trkpt>
      <trkpt lat="45.50361" lon="6.65241">
        <ele>1972.28</ele>
        <time>2016-08-14T08:01:03Z</time>
      </trkpt>
      <trkpt lat="45.50362" lon="6.65242">
        <ele>1972.28</ele>
        <time>2016-08-14T08:01:04Z</time>
      </trkpt>
      <trkpt lat="45.50384" lon="6.65251">
        <ele>1969.88</ele>
        <time>2016-08-14T08:01:15Z</time>
      </trkpt>
      <trkpt lat="45.50395" lon="6.65256">
        <ele>1968.44</ele>
        <time>2016-08-14T08:01:30Z</time>
      </trkpt>
      <trkpt lat="45.50401" lon="6.65258">
        <ele>1967.48</ele>
        <time>2016-08-14T08:01:43Z</time>
      </trkpt>
      <trkpt lat="45.50403" lon="6.65258">
        <ele>1966.51</ele>
        <time>2016-08-14T08:01:47Z</time>
      </trkpt>
      <trkpt lat="45.50404" lon="6.65257">
        <ele>1966.51</ele>
        <time>2016-08-14T08:01:48Z</time>
      </trkpt>
      <trkpt lat="45.50406" lon="6.65258">
        <ele>1965.55</ele>
        <time>2016-08-14T08:01:49Z</time>
      </trkpt>
      <trkpt lat="45.50412" lon="6.6526">
        <ele>1964.59</ele>
        <time>2016-08-14T08:01:54Z</time>
      </trkpt>
      <trkpt lat="45.50413" lon="6.65261">
        <ele>1964.59</ele>
        <time>2016-08-14T08:01:55Z</time>
      </trkpt>
      <trkpt lat="45.50418" lon="6.65264">
        <ele>1964.11</ele>
        <time>2016-08-14T08:02:09Z</time>
      </trkpt>
      <trkpt lat="45.50422" lon="6.65269">
        <ele>1964.11</ele>
        <time>2016-08-14T08:02:21Z</time>
      </trkpt>
      <trkpt lat="45.50425" lon="6.65273">
        <ele>1963.63</ele>
        <time>2016-08-14T08:02:25Z</time>
      </trkpt>
      <trkpt lat="45.50426" lon="6.65273">
        <ele>1963.63</ele>
        <time>2016-08-14T08:02:26Z</time>
      </trkpt>
      <trkpt lat="45.50431" lon="6.65276">
        <ele>1962.19</ele>
        <time>2016-08-14T08:02:32Z</time>
      </trkpt>
      <trkpt lat="45.50438" lon="6.65281">
        <ele>1961.23</ele>
        <time>2016-08-14T08:02:39Z</time>
      </trkpt>
      <trkpt lat="45.50454" lon="6.65283">
        <ele>1959.78</ele>
        <time>2016-08-14T08:02:53Z</time>
      </trkpt>
      <trkpt lat="45.50456" lon="6.65283">
        <ele>1959.78</ele>
        <time>2016-08-14T08:02:54Z</time>
      </trkpt>
      <trkpt lat="45.50468" lon="6.65286">
        <ele>1958.82</ele>
        <time>2016-08-14T08:03:01Z</time>
      </trkpt>
      <trkpt lat="45.50469" lon="6.65287">
        <ele>1958.34</ele>
        <time>2016-08-14T08:03:02Z</time>
      </trkpt>
      <trkpt lat="45.50471" lon="6.65289">
        <ele>1958.34</ele>
        <time>2016-08-14T08:03:03Z</time>
      </trkpt>
      <trkpt lat="45.50473" lon="6.65289">
        <ele>1957.86</ele>
        <time>2016-08-14T08:03:04Z</time>
      </trkpt>
      <trkpt lat="45.50474" lon="6.65289">
        <ele>1957.38</ele>
        <time>2016-08-14T08:03:05Z</time>
      </trkpt>
      <trkpt lat="45.50475" lon="6.6529">
        <ele>1957.38</ele>
        <time>2016-08-14T08:03:06Z</time>
      </trkpt>
      <trkpt lat="45.5048" lon="6.65294">
        <ele>1957.38</ele>
        <time>2016-08-14T08:03:09Z</time>
      </trkpt>
      <trkpt lat="45.50483" lon="6.65296">
        <ele>1956.42</ele>
        <time>2016-08-14T08:03:11Z</time>
      </trkpt>
      <trkpt lat="45.50486" lon="6.65297">
        <ele>1955.94</ele>
        <time>2016-08-14T08:03:12Z</time>
      </trkpt>
      <trkpt lat="45.50488" lon="6.65297">
        <ele>1955.94</ele>
        <time>2016-08-14T08:03:13Z</time>
      </trkpt>
      <trkpt lat="45.50507" lon="6.65307">
        <ele>1953.54</ele>
        <time>2016-08-14T08:03:24Z</time>
      </trkpt>
      <trkpt lat="45.50528" lon="6.65317">
        <ele>1951.61</ele>
        <time>2016-08-14T08:03:35Z</time>
      </trkpt>
      <trkpt lat="45.50544" lon="6.65324">
        <ele>1949.69</ele>
        <time>2016-08-14T08:03:51Z</time>
      </trkpt>
      <trkpt lat="45.50548" lon="6.65323">
        <ele>1948.73</ele>
        <time>2016-08-14T08:03:53Z</time>
      </trkpt>
      <trkpt lat="45.50568" lon="6.65321">
        <ele>1947.29</ele>
        <time>2016-08-14T08:04:02Z</time>
      </trkpt>
      <trkpt lat="45.50569" lon="6.6532">
        <ele>1947.29</ele>
        <time>2016-08-14T08:04:03Z</time>
      </trkpt>
      <trkpt lat="45.50571" lon="6.6532">
        <ele>1946.33</ele>
        <time>2016-08-14T08:04:04Z</time>
      </trkpt>
      <trkpt lat="45.50573" lon="6.65321">
        <ele>1946.33</ele>
        <time>2016-08-14T08:04:05Z</time>
      </trkpt>
      <trkpt lat="45.50575" lon="6.6532">
        <ele>1946.33</ele>
        <time>2016-08-14T08:04:06Z</time>
      </trkpt>
      <trkpt lat="45.50578" lon="6.6532">
        <ele>1946.33</ele>
        <time>2016-08-14T08:04:07Z</time>
      </trkpt>
      <trkpt lat="45.50581" lon="6.6532">
        <ele>1945.85</ele>
        <time>2016-08-14T08:04:08Z</time>
      </trkpt>
      <trkpt lat="45.50583" lon="6.6532">
        <ele>1945.85</ele>
        <time>2016-08-14T08:04:09Z</time>
      </trkpt>
      <trkpt lat="45.50609" lon="6.65332">
        <ele>1942.96</ele>
        <time>2016-08-14T08:04:21Z</time>
      </trkpt>
      <trkpt lat="45.50639" lon="6.65341">
        <ele>1940.08</ele>
        <time>2016-08-14T08:04:34Z</time>
      </trkpt>
      <trkpt lat="45.50658" lon="6.65353">
        <ele>1937.67</ele>
        <time>2016-08-14T08:04:44Z</time>
      </trkpt>
      <trkpt lat="45.50661" lon="6.65354">
        <ele>1937.67</ele>
        <time>2016-08-14T08:04:45Z</time>
      </trkpt>
      <trkpt lat="45.50681" lon="6.65363">
        <ele>1934.79</ele>
        <time>2016-08-14T08:04:59Z</time>
      </trkpt>
      <trkpt lat="45.50693" lon="6.65366">
        <ele>1934.31</ele>
        <time>2016-08-14T08:05:13Z</time>
      </trkpt>
      <trkpt lat="45.50698" lon="6.65367">
        <ele>1935.75</ele>
        <time>2016-08-14T08:05:16Z</time>
      </trkpt>
      <trkpt lat="45.5072" lon="6.65374">
        <ele>1937.67</ele>
        <time>2016-08-14T08:05:27Z</time>
      </trkpt>
      <trkpt lat="45.50733" lon="6.65384">
        <ele>1939.12</ele>
        <time>2016-08-14T08:05:42Z</time>
      </trkpt>
      <trkpt lat="45.50735" lon="6.65386">
        <ele>1938.64</ele>
        <time>2016-08-14T08:06:11Z</time>
      </trkpt>
      <trkpt lat="45.50746" lon="6.65392">
        <ele>1939.12</ele>
        <time>2016-08-14T08:06:33Z</time>
      </trkpt>
      <trkpt lat="45.50768" lon="6.65404">
        <ele>1940.56</ele>
        <time>2016-08-14T08:06:45Z</time>
      </trkpt>
      <trkpt lat="45.50777" lon="6.65411">
        <ele>1941.52</ele>
        <time>2016-08-14T08:06:50Z</time>
      </trkpt>
      <trkpt lat="45.50779" lon="6.65413">
        <ele>1941.52</ele>
        <time>2016-08-14T08:06:51Z</time>
      </trkpt>
      <trkpt lat="45.50781" lon="6.65415">
        <ele>1942</ele>
        <time>2016-08-14T08:06:52Z</time>
      </trkpt>
      <trkpt lat="45.50782" lon="6.65417">
        <ele>1942</ele>
        <time>2016-08-14T08:06:53Z</time>
      </trkpt>
      <trkpt lat="45.50784" lon="6.65419">
        <ele>1942</ele>
        <time>2016-08-14T08:06:54Z</time>
      </trkpt>
      <trkpt lat="45.50785" lon="6.65421">
        <ele>1942</ele>
        <time>2016-08-14T08:06:55Z</time>
      </trkpt>
      <trkpt lat="45.50789" lon="6.65429">
        <ele>1942.48</ele>
        <time>2016-08-14T08:06:58Z</time>
      </trkpt>
      <trkpt lat="45.50791" lon="6.65431">
        <ele>1942.48</ele>
        <time>2016-08-14T08:06:59Z</time>
      </trkpt>
      <trkpt lat="45.50792" lon="6.65432">
        <ele>1942.48</ele>
        <time>2016-08-14T08:07:00Z</time>
      </trkpt>
      <trkpt lat="45.50794" lon="6.65434">
        <ele>1942.48</ele>
        <time>2016-08-14T08:07:01Z</time>
      </trkpt>
      <trkpt lat="45.50796" lon="6.65436">
        <ele>1942.48</ele>
        <time>2016-08-14T08:07:02Z</time>
      </trkpt>
      <trkpt lat="45.50798" lon="6.65438">
        <ele>1943.44</ele>
        <time>2016-08-14T08:07:03Z</time>
      </trkpt>
      <trkpt lat="45.50814" lon="6.65451">
        <ele>1943.92</ele>
        <time>2016-08-14T08:07:14Z</time>
      </trkpt>
      <trkpt lat="45.50814" lon="6.65452">
        <ele>1944.88</ele>
        <time>2016-08-14T08:07:15Z</time>
      </trkpt>
      <trkpt lat="45.50815" lon="6.65453">
        <ele>1944.88</ele>
        <time>2016-08-14T08:07:16Z</time>
      </trkpt>
      <trkpt lat="45.50817" lon="6.65453">
        <ele>1944.88</ele>
        <time>2016-08-14T08:07:17Z</time>
      </trkpt>
      <trkpt lat="45.50823" lon="6.65454">
        <ele>1944.88</ele>
        <time>2016-08-14T08:07:20Z</time>
      </trkpt>
      <trkpt lat="45.50825" lon="6.65454">
        <ele>1944.88</ele>
        <time>2016-08-14T08:07:21Z</time>
      </trkpt>
      <trkpt lat="45.50828" lon="6.65456">
        <ele>1944.88</ele>
        <time>2016-08-14T08:07:22Z</time>
      </trkpt>
      <trkpt lat="45.5083" lon="6.65458">
        <ele>1944.88</ele>
        <time>2016-08-14T08:07:23Z</time>
      </trkpt>
      <trkpt lat="45.50831" lon="6.65459">
        <ele>1944.88</ele>
        <time>2016-08-14T08:07:24Z</time>
      </trkpt>
      <trkpt lat="45.50833" lon="6.6546">
        <ele>1944.88</ele>
        <time>2016-08-14T08:07:25Z</time>
      </trkpt>
      <trkpt lat="45.50835" lon="6.65461">
        <ele>1944.88</ele>
        <time>2016-08-14T08:07:26Z</time>
      </trkpt>
      <trkpt lat="45.50836" lon="6.65463">
        <ele>1944.88</ele>
        <time>2016-08-14T08:07:27Z</time>
      </trkpt>
      <trkpt lat="45.50839" lon="6.65464">
        <ele>1944.88</ele>
        <time>2016-08-14T08:07:28Z</time>
      </trkpt>
      <trkpt lat="45.50855" lon="6.65477">
        <ele>1946.33</ele>
        <time>2016-08-14T08:07:38Z</time>
      </trkpt>
      <trkpt lat="45.50872" lon="6.65482">
        <ele>1948.25</ele>
        <time>2016-08-14T08:07:50Z</time>
      </trkpt>
      <trkpt lat="45.50879" lon="6.65488">
        <ele>1950.17</ele>
        <time>2016-08-14T08:07:55Z</time>
      </trkpt>
      <trkpt lat="45.50894" lon="6.65508">
        <ele>1952.57</ele>
        <time>2016-08-14T08:08:09Z</time>
      </trkpt>
      <trkpt lat="45.50904" lon="6.6552">
        <ele>1954.5</ele>
        <time>2016-08-14T08:08:19Z</time>
      </trkpt>
      <trkpt lat="45.50905" lon="6.65521">
        <ele>1954.5</ele>
        <time>2016-08-14T08:08:20Z</time>
      </trkpt>
      <trkpt lat="45.50911" lon="6.65522">
        <ele>1956.9</ele>
        <time>2016-08-14T08:08:28Z</time>
      </trkpt>
      <trkpt lat="45.50916" lon="6.65527">
        <ele>1959.78</ele>
        <time>2016-08-14T08:08:37Z</time>
      </trkpt>
      <trkpt lat="45.50921" lon="6.65543">
        <ele>1962.67</ele>
        <time>2016-08-14T08:08:49Z</time>
      </trkpt>
      <trkpt lat="45.50923" lon="6.65547">
        <ele>1963.63</ele>
        <time>2016-08-14T08:08:52Z</time>
      </trkpt>
      <trkpt lat="45.5093" lon="6.65549">
        <ele>1965.55</ele>
        <time>2016-08-14T08:08:58Z</time>
      </trkpt>
      <trkpt lat="45.50943" lon="6.65555">
        <ele>1967.96</ele>
        <time>2016-08-14T08:09:10Z</time>
      </trkpt>
      <trkpt lat="45.50944" lon="6.65556">
        <ele>1967.96</ele>
        <time>2016-08-14T08:09:11Z</time>
      </trkpt>
      <trkpt lat="45.50948" lon="6.65556">
        <ele>1967.96</ele>
        <time>2016-08-14T08:09:14Z</time>
      </trkpt>
      <trkpt lat="45.50951" lon="6.65558">
        <ele>1969.4</ele>
        <time>2016-08-14T08:09:17Z</time>
      </trkpt>
      <trkpt lat="45.50962" lon="6.65556">
        <ele>1972.76</ele>
        <time>2016-08-14T08:09:33Z</time>
      </trkpt>
      <trkpt lat="45.50971" lon="6.65564">
        <ele>1976.13</ele>
        <time>2016-08-14T08:09:46Z</time>
      </trkpt>
      <trkpt lat="45.50976" lon="6.65572">
        <ele>1979.01</ele>
        <time>2016-08-14T08:09:57Z</time>
      </trkpt>
      <trkpt lat="45.50982" lon="6.65595">
        <ele>1982.86</ele>
        <time>2016-08-14T08:10:07Z</time>
      </trkpt>
      <trkpt lat="45.50987" lon="6.65596">
        <ele>1985.74</ele>
        <time>2016-08-14T08:10:18Z</time>
      </trkpt>
      <trkpt lat="45.50995" lon="6.65598">
        <ele>1989.59</ele>
        <time>2016-08-14T08:10:29Z</time>
      </trkpt>
      <trkpt lat="45.51" lon="6.65603">
        <ele>1992.95</ele>
        <time>2016-08-14T08:10:42Z</time>
      </trkpt>
      <trkpt lat="45.51004" lon="6.65616">
        <ele>1995.83</ele>
        <time>2016-08-14T08:10:53Z</time>
      </trkpt>
      <trkpt lat="45.51006" lon="6.65627">
        <ele>1999.2</ele>
        <time>2016-08-14T08:11:01Z</time>
      </trkpt>
      <trkpt lat="45.51004" lon="6.65642">
        <ele>2002.08</ele>
        <time>2016-08-14T08:11:11Z</time>
      </trkpt>
      <trkpt lat="45.51006" lon="6.65656">
        <ele>2005.45</ele>
        <time>2016-08-14T08:11:21Z</time>
      </trkpt>
      <trkpt lat="45.51015" lon="6.65668">
        <ele>2008.81</ele>
        <time>2016-08-14T08:11:34Z</time>
      </trkpt>
      <trkpt lat="45.51018" lon="6.65679">
        <ele>2012.18</ele>
        <time>2016-08-14T08:11:44Z</time>
      </trkpt>
      <trkpt lat="45.5103" lon="6.65697">
        <ele>2014.1</ele>
        <time>2016-08-14T08:11:58Z</time>
      </trkpt>
      <trkpt lat="45.51034" lon="6.65729">
        <ele>2016.98</ele>
        <time>2016-08-14T08:12:11Z</time>
      </trkpt>
      <trkpt lat="45.51039" lon="6.65755">
        <ele>2020.35</ele>
        <time>2016-08-14T08:12:24Z</time>
      </trkpt>
      <trkpt lat="45.51044" lon="6.65784">
        <ele>2023.71</ele>
        <time>2016-08-14T08:12:35Z</time>
      </trkpt>
      <trkpt lat="45.51047" lon="6.65794">
        <ele>2025.64</ele>
        <time>2016-08-14T08:12:44Z</time>
      </trkpt>
      <trkpt lat="45.51053" lon="6.65808">
        <ele>2029</ele>
        <time>2016-08-14T08:12:58Z</time>
      </trkpt>
      <trkpt lat="45.51055" lon="6.65818">
        <ele>2031.88</ele>
        <time>2016-08-14T08:13:07Z</time>
      </trkpt>
      <trkpt lat="45.51062" lon="6.65843">
        <ele>2035.25</ele>
        <time>2016-08-14T08:13:22Z</time>
      </trkpt>
      <trkpt lat="45.51064" lon="6.65869">
        <ele>2038.13</ele>
        <time>2016-08-14T08:13:34Z</time>
      </trkpt>
      <trkpt lat="45.51065" lon="6.65898">
        <ele>2041.5</ele>
        <time>2016-08-14T08:13:46Z</time>
      </trkpt>
      <trkpt lat="45.51066" lon="6.65927">
        <ele>2044.38</ele>
        <time>2016-08-14T08:13:58Z</time>
      </trkpt>
      <trkpt lat="45.51068" lon="6.65947">
        <ele>2047.26</ele>
        <time>2016-08-14T08:14:10Z</time>
      </trkpt>
      <trkpt lat="45.51068" lon="6.65962">
        <ele>2049.67</ele>
        <time>2016-08-14T08:14:19Z</time>
      </trkpt>
      <trkpt lat="45.51069" lon="6.6597">
        <ele>2049.67</ele>
        <time>2016-08-14T08:14:23Z</time>
      </trkpt>
      <trkpt lat="45.51071" lon="6.65979">
        <ele>2049.67</ele>
        <time>2016-08-14T08:14:28Z</time>
      </trkpt>
      <trkpt lat="45.51077" lon="6.66011">
        <ele>2051.59</ele>
        <time>2016-08-14T08:14:42Z</time>
      </trkpt>
      <trkpt lat="45.51079" lon="6.66041">
        <ele>2054.96</ele>
        <time>2016-08-14T08:14:55Z</time>
      </trkpt>
      <trkpt lat="45.51083" lon="6.66057">
        <ele>2058.32</ele>
        <time>2016-08-14T08:15:08Z</time>
      </trkpt>
      <trkpt lat="45.51085" lon="6.66067">
        <ele>2061.68</ele>
        <time>2016-08-14T08:15:19Z</time>
      </trkpt>
      <trkpt lat="45.51089" lon="6.6608">
        <ele>2065.05</ele>
        <time>2016-08-14T08:15:29Z</time>
      </trkpt>
      <trkpt lat="45.51098" lon="6.66092">
        <ele>2066.97</ele>
        <time>2016-08-14T08:15:43Z</time>
      </trkpt>
      <trkpt lat="45.511" lon="6.66106">
        <ele>2070.34</ele>
        <time>2016-08-14T08:15:54Z</time>
      </trkpt>
      <trkpt lat="45.51105" lon="6.66122">
        <ele>2073.7</ele>
        <time>2016-08-14T08:16:04Z</time>
      </trkpt>
      <trkpt lat="45.51106" lon="6.66123">
        <ele>2073.7</ele>
        <time>2016-08-14T08:16:05Z</time>
      </trkpt>
      <trkpt lat="45.5112" lon="6.66153">
        <ele>2076.1</ele>
        <time>2016-08-14T08:16:20Z</time>
      </trkpt>
      <trkpt lat="45.51135" lon="6.66168">
        <ele>2078.03</ele>
        <time>2016-08-14T08:16:33Z</time>
      </trkpt>
      <trkpt lat="45.51151" lon="6.66196">
        <ele>2080.43</ele>
        <time>2016-08-14T08:16:46Z</time>
      </trkpt>
      <trkpt lat="45.51159" lon="6.66205">
        <ele>2082.35</ele>
        <time>2016-08-14T08:16:55Z</time>
      </trkpt>
      <trkpt lat="45.51171" lon="6.66214">
        <ele>2083.31</ele>
        <time>2016-08-14T08:17:02Z</time>
      </trkpt>
      <trkpt lat="45.51183" lon="6.66237">
        <ele>2085.72</ele>
        <time>2016-08-14T08:17:16Z</time>
      </trkpt>
      <trkpt lat="45.51182" lon="6.66252">
        <ele>2088.12</ele>
        <time>2016-08-14T08:17:28Z</time>
      </trkpt>
      <trkpt lat="45.51182" lon="6.66257">
        <ele>2089.08</ele>
        <time>2016-08-14T08:17:30Z</time>
      </trkpt>
      <trkpt lat="45.51177" lon="6.66269">
        <ele>2091.97</ele>
        <time>2016-08-14T08:17:40Z</time>
      </trkpt>
      <trkpt lat="45.51175" lon="6.66283">
        <ele>2095.33</ele>
        <time>2016-08-14T08:17:53Z</time>
      </trkpt>
      <trkpt lat="45.51174" lon="6.66291">
        <ele>2096.29</ele>
        <time>2016-08-14T08:17:57Z</time>
      </trkpt>
      <trkpt lat="45.51171" lon="6.66313">
        <ele>2099.18</ele>
        <time>2016-08-14T08:18:11Z</time>
      </trkpt>
      <trkpt lat="45.51166" lon="6.66343">
        <ele>2102.54</ele>
        <time>2016-08-14T08:18:25Z</time>
      </trkpt>
      <trkpt lat="45.51165" lon="6.66372">
        <ele>2105.42</ele>
        <time>2016-08-14T08:18:37Z</time>
      </trkpt>
      <trkpt lat="45.51165" lon="6.66389">
        <ele>2108.31</ele>
        <time>2016-08-14T08:18:47Z</time>
      </trkpt>
      <trkpt lat="45.51165" lon="6.66392">
        <ele>2108.31</ele>
        <time>2016-08-14T08:18:49Z</time>
      </trkpt>
      <trkpt lat="45.51164" lon="6.66404">
        <ele>2108.79</ele>
        <time>2016-08-14T08:18:55Z</time>
      </trkpt>
      <trkpt lat="45.51164" lon="6.66418">
        <ele>2109.75</ele>
        <time>2016-08-14T08:19:10Z</time>
      </trkpt>
      <trkpt lat="45.51162" lon="6.66421">
        <ele>2109.75</ele>
        <time>2016-08-14T08:19:16Z</time>
      </trkpt>
      <trkpt lat="45.51158" lon="6.66431">
        <ele>2110.71</ele>
        <time>2016-08-14T08:19:23Z</time>
      </trkpt>
      <trkpt lat="45.51154" lon="6.6644">
        <ele>2111.67</ele>
        <time>2016-08-14T08:19:29Z</time>
      </trkpt>
      <trkpt lat="45.51149" lon="6.6644">
        <ele>2112.15</ele>
        <time>2016-08-14T08:19:33Z</time>
      </trkpt>
      <trkpt lat="45.51136" lon="6.66415">
        <ele>2116</ele>
        <time>2016-08-14T08:19:47Z</time>
      </trkpt>
      <trkpt lat="45.51121" lon="6.66393">
        <ele>2119.36</ele>
        <time>2016-08-14T08:20:01Z</time>
      </trkpt>
      <trkpt lat="45.51103" lon="6.66381">
        <ele>2122.25</ele>
        <time>2016-08-14T08:20:15Z</time>
      </trkpt>
      <trkpt lat="45.5109" lon="6.66379">
        <ele>2124.17</ele>
        <time>2016-08-14T08:20:23Z</time>
      </trkpt>
      <trkpt lat="45.51082" lon="6.66384">
        <ele>2125.61</ele>
        <time>2016-08-14T08:20:31Z</time>
      </trkpt>
      <trkpt lat="45.51077" lon="6.66391">
        <ele>2126.09</ele>
        <time>2016-08-14T08:20:44Z</time>
      </trkpt>
      <trkpt lat="45.51079" lon="6.66393">
        <ele>2126.09</ele>
        <time>2016-08-14T08:20:49Z</time>
      </trkpt>
      <trkpt lat="45.51072" lon="6.66424">
        <ele>2126.09</ele>
        <time>2016-08-14T08:21:04Z</time>
      </trkpt>
      <trkpt lat="45.51067" lon="6.66438">
        <ele>2124.65</ele>
        <time>2016-08-14T08:21:09Z</time>
      </trkpt>
      <trkpt lat="45.5105" lon="6.66468">
        <ele>2121.77</ele>
        <time>2016-08-14T08:21:21Z</time>
      </trkpt>
      <trkpt lat="45.51038" lon="6.66495">
        <ele>2118.4</ele>
        <time>2016-08-14T08:21:30Z</time>
      </trkpt>
      <trkpt lat="45.51032" lon="6.66508">
        <ele>2117.44</ele>
        <time>2016-08-14T08:21:35Z</time>
      </trkpt>
      <trkpt lat="45.51025" lon="6.6653">
        <ele>2116</ele>
        <time>2016-08-14T08:21:42Z</time>
      </trkpt>
      <trkpt lat="45.51002" lon="6.66565">
        <ele>2115.52</ele>
        <time>2016-08-14T08:21:56Z</time>
      </trkpt>
      <trkpt lat="45.50975" lon="6.66595">
        <ele>2112.63</ele>
        <time>2016-08-14T08:22:09Z</time>
      </trkpt>
      <trkpt lat="45.50957" lon="6.66617">
        <ele>2109.27</ele>
        <time>2016-08-14T08:22:19Z</time>
      </trkpt>
      <trkpt lat="45.50944" lon="6.66638">
        <ele>2105.42</ele>
        <time>2016-08-14T08:22:26Z</time>
      </trkpt>
      <trkpt lat="45.50929" lon="6.66668">
        <ele>2102.06</ele>
        <time>2016-08-14T08:22:37Z</time>
      </trkpt>
      <trkpt lat="45.50916" lon="6.66691">
        <ele>2099.66</ele>
        <time>2016-08-14T08:22:47Z</time>
      </trkpt>
      <trkpt lat="45.50889" lon="6.66709">
        <ele>2096.77</ele>
        <time>2016-08-14T08:22:59Z</time>
      </trkpt>
      <trkpt lat="45.50868" lon="6.6673">
        <ele>2094.37</ele>
        <time>2016-08-14T08:23:11Z</time>
      </trkpt>
      <trkpt lat="45.50863" lon="6.66754">
        <ele>2091.97</ele>
        <time>2016-08-14T08:23:18Z</time>
      </trkpt>
      <trkpt lat="45.50863" lon="6.66757">
        <ele>2091.49</ele>
        <time>2016-08-14T08:23:19Z</time>
      </trkpt>
      <trkpt lat="45.50863" lon="6.6676">
        <ele>2091.49</ele>
        <time>2016-08-14T08:23:20Z</time>
      </trkpt>
      <trkpt lat="45.50862" lon="6.66763">
        <ele>2090.52</ele>
        <time>2016-08-14T08:23:21Z</time>
      </trkpt>
      <trkpt lat="45.50862" lon="6.66766">
        <ele>2090.52</ele>
        <time>2016-08-14T08:23:22Z</time>
      </trkpt>
      <trkpt lat="45.5086" lon="6.66771">
        <ele>2090.04</ele>
        <time>2016-08-14T08:23:24Z</time>
      </trkpt>
      <trkpt lat="45.50859" lon="6.66772">
        <ele>2090.04</ele>
        <time>2016-08-14T08:23:25Z</time>
      </trkpt>
      <trkpt lat="45.50857" lon="6.66774">
        <ele>2090.04</ele>
        <time>2016-08-14T08:23:26Z</time>
      </trkpt>
      <trkpt lat="45.50849" lon="6.66786">
        <ele>2090.04</ele>
        <time>2016-08-14T08:23:31Z</time>
      </trkpt>
      <trkpt lat="45.50849" lon="6.66789">
        <ele>2089.56</ele>
        <time>2016-08-14T08:23:32Z</time>
      </trkpt>
      <trkpt lat="45.50847" lon="6.66792">
        <ele>2089.56</ele>
        <time>2016-08-14T08:23:33Z</time>
      </trkpt>
      <trkpt lat="45.50846" lon="6.66794">
        <ele>2089.56</ele>
        <time>2016-08-14T08:23:34Z</time>
      </trkpt>
      <trkpt lat="45.50844" lon="6.66797">
        <ele>2089.56</ele>
        <time>2016-08-14T08:23:35Z</time>
      </trkpt>
      <trkpt lat="45.50843" lon="6.66799">
        <ele>2089.56</ele>
        <time>2016-08-14T08:23:36Z</time>
      </trkpt>
      <trkpt lat="45.50841" lon="6.66801">
        <ele>2089.08</ele>
        <time>2016-08-14T08:23:37Z</time>
      </trkpt>
      <trkpt lat="45.50838" lon="6.66803">
        <ele>2089.08</ele>
        <time>2016-08-14T08:23:38Z</time>
      </trkpt>
      <trkpt lat="45.50836" lon="6.66805">
        <ele>2089.08</ele>
        <time>2016-08-14T08:23:39Z</time>
      </trkpt>
      <trkpt lat="45.50825" lon="6.66811">
        <ele>2087.64</ele>
        <time>2016-08-14T08:23:43Z</time>
      </trkpt>
      <trkpt lat="45.50804" lon="6.66838">
        <ele>2085.24</ele>
        <time>2016-08-14T08:23:54Z</time>
      </trkpt>
      <trkpt lat="45.50794" lon="6.66877">
        <ele>2081.87</ele>
        <time>2016-08-14T08:24:05Z</time>
      </trkpt>
      <trkpt lat="45.50789" lon="6.66899">
        <ele>2078.51</ele>
        <time>2016-08-14T08:24:14Z</time>
      </trkpt>
      <trkpt lat="45.50786" lon="6.66903">
        <ele>2077.07</ele>
        <time>2016-08-14T08:24:17Z</time>
      </trkpt>
      <trkpt lat="45.50785" lon="6.66905">
        <ele>2077.07</ele>
        <time>2016-08-14T08:24:18Z</time>
      </trkpt>
      <trkpt lat="45.50784" lon="6.66906">
        <ele>2076.1</ele>
        <time>2016-08-14T08:24:19Z</time>
      </trkpt>
      <trkpt lat="45.50778" lon="6.66912">
        <ele>2074.66</ele>
        <time>2016-08-14T08:24:22Z</time>
      </trkpt>
      <trkpt lat="45.50768" lon="6.66925">
        <ele>2071.78</ele>
        <time>2016-08-14T08:24:28Z</time>
      </trkpt>
      <trkpt lat="45.50762" lon="6.66932">
        <ele>2070.34</ele>
        <time>2016-08-14T08:24:31Z</time>
      </trkpt>
      <trkpt lat="45.50746" lon="6.66953">
        <ele>2066.97</ele>
        <time>2016-08-14T08:24:40Z</time>
      </trkpt>
      <trkpt lat="45.5072" lon="6.66964">
        <ele>2063.13</ele>
        <time>2016-08-14T08:24:52Z</time>
      </trkpt>
      <trkpt lat="45.5069" lon="6.66964">
        <ele>2060.24</ele>
        <time>2016-08-14T08:25:05Z</time>
      </trkpt>
      <trkpt lat="45.50666" lon="6.66964">
        <ele>2057.36</ele>
        <time>2016-08-14T08:25:15Z</time>
      </trkpt>
      <trkpt lat="45.5064" lon="6.66984">
        <ele>2055.44</ele>
        <time>2016-08-14T08:25:27Z</time>
      </trkpt>
      <trkpt lat="45.50608" lon="6.67001">
        <ele>2051.59</ele>
        <time>2016-08-14T08:25:40Z</time>
      </trkpt>
      <trkpt lat="45.50595" lon="6.67012">
        <ele>2048.71</ele>
        <time>2016-08-14T08:25:47Z</time>
      </trkpt>
      <trkpt lat="45.50591" lon="6.67015">
        <ele>2048.23</ele>
        <time>2016-08-14T08:25:49Z</time>
      </trkpt>
      <trkpt lat="45.50585" lon="6.67028">
        <ele>2045.34</ele>
        <time>2016-08-14T08:25:55Z</time>
      </trkpt>
      <trkpt lat="45.50581" lon="6.67042">
        <ele>2042.46</ele>
        <time>2016-08-14T08:26:01Z</time>
      </trkpt>
      <trkpt lat="45.50576" lon="6.67055">
        <ele>2039.57</ele>
        <time>2016-08-14T08:26:06Z</time>
      </trkpt>
      <trkpt lat="45.50569" lon="6.67074">
        <ele>2035.25</ele>
        <time>2016-08-14T08:26:13Z</time>
      </trkpt>
      <trkpt lat="45.50569" lon="6.67076">
        <ele>2035.25</ele>
        <time>2016-08-14T08:26:14Z</time>
      </trkpt>
      <trkpt lat="45.50566" lon="6.67094">
        <ele>2032.36</ele>
        <time>2016-08-14T08:26:20Z</time>
      </trkpt>
      <trkpt lat="45.50561" lon="6.67115">
        <ele>2029.48</ele>
        <time>2016-08-14T08:26:27Z</time>
      </trkpt>
      <trkpt lat="45.50555" lon="6.67137">
        <ele>2026.12</ele>
        <time>2016-08-14T08:26:35Z</time>
      </trkpt>
      <trkpt lat="45.5055" lon="6.67148">
        <ele>2024.67</ele>
        <time>2016-08-14T08:26:39Z</time>
      </trkpt>
      <trkpt lat="45.50542" lon="6.67167">
        <ele>2021.79</ele>
        <time>2016-08-14T08:26:46Z</time>
      </trkpt>
      <trkpt lat="45.50527" lon="6.67192">
        <ele>2017.94</ele>
        <time>2016-08-14T08:26:56Z</time>
      </trkpt>
      <trkpt lat="45.50512" lon="6.67213">
        <ele>2016.5</ele>
        <time>2016-08-14T08:27:07Z</time>
      </trkpt>
      <trkpt lat="45.50495" lon="6.67239">
        <ele>2013.62</ele>
        <time>2016-08-14T08:27:19Z</time>
      </trkpt>
      <trkpt lat="45.50474" lon="6.67263">
        <ele>2010.73</ele>
        <time>2016-08-14T08:27:30Z</time>
      </trkpt>
      <trkpt lat="45.50455" lon="6.67284">
        <ele>2008.33</ele>
        <time>2016-08-14T08:27:41Z</time>
      </trkpt>
      <trkpt lat="45.50442" lon="6.67307">
        <ele>2006.89</ele>
        <time>2016-08-14T08:27:50Z</time>
      </trkpt>
      <trkpt lat="45.50437" lon="6.67332">
        <ele>2004.49</ele>
        <time>2016-08-14T08:27:58Z</time>
      </trkpt>
      <trkpt lat="45.50439" lon="6.67338">
        <ele>2004.01</ele>
        <time>2016-08-14T08:28:00Z</time>
      </trkpt>
      <trkpt lat="45.50441" lon="6.6734">
        <ele>2004.01</ele>
        <time>2016-08-14T08:28:01Z</time>
      </trkpt>
      <trkpt lat="45.50459" lon="6.67364">
        <ele>2002.08</ele>
        <time>2016-08-14T08:28:13Z</time>
      </trkpt>
      <trkpt lat="45.50472" lon="6.674">
        <ele>2000.64</ele>
        <time>2016-08-14T08:28:26Z</time>
      </trkpt>
      <trkpt lat="45.50476" lon="6.67446">
        <ele>2000.16</ele>
        <time>2016-08-14T08:28:39Z</time>
      </trkpt>
      <trkpt lat="45.50483" lon="6.67479">
        <ele>1999.2</ele>
        <time>2016-08-14T08:28:51Z</time>
      </trkpt>
      <trkpt lat="45.50484" lon="6.67482">
        <ele>1999.2</ele>
        <time>2016-08-14T08:28:52Z</time>
      </trkpt>
      <trkpt lat="45.50484" lon="6.67485">
        <ele>1999.2</ele>
        <time>2016-08-14T08:28:53Z</time>
      </trkpt>
      <trkpt lat="45.50485" lon="6.67488">
        <ele>1998.72</ele>
        <time>2016-08-14T08:28:54Z</time>
      </trkpt>
      <trkpt lat="45.50486" lon="6.67491">
        <ele>1998.72</ele>
        <time>2016-08-14T08:28:55Z</time>
      </trkpt>
      <trkpt lat="45.50495" lon="6.67544">
        <ele>1996.8</ele>
        <time>2016-08-14T08:29:09Z</time>
      </trkpt>
      <trkpt lat="45.50501" lon="6.67581">
        <ele>1996.8</ele>
        <time>2016-08-14T08:29:20Z</time>
      </trkpt>
      <trkpt lat="45.50511" lon="6.6762">
        <ele>1997.76</ele>
        <time>2016-08-14T08:29:32Z</time>
      </trkpt>
      <trkpt lat="45.50516" lon="6.6766">
        <ele>1997.76</ele>
        <time>2016-08-14T08:29:45Z</time>
      </trkpt>
      <trkpt lat="45.50518" lon="6.67665">
        <ele>1996.32</ele>
        <time>2016-08-14T08:29:47Z</time>
      </trkpt>
      <trkpt lat="45.50537" lon="6.67695">
        <ele>1996.32</ele>
        <time>2016-08-14T08:29:59Z</time>
      </trkpt>
      <trkpt lat="45.5054" lon="6.67701">
        <ele>1996.32</ele>
        <time>2016-08-14T08:30:02Z</time>
      </trkpt>
      <trkpt lat="45.50543" lon="6.67711">
        <ele>1996.32</ele>
        <time>2016-08-14T08:30:06Z</time>
      </trkpt>
      <trkpt lat="45.50542" lon="6.67717">
        <ele>1997.28</ele>
        <time>2016-08-14T08:30:07Z</time>
      </trkpt>
      <trkpt lat="45.50542" lon="6.6772">
        <ele>1997.28</ele>
        <time>2016-08-14T08:30:08Z</time>
      </trkpt>
      <trkpt lat="45.50542" lon="6.67723">
        <ele>1997.28</ele>
        <time>2016-08-14T08:30:09Z</time>
      </trkpt>
      <trkpt lat="45.50541" lon="6.67726">
        <ele>1997.28</ele>
        <time>2016-08-14T08:30:10Z</time>
      </trkpt>
      <trkpt lat="45.5054" lon="6.67727">
        <ele>1997.28</ele>
        <time>2016-08-14T08:30:11Z</time>
      </trkpt>
      <trkpt lat="45.50538" lon="6.67729">
        <ele>1997.28</ele>
        <time>2016-08-14T08:30:13Z</time>
      </trkpt>
      <trkpt lat="45.50536" lon="6.67731">
        <ele>1997.28</ele>
        <time>2016-08-14T08:30:14Z</time>
      </trkpt>
      <trkpt lat="45.50534" lon="6.67732">
        <ele>1997.28</ele>
        <time>2016-08-14T08:30:15Z</time>
      </trkpt>
      <trkpt lat="45.5053" lon="6.67732">
        <ele>1997.28</ele>
        <time>2016-08-14T08:30:16Z</time>
      </trkpt>
      <trkpt lat="45.50527" lon="6.67733">
        <ele>1997.28</ele>
        <time>2016-08-14T08:30:17Z</time>
      </trkpt>
      <trkpt lat="45.50524" lon="6.67734">
        <ele>1997.28</ele>
        <time>2016-08-14T08:30:18Z</time>
      </trkpt>
      <trkpt lat="45.50523" lon="6.67737">
        <ele>1997.28</ele>
        <time>2016-08-14T08:30:19Z</time>
      </trkpt>
      <trkpt lat="45.50523" lon="6.6774">
        <ele>1997.28</ele>
        <time>2016-08-14T08:30:20Z</time>
      </trkpt>
      <trkpt lat="45.50524" lon="6.67742">
        <ele>1997.28</ele>
        <time>2016-08-14T08:30:21Z</time>
      </trkpt>
      <trkpt lat="45.50526" lon="6.67745">
        <ele>1997.28</ele>
        <time>2016-08-14T08:30:22Z</time>
      </trkpt>
      <trkpt lat="45.50526" lon="6.67747">
        <ele>1997.28</ele>
        <time>2016-08-14T08:30:23Z</time>
      </trkpt>
      <trkpt lat="45.50528" lon="6.67749">
        <ele>1995.83</ele>
        <time>2016-08-14T08:30:25Z</time>
      </trkpt>
      <trkpt lat="45.50552" lon="6.67764">
        <ele>1993.91</ele>
        <time>2016-08-14T08:30:36Z</time>
      </trkpt>
      <trkpt lat="45.50576" lon="6.67772">
        <ele>1993.43</ele>
        <time>2016-08-14T08:30:48Z</time>
      </trkpt>
      <trkpt lat="45.50601" lon="6.67795">
        <ele>1992.95</ele>
        <time>2016-08-14T08:31:00Z</time>
      </trkpt>
      <trkpt lat="45.5063" lon="6.67804">
        <ele>1991.99</ele>
        <time>2016-08-14T08:31:13Z</time>
      </trkpt>
      <trkpt lat="45.50664" lon="6.67822">
        <ele>1989.59</ele>
        <time>2016-08-14T08:31:26Z</time>
      </trkpt>
      <trkpt lat="45.50696" lon="6.6785">
        <ele>1988.62</ele>
        <time>2016-08-14T08:31:41Z</time>
      </trkpt>
      <trkpt lat="45.50711" lon="6.67864">
        <ele>1987.18</ele>
        <time>2016-08-14T08:31:52Z</time>
      </trkpt>
      <trkpt lat="45.50713" lon="6.67866">
        <ele>1986.7</ele>
        <time>2016-08-14T08:31:56Z</time>
      </trkpt>
      <trkpt lat="45.50716" lon="6.67864">
        <ele>1985.26</ele>
        <time>2016-08-14T08:32:00Z</time>
      </trkpt>
      <trkpt lat="45.50729" lon="6.67851">
        <ele>1983.34</ele>
        <time>2016-08-14T08:32:14Z</time>
      </trkpt>
      <trkpt lat="45.50727" lon="6.67843">
        <ele>1983.34</ele>
        <time>2016-08-14T08:32:26Z</time>
      </trkpt>
      <trkpt lat="45.50729" lon="6.67842">
        <ele>1983.34</ele>
        <time>2016-08-14T08:32:39Z</time>
      </trkpt>
      <trkpt lat="45.5073" lon="6.67839">
        <ele>1982.86</ele>
        <time>2016-08-14T08:33:00Z</time>
      </trkpt>
      <trkpt lat="45.50734" lon="6.67837">
        <ele>1982.86</ele>
        <time>2016-08-14T08:33:24Z</time>
      </trkpt>
      <trkpt lat="45.50733" lon="6.6784">
        <ele>1982.86</ele>
        <time>2016-08-14T08:33:48Z</time>
      </trkpt>
      <trkpt lat="45.5073" lon="6.67842">
        <ele>1982.38</ele>
        <time>2016-08-14T08:34:23Z</time>
      </trkpt>
      <trkpt lat="45.50736" lon="6.67843">
        <ele>1982.38</ele>
        <time>2016-08-14T08:34:48Z</time>
      </trkpt>
      <trkpt lat="45.50735" lon="6.67851">
        <ele>1981.9</ele>
        <time>2016-08-14T08:35:06Z</time>
      </trkpt>
      <trkpt lat="45.50729" lon="6.67845">
        <ele>1981.9</ele>
        <time>2016-08-14T08:35:29Z</time>
      </trkpt>
      <trkpt lat="45.50716" lon="6.67855">
        <ele>1981.9</ele>
        <time>2016-08-14T08:36:07Z</time>
      </trkpt>
      <trkpt lat="45.50714" lon="6.67845">
        <ele>1981.9</ele>
        <time>2016-08-14T08:36:48Z</time>
      </trkpt>
      <trkpt lat="45.50713" lon="6.67842">
        <ele>1982.38</ele>
        <time>2016-08-14T08:37:10Z</time>
      </trkpt>
      <trkpt lat="45.5071" lon="6.67834">
        <ele>1982.38</ele>
        <time>2016-08-14T08:37:45Z</time>
      </trkpt>
      <trkpt lat="45.50716" lon="6.67838">
        <ele>1982.38</ele>
        <time>2016-08-14T08:38:01Z</time>
      </trkpt>
      <trkpt lat="45.50717" lon="6.67854">
        <ele>1982.86</ele>
        <time>2016-08-14T08:38:24Z</time>
      </trkpt>
      <trkpt lat="45.50717" lon="6.6788">
        <ele>1986.22</ele>
        <time>2016-08-14T08:38:32Z</time>
      </trkpt>
      <trkpt lat="45.50713" lon="6.67909">
        <ele>1990.07</ele>
        <time>2016-08-14T08:38:41Z</time>
      </trkpt>
      <trkpt lat="45.50709" lon="6.6793">
        <ele>1992.95</ele>
        <time>2016-08-14T08:38:47Z</time>
      </trkpt>
      <trkpt lat="45.50706" lon="6.67953">
        <ele>1996.32</ele>
        <time>2016-08-14T08:38:53Z</time>
      </trkpt>
      <trkpt lat="45.50704" lon="6.67972">
        <ele>1999.68</ele>
        <time>2016-08-14T08:38:58Z</time>
      </trkpt>
      <trkpt lat="45.50701" lon="6.67992">
        <ele>2003.04</ele>
        <time>2016-08-14T08:39:03Z</time>
      </trkpt>
      <trkpt lat="45.50699" lon="6.68012">
        <ele>2006.89</ele>
        <time>2016-08-14T08:39:08Z</time>
      </trkpt>
      <trkpt lat="45.50697" lon="6.68027">
        <ele>2010.25</ele>
        <time>2016-08-14T08:39:12Z</time>
      </trkpt>
      <trkpt lat="45.50694" lon="6.68042">
        <ele>2013.62</ele>
        <time>2016-08-14T08:39:16Z</time>
      </trkpt>
      <trkpt lat="45.50691" lon="6.68054">
        <ele>2016.98</ele>
        <time>2016-08-14T08:39:20Z</time>
      </trkpt>
      <trkpt lat="45.50689" lon="6.68068">
        <ele>2020.83</ele>
        <time>2016-08-14T08:39:24Z</time>
      </trkpt>
      <trkpt lat="45.50688" lon="6.68081">
        <ele>2024.67</ele>
        <time>2016-08-14T08:39:28Z</time>
      </trkpt>
      <trkpt lat="45.50686" lon="6.68091">
        <ele>2027.56</ele>
        <time>2016-08-14T08:39:31Z</time>
      </trkpt>
      <trkpt lat="45.50684" lon="6.68104">
        <ele>2030.92</ele>
        <time>2016-08-14T08:39:35Z</time>
      </trkpt>
      <trkpt lat="45.50681" lon="6.68134">
        <ele>2034.29</ele>
        <time>2016-08-14T08:39:43Z</time>
      </trkpt>
      <trkpt lat="45.50678" lon="6.68153">
        <ele>2037.17</ele>
        <time>2016-08-14T08:39:48Z</time>
      </trkpt>
      <trkpt lat="45.50673" lon="6.68173">
        <ele>2041.02</ele>
        <time>2016-08-14T08:39:53Z</time>
      </trkpt>
      <trkpt lat="45.50669" lon="6.68188">
        <ele>2043.9</ele>
        <time>2016-08-14T08:39:57Z</time>
      </trkpt>
      <trkpt lat="45.50667" lon="6.68203">
        <ele>2047.75</ele>
        <time>2016-08-14T08:40:01Z</time>
      </trkpt>
      <trkpt lat="45.50663" lon="6.68217">
        <ele>2051.11</ele>
        <time>2016-08-14T08:40:05Z</time>
      </trkpt>
      <trkpt lat="45.5066" lon="6.68229">
        <ele>2054.96</ele>
        <time>2016-08-14T08:40:09Z</time>
      </trkpt>
      <trkpt lat="45.50659" lon="6.68232">
        <ele>2054.96</ele>
        <time>2016-08-14T08:40:10Z</time>
      </trkpt>
      <trkpt lat="45.50652" lon="6.68266">
        <ele>2058.32</ele>
        <time>2016-08-14T08:40:19Z</time>
      </trkpt>
      <trkpt lat="45.50644" lon="6.68298">
        <ele>2057.84</ele>
        <time>2016-08-14T08:40:29Z</time>
      </trkpt>
      <trkpt lat="45.50628" lon="6.68353">
        <ele>2057.36</ele>
        <time>2016-08-14T08:40:47Z</time>
      </trkpt>
      <trkpt lat="45.50624" lon="6.68365">
        <ele>2059.76</ele>
        <time>2016-08-14T08:41:06Z</time>
      </trkpt>
      <trkpt lat="45.50628" lon="6.6838">
        <ele>2060.24</ele>
        <time>2016-08-14T08:41:27Z</time>
      </trkpt>
      <trkpt lat="45.50625" lon="6.68386">
        <ele>2060.24</ele>
        <time>2016-08-14T08:41:47Z</time>
      </trkpt>
      <trkpt lat="45.50623" lon="6.68388">
        <ele>2060.24</ele>
        <time>2016-08-14T08:41:48Z</time>
      </trkpt>
      <trkpt lat="45.50619" lon="6.68394">
        <ele>2060.24</ele>
        <time>2016-08-14T08:41:51Z</time>
      </trkpt>
      <trkpt lat="45.50618" lon="6.68396">
        <ele>2060.24</ele>
        <time>2016-08-14T08:41:52Z</time>
      </trkpt>
      <trkpt lat="45.50618" lon="6.68397">
        <ele>2060.24</ele>
        <time>2016-08-14T08:41:53Z</time>
      </trkpt>
      <trkpt lat="45.50619" lon="6.68399">
        <ele>2060.24</ele>
        <time>2016-08-14T08:41:54Z</time>
      </trkpt>
      <trkpt lat="45.50619" lon="6.68401">
        <ele>2060.24</ele>
        <time>2016-08-14T08:41:55Z</time>
      </trkpt>
      <trkpt lat="45.50619" lon="6.68403">
        <ele>2060.24</ele>
        <time>2016-08-14T08:41:56Z</time>
      </trkpt>
      <trkpt lat="45.5062" lon="6.68404">
        <ele>2061.2</ele>
        <time>2016-08-14T08:41:57Z</time>
      </trkpt>
      <trkpt lat="45.50647" lon="6.68439">
        <ele>2061.2</ele>
        <time>2016-08-14T08:42:11Z</time>
      </trkpt>
      <trkpt lat="45.50655" lon="6.68462">
        <ele>2059.76</ele>
        <time>2016-08-14T08:42:18Z</time>
      </trkpt>
      <trkpt lat="45.50667" lon="6.6851">
        <ele>2057.84</ele>
        <time>2016-08-14T08:42:31Z</time>
      </trkpt>
      <trkpt lat="45.50681" lon="6.68572">
        <ele>2057.36</ele>
        <time>2016-08-14T08:42:43Z</time>
      </trkpt>
      <trkpt lat="45.50688" lon="6.68585">
        <ele>2057.36</ele>
        <time>2016-08-14T08:42:47Z</time>
      </trkpt>
      <trkpt lat="45.50689" lon="6.68612">
        <ele>2057.36</ele>
        <time>2016-08-14T08:42:54Z</time>
      </trkpt>
      <trkpt lat="45.50683" lon="6.68638">
        <ele>2057.36</ele>
        <time>2016-08-14T08:43:02Z</time>
      </trkpt>
      <trkpt lat="45.50676" lon="6.68656">
        <ele>2057.36</ele>
        <time>2016-08-14T08:43:08Z</time>
      </trkpt>
      <trkpt lat="45.50673" lon="6.68662">
        <ele>2058.8</ele>
        <time>2016-08-14T08:43:10Z</time>
      </trkpt>
      <trkpt lat="45.50671" lon="6.68668">
        <ele>2058.8</ele>
        <time>2016-08-14T08:43:12Z</time>
      </trkpt>
      <trkpt lat="45.50671" lon="6.68677">
        <ele>2058.8</ele>
        <time>2016-08-14T08:43:15Z</time>
      </trkpt>
      <trkpt lat="45.50684" lon="6.68684">
        <ele>2057.36</ele>
        <time>2016-08-14T08:43:21Z</time>
      </trkpt>
      <trkpt lat="45.5071" lon="6.68698">
        <ele>2055.92</ele>
        <time>2016-08-14T08:43:33Z</time>
      </trkpt>
      <trkpt lat="45.50714" lon="6.68704">
        <ele>2055.92</ele>
        <time>2016-08-14T08:43:37Z</time>
      </trkpt>
      <trkpt lat="45.50717" lon="6.6871">
        <ele>2057.84</ele>
        <time>2016-08-14T08:43:41Z</time>
      </trkpt>
      <trkpt lat="45.50719" lon="6.68729">
        <ele>2061.68</ele>
        <time>2016-08-14T08:43:54Z</time>
      </trkpt>
      <trkpt lat="45.50718" lon="6.68732">
        <ele>2061.68</ele>
        <time>2016-08-14T08:43:56Z</time>
      </trkpt>
      <trkpt lat="45.50718" lon="6.68736">
        <ele>2062.17</ele>
        <time>2016-08-14T08:43:59Z</time>
      </trkpt>
      <trkpt lat="45.50722" lon="6.68762">
        <ele>2065.53</ele>
        <time>2016-08-14T08:44:13Z</time>
      </trkpt>
      <trkpt lat="45.50726" lon="6.68768">
        <ele>2068.89</ele>
        <time>2016-08-14T08:44:22Z</time>
      </trkpt>
      <trkpt lat="45.50727" lon="6.68771">
        <ele>2069.38</ele>
        <time>2016-08-14T08:44:25Z</time>
      </trkpt>
      <trkpt lat="45.50738" lon="6.68781">
        <ele>2069.86</ele>
        <time>2016-08-14T08:44:42Z</time>
      </trkpt>
      <trkpt lat="45.5074" lon="6.68781">
        <ele>2069.86</ele>
        <time>2016-08-14T08:45:03Z</time>
      </trkpt>
      <trkpt lat="45.50737" lon="6.68774">
        <ele>2069.86</ele>
        <time>2016-08-14T08:45:15Z</time>
      </trkpt>
      <trkpt lat="45.50746" lon="6.68758">
        <ele>2069.86</ele>
        <time>2016-08-14T08:46:01Z</time>
      </trkpt>
      <trkpt lat="45.50749" lon="6.68765">
        <ele>2069.86</ele>
        <time>2016-08-14T08:46:28Z</time>
      </trkpt>
      <trkpt lat="45.50753" lon="6.68769">
        <ele>2069.86</ele>
        <time>2016-08-14T08:48:09Z</time>
      </trkpt>
      <trkpt lat="45.50753" lon="6.68765">
        <ele>2069.86</ele>
        <time>2016-08-14T08:48:45Z</time>
      </trkpt>
      <trkpt lat="45.50754" lon="6.68759">
        <ele>2069.86</ele>
        <time>2016-08-14T08:49:11Z</time>
      </trkpt>
      <trkpt lat="45.50756" lon="6.68805">
        <ele>2069.86</ele>
        <time>2016-08-14T08:49:40Z</time>
      </trkpt>
    </trkseg>
  </trk>
</gpx>